<?xml version="1.0" encoding="UTF-8" standalone="no" ?>
<gpx xmlns="http://www.topografix.com/GPX/1/1" xmlns:xsi="http://www.w3.org/2001/XMLSchema-instance" xsi:schemaLocation="http://www.topografix.com/GPX/1/1 http://www.topografix.com/GPX/1/1/gpx.xsd" version="1.1" creator="VisuGPX - https://www.visugpx.com">
  <metadata>
    <name>262_Circuit 80 km Les Herbiers_Les Herbiers édité par cth85.com</name>
    <desc><![CDATA[Circuit de 80 km passant par:
Les Herbiers
D11 Les Epesses
D11 Mallièvre
Saint Amand sur Sèvre
D154 La Petite Boissière
rejoindre D153, Combrand
D155 Le Pin
D155 Bretignolles
D150 Cirières
D960Bis Cerizay
D149 Montravers
D149 La Pommeraie sur Sèvre
D27 sur 2,5 km, à gauche, La Flocelière
D64 Saint Michel Mont Mercure
D755 Les Herbiers]]></desc>
  </metadata>
  <trk>
    <name><![CDATA[80_262_cth85.com]]></name>
    <extensions>
      <line xmlns="http://www.topografix.com/GPX/gpx_style/0/2">
        <color>0000FF</color>
        <width>4</width>
      </line>
    </extensions>
    <trkseg>
      <trkpt lat="46.86388" lon="-1.00558">
        <ele>120</ele>
        <time>2021-09-02T10:34:03Z</time>
      </trkpt>
      <trkpt lat="46.86381" lon="-1.00562">
        <ele>120</ele>
        <time>2021-09-02T10:34:04Z</time>
      </trkpt>
      <trkpt lat="46.86335" lon="-1.00614">
        <ele>119</ele>
        <time>2021-09-02T10:34:15Z</time>
      </trkpt>
      <trkpt lat="46.86315" lon="-1.00632">
        <ele>119</ele>
        <time>2021-09-02T10:34:19Z</time>
      </trkpt>
      <trkpt lat="46.8627" lon="-1.00662">
        <ele>118</ele>
        <time>2021-09-02T10:34:28Z</time>
      </trkpt>
      <trkpt lat="46.86234" lon="-1.00681">
        <ele>117</ele>
        <time>2021-09-02T10:34:34Z</time>
      </trkpt>
      <trkpt lat="46.86228" lon="-1.00664">
        <ele>117</ele>
        <time>2021-09-02T10:34:37Z</time>
      </trkpt>
      <trkpt lat="46.86189" lon="-1.00512">
        <ele>115</ele>
        <time>2021-09-02T10:34:57Z</time>
      </trkpt>
      <trkpt lat="46.8617" lon="-1.00489">
        <ele>115</ele>
        <time>2021-09-02T10:35:01Z</time>
      </trkpt>
      <trkpt lat="46.8614" lon="-1.00467">
        <ele>116</ele>
        <time>2021-09-02T10:35:07Z</time>
      </trkpt>
      <trkpt lat="46.86041" lon="-1.00409">
        <ele>115</ele>
        <time>2021-09-02T10:35:26Z</time>
      </trkpt>
      <trkpt lat="46.86052" lon="-1.00363">
        <ele>115</ele>
        <time>2021-09-02T10:35:32Z</time>
      </trkpt>
      <trkpt lat="46.86171" lon="-0.99914">
        <ele>118</ele>
        <time>2021-09-02T10:36:30Z</time>
      </trkpt>
      <trkpt lat="46.86212" lon="-0.99771">
        <ele>120</ele>
        <time>2021-09-02T10:36:49Z</time>
      </trkpt>
      <trkpt lat="46.86221" lon="-0.99734">
        <ele>120</ele>
        <time>2021-09-02T10:36:54Z</time>
      </trkpt>
      <trkpt lat="46.86312" lon="-0.99257">
        <ele>125</ele>
        <time>2021-09-02T10:37:54Z</time>
      </trkpt>
      <trkpt lat="46.86335" lon="-0.99141">
        <ele>128</ele>
        <time>2021-09-02T10:38:09Z</time>
      </trkpt>
      <trkpt lat="46.86345" lon="-0.99102">
        <ele>129</ele>
        <time>2021-09-02T10:38:14Z</time>
      </trkpt>
      <trkpt lat="46.86362" lon="-0.9905">
        <ele>131</ele>
        <time>2021-09-02T10:38:21Z</time>
      </trkpt>
      <trkpt lat="46.86373" lon="-0.99021">
        <ele>132</ele>
        <time>2021-09-02T10:38:25Z</time>
      </trkpt>
      <trkpt lat="46.86399" lon="-0.98966">
        <ele>134</ele>
        <time>2021-09-02T10:38:33Z</time>
      </trkpt>
      <trkpt lat="46.86448" lon="-0.98872">
        <ele>139</ele>
        <time>2021-09-02T10:38:48Z</time>
      </trkpt>
      <trkpt lat="46.86514" lon="-0.98737">
        <ele>145</ele>
        <time>2021-09-02T10:39:08Z</time>
      </trkpt>
      <trkpt lat="46.86527" lon="-0.98706">
        <ele>145</ele>
        <time>2021-09-02T10:39:12Z</time>
      </trkpt>
      <trkpt lat="46.86563" lon="-0.98597">
        <ele>148</ele>
        <time>2021-09-02T10:39:27Z</time>
      </trkpt>
      <trkpt lat="46.86601" lon="-0.98456">
        <ele>149</ele>
        <time>2021-09-02T10:39:45Z</time>
      </trkpt>
      <trkpt lat="46.86614" lon="-0.98397">
        <ele>148</ele>
        <time>2021-09-02T10:39:53Z</time>
      </trkpt>
      <trkpt lat="46.86624" lon="-0.98376">
        <ele>146</ele>
        <time>2021-09-02T10:39:56Z</time>
      </trkpt>
      <trkpt lat="46.86629" lon="-0.9837">
        <ele>146</ele>
        <time>2021-09-02T10:39:57Z</time>
      </trkpt>
      <trkpt lat="46.86629" lon="-0.98233">
        <ele>147</ele>
        <time>2021-09-02T10:40:14Z</time>
      </trkpt>
      <trkpt lat="46.86624" lon="-0.98135">
        <ele>150</ele>
        <time>2021-09-02T10:40:26Z</time>
      </trkpt>
      <trkpt lat="46.86637" lon="-0.98132">
        <ele>148</ele>
        <time>2021-09-02T10:40:28Z</time>
      </trkpt>
      <trkpt lat="46.8665" lon="-0.98123">
        <ele>147</ele>
        <time>2021-09-02T10:40:31Z</time>
      </trkpt>
      <trkpt lat="46.86692" lon="-0.98032">
        <ele>144</ele>
        <time>2021-09-02T10:40:44Z</time>
      </trkpt>
      <trkpt lat="46.86837" lon="-0.97683">
        <ele>138</ele>
        <time>2021-09-02T10:41:34Z</time>
      </trkpt>
      <trkpt lat="46.86945" lon="-0.97416">
        <ele>139</ele>
        <time>2021-09-02T10:42:11Z</time>
      </trkpt>
      <trkpt lat="46.86953" lon="-0.97379">
        <ele>140</ele>
        <time>2021-09-02T10:42:16Z</time>
      </trkpt>
      <trkpt lat="46.86954" lon="-0.9736">
        <ele>141</ele>
        <time>2021-09-02T10:42:19Z</time>
      </trkpt>
      <trkpt lat="46.86951" lon="-0.97352">
        <ele>141</ele>
        <time>2021-09-02T10:42:20Z</time>
      </trkpt>
      <trkpt lat="46.8695" lon="-0.97339">
        <ele>142</ele>
        <time>2021-09-02T10:42:21Z</time>
      </trkpt>
      <trkpt lat="46.86956" lon="-0.97324">
        <ele>142</ele>
        <time>2021-09-02T10:42:23Z</time>
      </trkpt>
      <trkpt lat="46.86964" lon="-0.97316">
        <ele>142</ele>
        <time>2021-09-02T10:42:25Z</time>
      </trkpt>
      <trkpt lat="46.86971" lon="-0.97303">
        <ele>142</ele>
        <time>2021-09-02T10:42:27Z</time>
      </trkpt>
      <trkpt lat="46.86978" lon="-0.97274">
        <ele>142</ele>
        <time>2021-09-02T10:42:31Z</time>
      </trkpt>
      <trkpt lat="46.86982" lon="-0.9725">
        <ele>142</ele>
        <time>2021-09-02T10:42:34Z</time>
      </trkpt>
      <trkpt lat="46.86985" lon="-0.97194">
        <ele>143</ele>
        <time>2021-09-02T10:42:41Z</time>
      </trkpt>
      <trkpt lat="46.87001" lon="-0.96834">
        <ele>144</ele>
        <time>2021-09-02T10:43:25Z</time>
      </trkpt>
      <trkpt lat="46.87009" lon="-0.96763">
        <ele>143</ele>
        <time>2021-09-02T10:43:33Z</time>
      </trkpt>
      <trkpt lat="46.87018" lon="-0.96705">
        <ele>143</ele>
        <time>2021-09-02T10:43:41Z</time>
      </trkpt>
      <trkpt lat="46.87037" lon="-0.96619">
        <ele>143</ele>
        <time>2021-09-02T10:43:52Z</time>
      </trkpt>
      <trkpt lat="46.87048" lon="-0.96579">
        <ele>143</ele>
        <time>2021-09-02T10:43:57Z</time>
      </trkpt>
      <trkpt lat="46.87062" lon="-0.96534">
        <ele>142</ele>
        <time>2021-09-02T10:44:03Z</time>
      </trkpt>
      <trkpt lat="46.87246" lon="-0.96059">
        <ele>147</ele>
        <time>2021-09-02T10:45:09Z</time>
      </trkpt>
      <trkpt lat="46.87266" lon="-0.95997">
        <ele>149</ele>
        <time>2021-09-02T10:45:18Z</time>
      </trkpt>
      <trkpt lat="46.87274" lon="-0.95957">
        <ele>149</ele>
        <time>2021-09-02T10:45:23Z</time>
      </trkpt>
      <trkpt lat="46.87283" lon="-0.95879">
        <ele>149</ele>
        <time>2021-09-02T10:45:32Z</time>
      </trkpt>
      <trkpt lat="46.87311" lon="-0.95551">
        <ele>151</ele>
        <time>2021-09-02T10:46:12Z</time>
      </trkpt>
      <trkpt lat="46.87312" lon="-0.95518">
        <ele>152</ele>
        <time>2021-09-02T10:46:16Z</time>
      </trkpt>
      <trkpt lat="46.8731" lon="-0.95485">
        <ele>152</ele>
        <time>2021-09-02T10:46:20Z</time>
      </trkpt>
      <trkpt lat="46.87308" lon="-0.9545">
        <ele>153</ele>
        <time>2021-09-02T10:46:25Z</time>
      </trkpt>
      <trkpt lat="46.87302" lon="-0.9541">
        <ele>153</ele>
        <time>2021-09-02T10:46:30Z</time>
      </trkpt>
      <trkpt lat="46.87283" lon="-0.95333">
        <ele>149</ele>
        <time>2021-09-02T10:46:40Z</time>
      </trkpt>
      <trkpt lat="46.87229" lon="-0.95185">
        <ele>145</ele>
        <time>2021-09-02T10:47:00Z</time>
      </trkpt>
      <trkpt lat="46.87213" lon="-0.95127">
        <ele>143</ele>
        <time>2021-09-02T10:47:08Z</time>
      </trkpt>
      <trkpt lat="46.87206" lon="-0.95091">
        <ele>142</ele>
        <time>2021-09-02T10:47:12Z</time>
      </trkpt>
      <trkpt lat="46.872" lon="-0.95052">
        <ele>140</ele>
        <time>2021-09-02T10:47:17Z</time>
      </trkpt>
      <trkpt lat="46.87197" lon="-0.95003">
        <ele>139</ele>
        <time>2021-09-02T10:47:23Z</time>
      </trkpt>
      <trkpt lat="46.87196" lon="-0.94969">
        <ele>137</ele>
        <time>2021-09-02T10:47:27Z</time>
      </trkpt>
      <trkpt lat="46.87198" lon="-0.94913">
        <ele>134</ele>
        <time>2021-09-02T10:47:34Z</time>
      </trkpt>
      <trkpt lat="46.87202" lon="-0.94879">
        <ele>133</ele>
        <time>2021-09-02T10:47:38Z</time>
      </trkpt>
      <trkpt lat="46.87254" lon="-0.94604">
        <ele>122</ele>
        <time>2021-09-02T10:48:13Z</time>
      </trkpt>
      <trkpt lat="46.87262" lon="-0.94569">
        <ele>123</ele>
        <time>2021-09-02T10:48:17Z</time>
      </trkpt>
      <trkpt lat="46.87415" lon="-0.93784">
        <ele>149</ele>
        <time>2021-09-02T10:49:57Z</time>
      </trkpt>
      <trkpt lat="46.87426" lon="-0.93717">
        <ele>151</ele>
        <time>2021-09-02T10:50:05Z</time>
      </trkpt>
      <trkpt lat="46.8743" lon="-0.93681">
        <ele>151</ele>
        <time>2021-09-02T10:50:10Z</time>
      </trkpt>
      <trkpt lat="46.87443" lon="-0.93435">
        <ele>156</ele>
        <time>2021-09-02T10:50:40Z</time>
      </trkpt>
      <trkpt lat="46.87451" lon="-0.93323">
        <ele>159</ele>
        <time>2021-09-02T10:50:53Z</time>
      </trkpt>
      <trkpt lat="46.8746" lon="-0.93278">
        <ele>160</ele>
        <time>2021-09-02T10:50:59Z</time>
      </trkpt>
      <trkpt lat="46.8747" lon="-0.93251">
        <ele>161</ele>
        <time>2021-09-02T10:51:03Z</time>
      </trkpt>
      <trkpt lat="46.87487" lon="-0.93218">
        <ele>162</ele>
        <time>2021-09-02T10:51:08Z</time>
      </trkpt>
      <trkpt lat="46.87498" lon="-0.93201">
        <ele>163</ele>
        <time>2021-09-02T10:51:11Z</time>
      </trkpt>
      <trkpt lat="46.87531" lon="-0.93159">
        <ele>168</ele>
        <time>2021-09-02T10:51:18Z</time>
      </trkpt>
      <trkpt lat="46.87543" lon="-0.93135">
        <ele>170</ele>
        <time>2021-09-02T10:51:22Z</time>
      </trkpt>
      <trkpt lat="46.87556" lon="-0.931">
        <ele>172</ele>
        <time>2021-09-02T10:51:27Z</time>
      </trkpt>
      <trkpt lat="46.87577" lon="-0.93016">
        <ele>178</ele>
        <time>2021-09-02T10:51:38Z</time>
      </trkpt>
      <trkpt lat="46.87589" lon="-0.92964">
        <ele>181</ele>
        <time>2021-09-02T10:51:44Z</time>
      </trkpt>
      <trkpt lat="46.87604" lon="-0.92876">
        <ele>186</ele>
        <time>2021-09-02T10:51:55Z</time>
      </trkpt>
      <trkpt lat="46.87621" lon="-0.92754">
        <ele>191</ele>
        <time>2021-09-02T10:52:11Z</time>
      </trkpt>
      <trkpt lat="46.87625" lon="-0.92684">
        <ele>189</ele>
        <time>2021-09-02T10:52:19Z</time>
      </trkpt>
      <trkpt lat="46.8762" lon="-0.92678">
        <ele>188</ele>
        <time>2021-09-02T10:52:20Z</time>
      </trkpt>
      <trkpt lat="46.87617" lon="-0.92669">
        <ele>187</ele>
        <time>2021-09-02T10:52:21Z</time>
      </trkpt>
      <trkpt lat="46.87616" lon="-0.9266">
        <ele>187</ele>
        <time>2021-09-02T10:52:23Z</time>
      </trkpt>
      <trkpt lat="46.87617" lon="-0.92651">
        <ele>187</ele>
        <time>2021-09-02T10:52:24Z</time>
      </trkpt>
      <trkpt lat="46.87619" lon="-0.92643">
        <ele>187</ele>
        <time>2021-09-02T10:52:25Z</time>
      </trkpt>
      <trkpt lat="46.87624" lon="-0.92636">
        <ele>187</ele>
        <time>2021-09-02T10:52:26Z</time>
      </trkpt>
      <trkpt lat="46.8764" lon="-0.92621">
        <ele>188</ele>
        <time>2021-09-02T10:52:29Z</time>
      </trkpt>
      <trkpt lat="46.8765" lon="-0.92592">
        <ele>188</ele>
        <time>2021-09-02T10:52:33Z</time>
      </trkpt>
      <trkpt lat="46.87677" lon="-0.92536">
        <ele>190</ele>
        <time>2021-09-02T10:52:42Z</time>
      </trkpt>
      <trkpt lat="46.87739" lon="-0.9242">
        <ele>193</ele>
        <time>2021-09-02T10:53:00Z</time>
      </trkpt>
      <trkpt lat="46.87753" lon="-0.92387">
        <ele>194</ele>
        <time>2021-09-02T10:53:04Z</time>
      </trkpt>
      <trkpt lat="46.87762" lon="-0.9235">
        <ele>195</ele>
        <time>2021-09-02T10:53:09Z</time>
      </trkpt>
      <trkpt lat="46.87791" lon="-0.92192">
        <ele>195</ele>
        <time>2021-09-02T10:53:29Z</time>
      </trkpt>
      <trkpt lat="46.878" lon="-0.92151">
        <ele>195</ele>
        <time>2021-09-02T10:53:34Z</time>
      </trkpt>
      <trkpt lat="46.87812" lon="-0.92111">
        <ele>194</ele>
        <time>2021-09-02T10:53:39Z</time>
      </trkpt>
      <trkpt lat="46.87907" lon="-0.91829">
        <ele>198</ele>
        <time>2021-09-02T10:54:18Z</time>
      </trkpt>
      <trkpt lat="46.87931" lon="-0.91762">
        <ele>201</ele>
        <time>2021-09-02T10:54:27Z</time>
      </trkpt>
      <trkpt lat="46.87944" lon="-0.91729">
        <ele>202</ele>
        <time>2021-09-02T10:54:32Z</time>
      </trkpt>
      <trkpt lat="46.88045" lon="-0.91505">
        <ele>206</ele>
        <time>2021-09-02T10:55:04Z</time>
      </trkpt>
      <trkpt lat="46.88064" lon="-0.91467">
        <ele>206</ele>
        <time>2021-09-02T10:55:10Z</time>
      </trkpt>
      <trkpt lat="46.88101" lon="-0.91411">
        <ele>207</ele>
        <time>2021-09-02T10:55:19Z</time>
      </trkpt>
      <trkpt lat="46.88187" lon="-0.91313">
        <ele>208</ele>
        <time>2021-09-02T10:55:39Z</time>
      </trkpt>
      <trkpt lat="46.88217" lon="-0.91275">
        <ele>210</ele>
        <time>2021-09-02T10:55:46Z</time>
      </trkpt>
      <trkpt lat="46.8828" lon="-0.91166">
        <ele>209</ele>
        <time>2021-09-02T10:56:03Z</time>
      </trkpt>
      <trkpt lat="46.88293" lon="-0.91139">
        <ele>208</ele>
        <time>2021-09-02T10:56:07Z</time>
      </trkpt>
      <trkpt lat="46.88303" lon="-0.91113">
        <ele>207</ele>
        <time>2021-09-02T10:56:11Z</time>
      </trkpt>
      <trkpt lat="46.88307" lon="-0.91064">
        <ele>205</ele>
        <time>2021-09-02T10:56:17Z</time>
      </trkpt>
      <trkpt lat="46.88301" lon="-0.91052">
        <ele>205</ele>
        <time>2021-09-02T10:56:19Z</time>
      </trkpt>
      <trkpt lat="46.88299" lon="-0.91044">
        <ele>205</ele>
        <time>2021-09-02T10:56:20Z</time>
      </trkpt>
      <trkpt lat="46.883" lon="-0.91029">
        <ele>204</ele>
        <time>2021-09-02T10:56:22Z</time>
      </trkpt>
      <trkpt lat="46.88303" lon="-0.91021">
        <ele>204</ele>
        <time>2021-09-02T10:56:23Z</time>
      </trkpt>
      <trkpt lat="46.88308" lon="-0.91013">
        <ele>204</ele>
        <time>2021-09-02T10:56:24Z</time>
      </trkpt>
      <trkpt lat="46.88315" lon="-0.91008">
        <ele>204</ele>
        <time>2021-09-02T10:56:25Z</time>
      </trkpt>
      <trkpt lat="46.8832" lon="-0.91006">
        <ele>205</ele>
        <time>2021-09-02T10:56:26Z</time>
      </trkpt>
      <trkpt lat="46.88327" lon="-0.90994">
        <ele>205</ele>
        <time>2021-09-02T10:56:28Z</time>
      </trkpt>
      <trkpt lat="46.88339" lon="-0.90958">
        <ele>206</ele>
        <time>2021-09-02T10:56:33Z</time>
      </trkpt>
      <trkpt lat="46.88363" lon="-0.90858">
        <ele>208</ele>
        <time>2021-09-02T10:56:46Z</time>
      </trkpt>
      <trkpt lat="46.88367" lon="-0.90812">
        <ele>208</ele>
        <time>2021-09-02T10:56:52Z</time>
      </trkpt>
      <trkpt lat="46.88365" lon="-0.90783">
        <ele>208</ele>
        <time>2021-09-02T10:56:55Z</time>
      </trkpt>
      <trkpt lat="46.88359" lon="-0.90744">
        <ele>207</ele>
        <time>2021-09-02T10:57:00Z</time>
      </trkpt>
      <trkpt lat="46.88348" lon="-0.90698">
        <ele>206</ele>
        <time>2021-09-02T10:57:06Z</time>
      </trkpt>
      <trkpt lat="46.8835" lon="-0.90695">
        <ele>206</ele>
        <time>2021-09-02T10:57:06Z</time>
      </trkpt>
      <trkpt lat="46.88354" lon="-0.90685">
        <ele>207</ele>
        <time>2021-09-02T10:57:08Z</time>
      </trkpt>
      <trkpt lat="46.88358" lon="-0.90624">
        <ele>207</ele>
        <time>2021-09-02T10:57:15Z</time>
      </trkpt>
      <trkpt lat="46.88362" lon="-0.90599">
        <ele>208</ele>
        <time>2021-09-02T10:57:18Z</time>
      </trkpt>
      <trkpt lat="46.88385" lon="-0.90505">
        <ele>211</ele>
        <time>2021-09-02T10:57:31Z</time>
      </trkpt>
      <trkpt lat="46.88396" lon="-0.90434">
        <ele>211</ele>
        <time>2021-09-02T10:57:39Z</time>
      </trkpt>
      <trkpt lat="46.88424" lon="-0.90323">
        <ele>210</ele>
        <time>2021-09-02T10:57:54Z</time>
      </trkpt>
      <trkpt lat="46.88436" lon="-0.90267">
        <ele>209</ele>
        <time>2021-09-02T10:58:01Z</time>
      </trkpt>
      <trkpt lat="46.88459" lon="-0.90201">
        <ele>208</ele>
        <time>2021-09-02T10:58:10Z</time>
      </trkpt>
      <trkpt lat="46.88469" lon="-0.90176">
        <ele>208</ele>
        <time>2021-09-02T10:58:13Z</time>
      </trkpt>
      <trkpt lat="46.88474" lon="-0.90169">
        <ele>208</ele>
        <time>2021-09-02T10:58:15Z</time>
      </trkpt>
      <trkpt lat="46.88488" lon="-0.9016">
        <ele>208</ele>
        <time>2021-09-02T10:58:17Z</time>
      </trkpt>
      <trkpt lat="46.88496" lon="-0.90158">
        <ele>209</ele>
        <time>2021-09-02T10:58:19Z</time>
      </trkpt>
      <trkpt lat="46.8854" lon="-0.90159">
        <ele>207</ele>
        <time>2021-09-02T10:58:27Z</time>
      </trkpt>
      <trkpt lat="46.88558" lon="-0.90154">
        <ele>206</ele>
        <time>2021-09-02T10:58:30Z</time>
      </trkpt>
      <trkpt lat="46.88588" lon="-0.90132">
        <ele>205</ele>
        <time>2021-09-02T10:58:36Z</time>
      </trkpt>
      <trkpt lat="46.88592" lon="-0.90128">
        <ele>204</ele>
        <time>2021-09-02T10:58:37Z</time>
      </trkpt>
      <trkpt lat="46.88612" lon="-0.90073">
        <ele>205</ele>
        <time>2021-09-02T10:58:44Z</time>
      </trkpt>
      <trkpt lat="46.88637" lon="-0.89973">
        <ele>207</ele>
        <time>2021-09-02T10:58:57Z</time>
      </trkpt>
      <trkpt lat="46.88676" lon="-0.89865">
        <ele>209</ele>
        <time>2021-09-02T10:59:12Z</time>
      </trkpt>
      <trkpt lat="46.88678" lon="-0.8979">
        <ele>206</ele>
        <time>2021-09-02T10:59:21Z</time>
      </trkpt>
      <trkpt lat="46.88681" lon="-0.89777">
        <ele>206</ele>
        <time>2021-09-02T10:59:23Z</time>
      </trkpt>
      <trkpt lat="46.88686" lon="-0.89767">
        <ele>205</ele>
        <time>2021-09-02T10:59:24Z</time>
      </trkpt>
      <trkpt lat="46.88691" lon="-0.89761">
        <ele>205</ele>
        <time>2021-09-02T10:59:26Z</time>
      </trkpt>
      <trkpt lat="46.8874" lon="-0.89728">
        <ele>205</ele>
        <time>2021-09-02T10:59:35Z</time>
      </trkpt>
      <trkpt lat="46.88751" lon="-0.89714">
        <ele>205</ele>
        <time>2021-09-02T10:59:38Z</time>
      </trkpt>
      <trkpt lat="46.88763" lon="-0.89682">
        <ele>203</ele>
        <time>2021-09-02T10:59:42Z</time>
      </trkpt>
      <trkpt lat="46.88764" lon="-0.89664">
        <ele>202</ele>
        <time>2021-09-02T10:59:44Z</time>
      </trkpt>
      <trkpt lat="46.88778" lon="-0.8965">
        <ele>202</ele>
        <time>2021-09-02T10:59:47Z</time>
      </trkpt>
      <trkpt lat="46.8879" lon="-0.89615">
        <ele>200</ele>
        <time>2021-09-02T10:59:52Z</time>
      </trkpt>
      <trkpt lat="46.88809" lon="-0.8958">
        <ele>199</ele>
        <time>2021-09-02T10:59:58Z</time>
      </trkpt>
      <trkpt lat="46.88852" lon="-0.89543">
        <ele>194</ele>
        <time>2021-09-02T11:00:07Z</time>
      </trkpt>
      <trkpt lat="46.88865" lon="-0.89526">
        <ele>192</ele>
        <time>2021-09-02T11:00:10Z</time>
      </trkpt>
      <trkpt lat="46.88874" lon="-0.89497">
        <ele>190</ele>
        <time>2021-09-02T11:00:13Z</time>
      </trkpt>
      <trkpt lat="46.88893" lon="-0.89394">
        <ele>186</ele>
        <time>2021-09-02T11:00:26Z</time>
      </trkpt>
      <trkpt lat="46.88901" lon="-0.89372">
        <ele>186</ele>
        <time>2021-09-02T11:00:29Z</time>
      </trkpt>
      <trkpt lat="46.88905" lon="-0.89354">
        <ele>186</ele>
        <time>2021-09-02T11:00:32Z</time>
      </trkpt>
      <trkpt lat="46.88907" lon="-0.89306">
        <ele>186</ele>
        <time>2021-09-02T11:00:38Z</time>
      </trkpt>
      <trkpt lat="46.88921" lon="-0.89177">
        <ele>188</ele>
        <time>2021-09-02T11:00:54Z</time>
      </trkpt>
      <trkpt lat="46.88921" lon="-0.89138">
        <ele>188</ele>
        <time>2021-09-02T11:00:58Z</time>
      </trkpt>
      <trkpt lat="46.8892" lon="-0.89119">
        <ele>188</ele>
        <time>2021-09-02T11:01:01Z</time>
      </trkpt>
      <trkpt lat="46.88917" lon="-0.89107">
        <ele>188</ele>
        <time>2021-09-02T11:01:02Z</time>
      </trkpt>
      <trkpt lat="46.88914" lon="-0.89102">
        <ele>188</ele>
        <time>2021-09-02T11:01:03Z</time>
      </trkpt>
      <trkpt lat="46.88928" lon="-0.89068">
        <ele>188</ele>
        <time>2021-09-02T11:01:08Z</time>
      </trkpt>
      <trkpt lat="46.88969" lon="-0.88912">
        <ele>188</ele>
        <time>2021-09-02T11:01:28Z</time>
      </trkpt>
      <trkpt lat="46.89021" lon="-0.88773">
        <ele>185</ele>
        <time>2021-09-02T11:01:47Z</time>
      </trkpt>
      <trkpt lat="46.89051" lon="-0.88703">
        <ele>184</ele>
        <time>2021-09-02T11:01:57Z</time>
      </trkpt>
      <trkpt lat="46.89082" lon="-0.88644">
        <ele>182</ele>
        <time>2021-09-02T11:02:06Z</time>
      </trkpt>
      <trkpt lat="46.89166" lon="-0.8851">
        <ele>180</ele>
        <time>2021-09-02T11:02:29Z</time>
      </trkpt>
      <trkpt lat="46.89184" lon="-0.88475">
        <ele>181</ele>
        <time>2021-09-02T11:02:34Z</time>
      </trkpt>
      <trkpt lat="46.89199" lon="-0.8844">
        <ele>181</ele>
        <time>2021-09-02T11:02:39Z</time>
      </trkpt>
      <trkpt lat="46.89223" lon="-0.88373">
        <ele>183</ele>
        <time>2021-09-02T11:02:48Z</time>
      </trkpt>
      <trkpt lat="46.89239" lon="-0.88315">
        <ele>185</ele>
        <time>2021-09-02T11:02:56Z</time>
      </trkpt>
      <trkpt lat="46.89303" lon="-0.88019">
        <ele>187</ele>
        <time>2021-09-02T11:03:33Z</time>
      </trkpt>
      <trkpt lat="46.89312" lon="-0.87984">
        <ele>187</ele>
        <time>2021-09-02T11:03:38Z</time>
      </trkpt>
      <trkpt lat="46.89325" lon="-0.87947">
        <ele>187</ele>
        <time>2021-09-02T11:03:43Z</time>
      </trkpt>
      <trkpt lat="46.89344" lon="-0.87905">
        <ele>187</ele>
        <time>2021-09-02T11:03:49Z</time>
      </trkpt>
      <trkpt lat="46.89369" lon="-0.87856">
        <ele>188</ele>
        <time>2021-09-02T11:03:57Z</time>
      </trkpt>
      <trkpt lat="46.89397" lon="-0.8781">
        <ele>188</ele>
        <time>2021-09-02T11:04:04Z</time>
      </trkpt>
      <trkpt lat="46.89419" lon="-0.87779">
        <ele>189</ele>
        <time>2021-09-02T11:04:10Z</time>
      </trkpt>
      <trkpt lat="46.89439" lon="-0.87755">
        <ele>189</ele>
        <time>2021-09-02T11:04:14Z</time>
      </trkpt>
      <trkpt lat="46.89462" lon="-0.87733">
        <ele>189</ele>
        <time>2021-09-02T11:04:19Z</time>
      </trkpt>
      <trkpt lat="46.89492" lon="-0.8771">
        <ele>190</ele>
        <time>2021-09-02T11:04:25Z</time>
      </trkpt>
      <trkpt lat="46.89559" lon="-0.87675">
        <ele>191</ele>
        <time>2021-09-02T11:04:38Z</time>
      </trkpt>
      <trkpt lat="46.89649" lon="-0.8764">
        <ele>194</ele>
        <time>2021-09-02T11:04:54Z</time>
      </trkpt>
      <trkpt lat="46.89702" lon="-0.87625">
        <ele>194</ele>
        <time>2021-09-02T11:05:04Z</time>
      </trkpt>
      <trkpt lat="46.89817" lon="-0.87623">
        <ele>191</ele>
        <time>2021-09-02T11:05:24Z</time>
      </trkpt>
      <trkpt lat="46.8985" lon="-0.87619">
        <ele>190</ele>
        <time>2021-09-02T11:05:30Z</time>
      </trkpt>
      <trkpt lat="46.89869" lon="-0.87614">
        <ele>189</ele>
        <time>2021-09-02T11:05:34Z</time>
      </trkpt>
      <trkpt lat="46.8989" lon="-0.87604">
        <ele>188</ele>
        <time>2021-09-02T11:05:38Z</time>
      </trkpt>
      <trkpt lat="46.90037" lon="-0.87507">
        <ele>181</ele>
        <time>2021-09-02T11:06:06Z</time>
      </trkpt>
      <trkpt lat="46.90063" lon="-0.87482">
        <ele>181</ele>
        <time>2021-09-02T11:06:12Z</time>
      </trkpt>
      <trkpt lat="46.90084" lon="-0.87454">
        <ele>181</ele>
        <time>2021-09-02T11:06:17Z</time>
      </trkpt>
      <trkpt lat="46.9014" lon="-0.87356">
        <ele>180</ele>
        <time>2021-09-02T11:06:32Z</time>
      </trkpt>
      <trkpt lat="46.90158" lon="-0.8733">
        <ele>180</ele>
        <time>2021-09-02T11:06:37Z</time>
      </trkpt>
      <trkpt lat="46.90173" lon="-0.87314">
        <ele>180</ele>
        <time>2021-09-02T11:06:40Z</time>
      </trkpt>
      <trkpt lat="46.90199" lon="-0.87299">
        <ele>179</ele>
        <time>2021-09-02T11:06:45Z</time>
      </trkpt>
      <trkpt lat="46.90212" lon="-0.87293">
        <ele>178</ele>
        <time>2021-09-02T11:06:48Z</time>
      </trkpt>
      <trkpt lat="46.90241" lon="-0.8729">
        <ele>178</ele>
        <time>2021-09-02T11:06:53Z</time>
      </trkpt>
      <trkpt lat="46.90533" lon="-0.87282">
        <ele>166</ele>
        <time>2021-09-02T11:07:45Z</time>
      </trkpt>
      <trkpt lat="46.90915" lon="-0.87224">
        <ele>145</ele>
        <time>2021-09-02T11:08:53Z</time>
      </trkpt>
      <trkpt lat="46.90973" lon="-0.87207">
        <ele>139</ele>
        <time>2021-09-02T11:09:04Z</time>
      </trkpt>
      <trkpt lat="46.91" lon="-0.87192">
        <ele>136</ele>
        <time>2021-09-02T11:09:09Z</time>
      </trkpt>
      <trkpt lat="46.91091" lon="-0.87134">
        <ele>128</ele>
        <time>2021-09-02T11:09:26Z</time>
      </trkpt>
      <trkpt lat="46.9111" lon="-0.87107">
        <ele>128</ele>
        <time>2021-09-02T11:09:31Z</time>
      </trkpt>
      <trkpt lat="46.91117" lon="-0.87088">
        <ele>128</ele>
        <time>2021-09-02T11:09:34Z</time>
      </trkpt>
      <trkpt lat="46.91117" lon="-0.87083">
        <ele>129</ele>
        <time>2021-09-02T11:09:34Z</time>
      </trkpt>
      <trkpt lat="46.9112" lon="-0.87074">
        <ele>129</ele>
        <time>2021-09-02T11:09:36Z</time>
      </trkpt>
      <trkpt lat="46.91117" lon="-0.87053">
        <ele>130</ele>
        <time>2021-09-02T11:09:38Z</time>
      </trkpt>
      <trkpt lat="46.91113" lon="-0.86971">
        <ele>132</ele>
        <time>2021-09-02T11:09:48Z</time>
      </trkpt>
      <trkpt lat="46.91111" lon="-0.86954">
        <ele>132</ele>
        <time>2021-09-02T11:09:50Z</time>
      </trkpt>
      <trkpt lat="46.91095" lon="-0.86911">
        <ele>132</ele>
        <time>2021-09-02T11:09:56Z</time>
      </trkpt>
      <trkpt lat="46.91054" lon="-0.86818">
        <ele>131</ele>
        <time>2021-09-02T11:10:10Z</time>
      </trkpt>
      <trkpt lat="46.91039" lon="-0.86787">
        <ele>130</ele>
        <time>2021-09-02T11:10:14Z</time>
      </trkpt>
      <trkpt lat="46.91025" lon="-0.86768">
        <ele>129</ele>
        <time>2021-09-02T11:10:18Z</time>
      </trkpt>
      <trkpt lat="46.91018" lon="-0.86754">
        <ele>128</ele>
        <time>2021-09-02T11:10:20Z</time>
      </trkpt>
      <trkpt lat="46.91014" lon="-0.86739">
        <ele>128</ele>
        <time>2021-09-02T11:10:22Z</time>
      </trkpt>
      <trkpt lat="46.91014" lon="-0.86725">
        <ele>127</ele>
        <time>2021-09-02T11:10:23Z</time>
      </trkpt>
      <trkpt lat="46.91065" lon="-0.8662">
        <ele>128</ele>
        <time>2021-09-02T11:10:39Z</time>
      </trkpt>
      <trkpt lat="46.91088" lon="-0.86578">
        <ele>129</ele>
        <time>2021-09-02T11:10:46Z</time>
      </trkpt>
      <trkpt lat="46.91117" lon="-0.86532">
        <ele>136</ele>
        <time>2021-09-02T11:10:53Z</time>
      </trkpt>
      <trkpt lat="46.91121" lon="-0.86529">
        <ele>136</ele>
        <time>2021-09-02T11:10:54Z</time>
      </trkpt>
      <trkpt lat="46.91105" lon="-0.86463">
        <ele>142</ele>
        <time>2021-09-02T11:11:03Z</time>
      </trkpt>
      <trkpt lat="46.91096" lon="-0.86417">
        <ele>148</ele>
        <time>2021-09-02T11:11:08Z</time>
      </trkpt>
      <trkpt lat="46.91095" lon="-0.8639">
        <ele>149</ele>
        <time>2021-09-02T11:11:12Z</time>
      </trkpt>
      <trkpt lat="46.91096" lon="-0.86379">
        <ele>149</ele>
        <time>2021-09-02T11:11:13Z</time>
      </trkpt>
      <trkpt lat="46.91081" lon="-0.86318">
        <ele>152</ele>
        <time>2021-09-02T11:11:21Z</time>
      </trkpt>
      <trkpt lat="46.91069" lon="-0.86289">
        <ele>153</ele>
        <time>2021-09-02T11:11:25Z</time>
      </trkpt>
      <trkpt lat="46.91036" lon="-0.86252">
        <ele>154</ele>
        <time>2021-09-02T11:11:32Z</time>
      </trkpt>
      <trkpt lat="46.91005" lon="-0.86211">
        <ele>156</ele>
        <time>2021-09-02T11:11:40Z</time>
      </trkpt>
      <trkpt lat="46.90899" lon="-0.86043">
        <ele>163</ele>
        <time>2021-09-02T11:12:08Z</time>
      </trkpt>
      <trkpt lat="46.90869" lon="-0.85999">
        <ele>165</ele>
        <time>2021-09-02T11:12:15Z</time>
      </trkpt>
      <trkpt lat="46.90808" lon="-0.85919">
        <ele>169</ele>
        <time>2021-09-02T11:12:30Z</time>
      </trkpt>
      <trkpt lat="46.90765" lon="-0.85876">
        <ele>171</ele>
        <time>2021-09-02T11:12:39Z</time>
      </trkpt>
      <trkpt lat="46.90667" lon="-0.85768">
        <ele>172</ele>
        <time>2021-09-02T11:13:01Z</time>
      </trkpt>
      <trkpt lat="46.90584" lon="-0.85671">
        <ele>174</ele>
        <time>2021-09-02T11:13:20Z</time>
      </trkpt>
      <trkpt lat="46.90569" lon="-0.85651">
        <ele>174</ele>
        <time>2021-09-02T11:13:23Z</time>
      </trkpt>
      <trkpt lat="46.90557" lon="-0.8563">
        <ele>175</ele>
        <time>2021-09-02T11:13:27Z</time>
      </trkpt>
      <trkpt lat="46.90551" lon="-0.85608">
        <ele>175</ele>
        <time>2021-09-02T11:13:30Z</time>
      </trkpt>
      <trkpt lat="46.90545" lon="-0.85573">
        <ele>176</ele>
        <time>2021-09-02T11:13:34Z</time>
      </trkpt>
      <trkpt lat="46.90529" lon="-0.85422">
        <ele>175</ele>
        <time>2021-09-02T11:13:53Z</time>
      </trkpt>
      <trkpt lat="46.90531" lon="-0.85293">
        <ele>176</ele>
        <time>2021-09-02T11:14:08Z</time>
      </trkpt>
      <trkpt lat="46.9053" lon="-0.852">
        <ele>179</ele>
        <time>2021-09-02T11:14:20Z</time>
      </trkpt>
      <trkpt lat="46.90526" lon="-0.85174">
        <ele>179</ele>
        <time>2021-09-02T11:14:23Z</time>
      </trkpt>
      <trkpt lat="46.90499" lon="-0.85075">
        <ele>178</ele>
        <time>2021-09-02T11:14:36Z</time>
      </trkpt>
      <trkpt lat="46.90493" lon="-0.8504">
        <ele>177</ele>
        <time>2021-09-02T11:14:40Z</time>
      </trkpt>
      <trkpt lat="46.90493" lon="-0.85022">
        <ele>177</ele>
        <time>2021-09-02T11:14:42Z</time>
      </trkpt>
      <trkpt lat="46.90511" lon="-0.84927">
        <ele>180</ele>
        <time>2021-09-02T11:14:54Z</time>
      </trkpt>
      <trkpt lat="46.90524" lon="-0.84767">
        <ele>185</ele>
        <time>2021-09-02T11:15:14Z</time>
      </trkpt>
      <trkpt lat="46.90525" lon="-0.84742">
        <ele>186</ele>
        <time>2021-09-02T11:15:17Z</time>
      </trkpt>
      <trkpt lat="46.90523" lon="-0.84646">
        <ele>190</ele>
        <time>2021-09-02T11:15:29Z</time>
      </trkpt>
      <trkpt lat="46.90526" lon="-0.84596">
        <ele>192</ele>
        <time>2021-09-02T11:15:35Z</time>
      </trkpt>
      <trkpt lat="46.90526" lon="-0.84535">
        <ele>192</ele>
        <time>2021-09-02T11:15:42Z</time>
      </trkpt>
      <trkpt lat="46.90518" lon="-0.8438">
        <ele>188</ele>
        <time>2021-09-02T11:16:01Z</time>
      </trkpt>
      <trkpt lat="46.90517" lon="-0.84312">
        <ele>187</ele>
        <time>2021-09-02T11:16:09Z</time>
      </trkpt>
      <trkpt lat="46.90518" lon="-0.8424">
        <ele>187</ele>
        <time>2021-09-02T11:16:18Z</time>
      </trkpt>
      <trkpt lat="46.90519" lon="-0.84225">
        <ele>187</ele>
        <time>2021-09-02T11:16:20Z</time>
      </trkpt>
      <trkpt lat="46.90481" lon="-0.842">
        <ele>188</ele>
        <time>2021-09-02T11:16:27Z</time>
      </trkpt>
      <trkpt lat="46.90394" lon="-0.84136">
        <ele>189</ele>
        <time>2021-09-02T11:16:45Z</time>
      </trkpt>
      <trkpt lat="46.90379" lon="-0.84124">
        <ele>189</ele>
        <time>2021-09-02T11:16:48Z</time>
      </trkpt>
      <trkpt lat="46.90325" lon="-0.84066">
        <ele>189</ele>
        <time>2021-09-02T11:17:00Z</time>
      </trkpt>
      <trkpt lat="46.90311" lon="-0.84053">
        <ele>189</ele>
        <time>2021-09-02T11:17:03Z</time>
      </trkpt>
      <trkpt lat="46.90297" lon="-0.84048">
        <ele>189</ele>
        <time>2021-09-02T11:17:05Z</time>
      </trkpt>
      <trkpt lat="46.90282" lon="-0.84049">
        <ele>189</ele>
        <time>2021-09-02T11:17:08Z</time>
      </trkpt>
      <trkpt lat="46.90215" lon="-0.84071">
        <ele>188</ele>
        <time>2021-09-02T11:17:20Z</time>
      </trkpt>
      <trkpt lat="46.90201" lon="-0.84071">
        <ele>187</ele>
        <time>2021-09-02T11:17:22Z</time>
      </trkpt>
      <trkpt lat="46.90184" lon="-0.84068">
        <ele>186</ele>
        <time>2021-09-02T11:17:26Z</time>
      </trkpt>
      <trkpt lat="46.90132" lon="-0.84054">
        <ele>181</ele>
        <time>2021-09-02T11:17:35Z</time>
      </trkpt>
      <trkpt lat="46.90104" lon="-0.84052">
        <ele>178</ele>
        <time>2021-09-02T11:17:40Z</time>
      </trkpt>
      <trkpt lat="46.90085" lon="-0.84047">
        <ele>176</ele>
        <time>2021-09-02T11:17:43Z</time>
      </trkpt>
      <trkpt lat="46.90018" lon="-0.84023">
        <ele>164</ele>
        <time>2021-09-02T11:17:56Z</time>
      </trkpt>
      <trkpt lat="46.90008" lon="-0.84021">
        <ele>163</ele>
        <time>2021-09-02T11:17:57Z</time>
      </trkpt>
      <trkpt lat="46.89958" lon="-0.84027">
        <ele>159</ele>
        <time>2021-09-02T11:18:06Z</time>
      </trkpt>
      <trkpt lat="46.89943" lon="-0.84023">
        <ele>158</ele>
        <time>2021-09-02T11:18:09Z</time>
      </trkpt>
      <trkpt lat="46.8992" lon="-0.84006">
        <ele>156</ele>
        <time>2021-09-02T11:18:14Z</time>
      </trkpt>
      <trkpt lat="46.89882" lon="-0.83968">
        <ele>155</ele>
        <time>2021-09-02T11:18:22Z</time>
      </trkpt>
      <trkpt lat="46.89865" lon="-0.83955">
        <ele>154</ele>
        <time>2021-09-02T11:18:25Z</time>
      </trkpt>
      <trkpt lat="46.89844" lon="-0.8395">
        <ele>152</ele>
        <time>2021-09-02T11:18:29Z</time>
      </trkpt>
      <trkpt lat="46.89793" lon="-0.83949">
        <ele>150</ele>
        <time>2021-09-02T11:18:38Z</time>
      </trkpt>
      <trkpt lat="46.89773" lon="-0.83941">
        <ele>149</ele>
        <time>2021-09-02T11:18:42Z</time>
      </trkpt>
      <trkpt lat="46.8976" lon="-0.8393">
        <ele>149</ele>
        <time>2021-09-02T11:18:44Z</time>
      </trkpt>
      <trkpt lat="46.89744" lon="-0.83908">
        <ele>149</ele>
        <time>2021-09-02T11:18:48Z</time>
      </trkpt>
      <trkpt lat="46.89729" lon="-0.83874">
        <ele>149</ele>
        <time>2021-09-02T11:18:53Z</time>
      </trkpt>
      <trkpt lat="46.89706" lon="-0.83809">
        <ele>150</ele>
        <time>2021-09-02T11:19:02Z</time>
      </trkpt>
      <trkpt lat="46.89696" lon="-0.83792">
        <ele>150</ele>
        <time>2021-09-02T11:19:05Z</time>
      </trkpt>
      <trkpt lat="46.89683" lon="-0.83782">
        <ele>150</ele>
        <time>2021-09-02T11:19:08Z</time>
      </trkpt>
      <trkpt lat="46.89677" lon="-0.83779">
        <ele>150</ele>
        <time>2021-09-02T11:19:09Z</time>
      </trkpt>
      <trkpt lat="46.89657" lon="-0.83784">
        <ele>150</ele>
        <time>2021-09-02T11:19:12Z</time>
      </trkpt>
      <trkpt lat="46.89586" lon="-0.83827">
        <ele>148</ele>
        <time>2021-09-02T11:19:26Z</time>
      </trkpt>
      <trkpt lat="46.89565" lon="-0.83837">
        <ele>148</ele>
        <time>2021-09-02T11:19:30Z</time>
      </trkpt>
      <trkpt lat="46.89544" lon="-0.83843">
        <ele>147</ele>
        <time>2021-09-02T11:19:34Z</time>
      </trkpt>
      <trkpt lat="46.89531" lon="-0.83843">
        <ele>147</ele>
        <time>2021-09-02T11:19:36Z</time>
      </trkpt>
      <trkpt lat="46.89443" lon="-0.83832">
        <ele>146</ele>
        <time>2021-09-02T11:19:52Z</time>
      </trkpt>
      <trkpt lat="46.89432" lon="-0.83829">
        <ele>146</ele>
        <time>2021-09-02T11:19:54Z</time>
      </trkpt>
      <trkpt lat="46.89424" lon="-0.83824">
        <ele>146</ele>
        <time>2021-09-02T11:19:55Z</time>
      </trkpt>
      <trkpt lat="46.89416" lon="-0.83815">
        <ele>145</ele>
        <time>2021-09-02T11:19:57Z</time>
      </trkpt>
      <trkpt lat="46.89407" lon="-0.83791">
        <ele>144</ele>
        <time>2021-09-02T11:20:00Z</time>
      </trkpt>
      <trkpt lat="46.89403" lon="-0.83776">
        <ele>144</ele>
        <time>2021-09-02T11:20:02Z</time>
      </trkpt>
      <trkpt lat="46.89372" lon="-0.83623">
        <ele>142</ele>
        <time>2021-09-02T11:20:22Z</time>
      </trkpt>
      <trkpt lat="46.89371" lon="-0.83596">
        <ele>142</ele>
        <time>2021-09-02T11:20:25Z</time>
      </trkpt>
      <trkpt lat="46.89373" lon="-0.83584">
        <ele>142</ele>
        <time>2021-09-02T11:20:27Z</time>
      </trkpt>
      <trkpt lat="46.89384" lon="-0.8355">
        <ele>144</ele>
        <time>2021-09-02T11:20:31Z</time>
      </trkpt>
      <trkpt lat="46.89387" lon="-0.83535">
        <ele>144</ele>
        <time>2021-09-02T11:20:33Z</time>
      </trkpt>
      <trkpt lat="46.89386" lon="-0.83507">
        <ele>145</ele>
        <time>2021-09-02T11:20:36Z</time>
      </trkpt>
      <trkpt lat="46.89378" lon="-0.83471">
        <ele>146</ele>
        <time>2021-09-02T11:20:41Z</time>
      </trkpt>
      <trkpt lat="46.89365" lon="-0.83437">
        <ele>146</ele>
        <time>2021-09-02T11:20:46Z</time>
      </trkpt>
      <trkpt lat="46.89357" lon="-0.83423">
        <ele>146</ele>
        <time>2021-09-02T11:20:48Z</time>
      </trkpt>
      <trkpt lat="46.89338" lon="-0.83404">
        <ele>147</ele>
        <time>2021-09-02T11:20:52Z</time>
      </trkpt>
      <trkpt lat="46.89318" lon="-0.83396">
        <ele>147</ele>
        <time>2021-09-02T11:20:56Z</time>
      </trkpt>
      <trkpt lat="46.89297" lon="-0.83393">
        <ele>147</ele>
        <time>2021-09-02T11:21:00Z</time>
      </trkpt>
      <trkpt lat="46.89233" lon="-0.83395">
        <ele>146</ele>
        <time>2021-09-02T11:21:11Z</time>
      </trkpt>
      <trkpt lat="46.89216" lon="-0.83392">
        <ele>145</ele>
        <time>2021-09-02T11:21:14Z</time>
      </trkpt>
      <trkpt lat="46.89147" lon="-0.83363">
        <ele>142</ele>
        <time>2021-09-02T11:21:27Z</time>
      </trkpt>
      <trkpt lat="46.89134" lon="-0.83354">
        <ele>142</ele>
        <time>2021-09-02T11:21:29Z</time>
      </trkpt>
      <trkpt lat="46.89118" lon="-0.83335">
        <ele>142</ele>
        <time>2021-09-02T11:21:33Z</time>
      </trkpt>
      <trkpt lat="46.89097" lon="-0.83302">
        <ele>142</ele>
        <time>2021-09-02T11:21:38Z</time>
      </trkpt>
      <trkpt lat="46.89066" lon="-0.83235">
        <ele>141</ele>
        <time>2021-09-02T11:21:48Z</time>
      </trkpt>
      <trkpt lat="46.8906" lon="-0.83226">
        <ele>141</ele>
        <time>2021-09-02T11:21:50Z</time>
      </trkpt>
      <trkpt lat="46.89053" lon="-0.83219">
        <ele>141</ele>
        <time>2021-09-02T11:21:51Z</time>
      </trkpt>
      <trkpt lat="46.89042" lon="-0.83213">
        <ele>141</ele>
        <time>2021-09-02T11:21:53Z</time>
      </trkpt>
      <trkpt lat="46.89018" lon="-0.83204">
        <ele>140</ele>
        <time>2021-09-02T11:21:58Z</time>
      </trkpt>
      <trkpt lat="46.88997" lon="-0.8319">
        <ele>140</ele>
        <time>2021-09-02T11:22:02Z</time>
      </trkpt>
      <trkpt lat="46.8896" lon="-0.83149">
        <ele>139</ele>
        <time>2021-09-02T11:22:10Z</time>
      </trkpt>
      <trkpt lat="46.88933" lon="-0.83116">
        <ele>138</ele>
        <time>2021-09-02T11:22:16Z</time>
      </trkpt>
      <trkpt lat="46.888" lon="-0.82936">
        <ele>139</ele>
        <time>2021-09-02T11:22:49Z</time>
      </trkpt>
      <trkpt lat="46.8875" lon="-0.82848">
        <ele>141</ele>
        <time>2021-09-02T11:23:03Z</time>
      </trkpt>
      <trkpt lat="46.88746" lon="-0.82837">
        <ele>141</ele>
        <time>2021-09-02T11:23:04Z</time>
      </trkpt>
      <trkpt lat="46.88739" lon="-0.82803">
        <ele>140</ele>
        <time>2021-09-02T11:23:08Z</time>
      </trkpt>
      <trkpt lat="46.88728" lon="-0.82715">
        <ele>139</ele>
        <time>2021-09-02T11:23:19Z</time>
      </trkpt>
      <trkpt lat="46.88723" lon="-0.82691">
        <ele>139</ele>
        <time>2021-09-02T11:23:22Z</time>
      </trkpt>
      <trkpt lat="46.88716" lon="-0.82669">
        <ele>139</ele>
        <time>2021-09-02T11:23:25Z</time>
      </trkpt>
      <trkpt lat="46.88707" lon="-0.82649">
        <ele>140</ele>
        <time>2021-09-02T11:23:28Z</time>
      </trkpt>
      <trkpt lat="46.8869" lon="-0.82618">
        <ele>140</ele>
        <time>2021-09-02T11:23:33Z</time>
      </trkpt>
      <trkpt lat="46.88655" lon="-0.82572">
        <ele>141</ele>
        <time>2021-09-02T11:23:41Z</time>
      </trkpt>
      <trkpt lat="46.88635" lon="-0.8254">
        <ele>140</ele>
        <time>2021-09-02T11:23:47Z</time>
      </trkpt>
      <trkpt lat="46.8857" lon="-0.82395">
        <ele>139</ele>
        <time>2021-09-02T11:24:08Z</time>
      </trkpt>
      <trkpt lat="46.88556" lon="-0.82351">
        <ele>140</ele>
        <time>2021-09-02T11:24:14Z</time>
      </trkpt>
      <trkpt lat="46.88546" lon="-0.82236">
        <ele>141</ele>
        <time>2021-09-02T11:24:28Z</time>
      </trkpt>
      <trkpt lat="46.88541" lon="-0.82219">
        <ele>141</ele>
        <time>2021-09-02T11:24:30Z</time>
      </trkpt>
      <trkpt lat="46.88535" lon="-0.82203">
        <ele>141</ele>
        <time>2021-09-02T11:24:32Z</time>
      </trkpt>
      <trkpt lat="46.88503" lon="-0.8214">
        <ele>140</ele>
        <time>2021-09-02T11:24:42Z</time>
      </trkpt>
      <trkpt lat="46.88473" lon="-0.82098">
        <ele>141</ele>
        <time>2021-09-02T11:24:49Z</time>
      </trkpt>
      <trkpt lat="46.88465" lon="-0.8208">
        <ele>141</ele>
        <time>2021-09-02T11:24:52Z</time>
      </trkpt>
      <trkpt lat="46.88397" lon="-0.81828">
        <ele>143</ele>
        <time>2021-09-02T11:25:25Z</time>
      </trkpt>
      <trkpt lat="46.88386" lon="-0.81796">
        <ele>143</ele>
        <time>2021-09-02T11:25:29Z</time>
      </trkpt>
      <trkpt lat="46.88367" lon="-0.81765">
        <ele>143</ele>
        <time>2021-09-02T11:25:34Z</time>
      </trkpt>
      <trkpt lat="46.88281" lon="-0.81653">
        <ele>144</ele>
        <time>2021-09-02T11:25:55Z</time>
      </trkpt>
      <trkpt lat="46.8827" lon="-0.81638">
        <ele>144</ele>
        <time>2021-09-02T11:25:57Z</time>
      </trkpt>
      <trkpt lat="46.88259" lon="-0.81619">
        <ele>144</ele>
        <time>2021-09-02T11:26:00Z</time>
      </trkpt>
      <trkpt lat="46.88248" lon="-0.81595">
        <ele>145</ele>
        <time>2021-09-02T11:26:04Z</time>
      </trkpt>
      <trkpt lat="46.88194" lon="-0.81456">
        <ele>143</ele>
        <time>2021-09-02T11:26:23Z</time>
      </trkpt>
      <trkpt lat="46.88158" lon="-0.8137">
        <ele>142</ele>
        <time>2021-09-02T11:26:36Z</time>
      </trkpt>
      <trkpt lat="46.88142" lon="-0.81338">
        <ele>141</ele>
        <time>2021-09-02T11:26:40Z</time>
      </trkpt>
      <trkpt lat="46.88132" lon="-0.81324">
        <ele>141</ele>
        <time>2021-09-02T11:26:43Z</time>
      </trkpt>
      <trkpt lat="46.88034" lon="-0.81202">
        <ele>142</ele>
        <time>2021-09-02T11:27:06Z</time>
      </trkpt>
      <trkpt lat="46.88022" lon="-0.81183">
        <ele>142</ele>
        <time>2021-09-02T11:27:09Z</time>
      </trkpt>
      <trkpt lat="46.88009" lon="-0.81162">
        <ele>142</ele>
        <time>2021-09-02T11:27:12Z</time>
      </trkpt>
      <trkpt lat="46.87978" lon="-0.81095">
        <ele>142</ele>
        <time>2021-09-02T11:27:22Z</time>
      </trkpt>
      <trkpt lat="46.87969" lon="-0.81057">
        <ele>142</ele>
        <time>2021-09-02T11:27:27Z</time>
      </trkpt>
      <trkpt lat="46.87964" lon="-0.80971">
        <ele>141</ele>
        <time>2021-09-02T11:27:38Z</time>
      </trkpt>
      <trkpt lat="46.8796" lon="-0.80954">
        <ele>141</ele>
        <time>2021-09-02T11:27:40Z</time>
      </trkpt>
      <trkpt lat="46.87927" lon="-0.80883">
        <ele>140</ele>
        <time>2021-09-02T11:27:50Z</time>
      </trkpt>
      <trkpt lat="46.87881" lon="-0.80764">
        <ele>141</ele>
        <time>2021-09-02T11:28:07Z</time>
      </trkpt>
      <trkpt lat="46.87815" lon="-0.80617">
        <ele>145</ele>
        <time>2021-09-02T11:28:28Z</time>
      </trkpt>
      <trkpt lat="46.87804" lon="-0.80586">
        <ele>146</ele>
        <time>2021-09-02T11:28:32Z</time>
      </trkpt>
      <trkpt lat="46.87791" lon="-0.80527">
        <ele>147</ele>
        <time>2021-09-02T11:28:40Z</time>
      </trkpt>
      <trkpt lat="46.87787" lon="-0.80499">
        <ele>148</ele>
        <time>2021-09-02T11:28:43Z</time>
      </trkpt>
      <trkpt lat="46.87786" lon="-0.80469">
        <ele>148</ele>
        <time>2021-09-02T11:28:47Z</time>
      </trkpt>
      <trkpt lat="46.87786" lon="-0.80398">
        <ele>150</ele>
        <time>2021-09-02T11:28:56Z</time>
      </trkpt>
      <trkpt lat="46.87781" lon="-0.80374">
        <ele>150</ele>
        <time>2021-09-02T11:28:59Z</time>
      </trkpt>
      <trkpt lat="46.87777" lon="-0.80364">
        <ele>150</ele>
        <time>2021-09-02T11:29:00Z</time>
      </trkpt>
      <trkpt lat="46.87766" lon="-0.80352">
        <ele>149</ele>
        <time>2021-09-02T11:29:03Z</time>
      </trkpt>
      <trkpt lat="46.87755" lon="-0.80345">
        <ele>149</ele>
        <time>2021-09-02T11:29:05Z</time>
      </trkpt>
      <trkpt lat="46.87708" lon="-0.80327">
        <ele>147</ele>
        <time>2021-09-02T11:29:13Z</time>
      </trkpt>
      <trkpt lat="46.87652" lon="-0.80295">
        <ele>145</ele>
        <time>2021-09-02T11:29:24Z</time>
      </trkpt>
      <trkpt lat="46.87624" lon="-0.80275">
        <ele>144</ele>
        <time>2021-09-02T11:29:30Z</time>
      </trkpt>
      <trkpt lat="46.87607" lon="-0.80255">
        <ele>143</ele>
        <time>2021-09-02T11:29:34Z</time>
      </trkpt>
      <trkpt lat="46.87588" lon="-0.8022">
        <ele>143</ele>
        <time>2021-09-02T11:29:39Z</time>
      </trkpt>
      <trkpt lat="46.87566" lon="-0.80164">
        <ele>143</ele>
        <time>2021-09-02T11:29:47Z</time>
      </trkpt>
      <trkpt lat="46.87558" lon="-0.80149">
        <ele>143</ele>
        <time>2021-09-02T11:29:49Z</time>
      </trkpt>
      <trkpt lat="46.87493" lon="-0.8005">
        <ele>147</ele>
        <time>2021-09-02T11:30:06Z</time>
      </trkpt>
      <trkpt lat="46.87442" lon="-0.79958">
        <ele>148</ele>
        <time>2021-09-02T11:30:20Z</time>
      </trkpt>
      <trkpt lat="46.87384" lon="-0.79865">
        <ele>149</ele>
        <time>2021-09-02T11:30:36Z</time>
      </trkpt>
      <trkpt lat="46.87323" lon="-0.79787">
        <ele>149</ele>
        <time>2021-09-02T11:30:50Z</time>
      </trkpt>
      <trkpt lat="46.87316" lon="-0.79779">
        <ele>149</ele>
        <time>2021-09-02T11:30:52Z</time>
      </trkpt>
      <trkpt lat="46.87314" lon="-0.79773">
        <ele>149</ele>
        <time>2021-09-02T11:30:52Z</time>
      </trkpt>
      <trkpt lat="46.87314" lon="-0.79763">
        <ele>149</ele>
        <time>2021-09-02T11:30:54Z</time>
      </trkpt>
      <trkpt lat="46.8732" lon="-0.79753">
        <ele>149</ele>
        <time>2021-09-02T11:30:55Z</time>
      </trkpt>
      <trkpt lat="46.87353" lon="-0.7972">
        <ele>150</ele>
        <time>2021-09-02T11:31:02Z</time>
      </trkpt>
      <trkpt lat="46.87502" lon="-0.7955">
        <ele>153</ele>
        <time>2021-09-02T11:31:36Z</time>
      </trkpt>
      <trkpt lat="46.87542" lon="-0.79506">
        <ele>154</ele>
        <time>2021-09-02T11:31:45Z</time>
      </trkpt>
      <trkpt lat="46.87567" lon="-0.79485">
        <ele>155</ele>
        <time>2021-09-02T11:31:50Z</time>
      </trkpt>
      <trkpt lat="46.87584" lon="-0.79474">
        <ele>155</ele>
        <time>2021-09-02T11:31:53Z</time>
      </trkpt>
      <trkpt lat="46.87583" lon="-0.79468">
        <ele>156</ele>
        <time>2021-09-02T11:31:54Z</time>
      </trkpt>
      <trkpt lat="46.87585" lon="-0.79455">
        <ele>156</ele>
        <time>2021-09-02T11:31:56Z</time>
      </trkpt>
      <trkpt lat="46.87588" lon="-0.79449">
        <ele>156</ele>
        <time>2021-09-02T11:31:57Z</time>
      </trkpt>
      <trkpt lat="46.87596" lon="-0.79445">
        <ele>156</ele>
        <time>2021-09-02T11:31:58Z</time>
      </trkpt>
      <trkpt lat="46.87592" lon="-0.79425">
        <ele>157</ele>
        <time>2021-09-02T11:32:01Z</time>
      </trkpt>
      <trkpt lat="46.87585" lon="-0.79404">
        <ele>158</ele>
        <time>2021-09-02T11:32:03Z</time>
      </trkpt>
      <trkpt lat="46.87553" lon="-0.79355">
        <ele>158</ele>
        <time>2021-09-02T11:32:12Z</time>
      </trkpt>
      <trkpt lat="46.87477" lon="-0.79206">
        <ele>159</ele>
        <time>2021-09-02T11:32:34Z</time>
      </trkpt>
      <trkpt lat="46.87338" lon="-0.78926">
        <ele>167</ele>
        <time>2021-09-02T11:33:16Z</time>
      </trkpt>
      <trkpt lat="46.87192" lon="-0.78667">
        <ele>169</ele>
        <time>2021-09-02T11:33:57Z</time>
      </trkpt>
      <trkpt lat="46.87185" lon="-0.78658">
        <ele>169</ele>
        <time>2021-09-02T11:33:59Z</time>
      </trkpt>
      <trkpt lat="46.87179" lon="-0.78667">
        <ele>169</ele>
        <time>2021-09-02T11:34:00Z</time>
      </trkpt>
      <trkpt lat="46.87175" lon="-0.78668">
        <ele>169</ele>
        <time>2021-09-02T11:34:01Z</time>
      </trkpt>
      <trkpt lat="46.87166" lon="-0.78666">
        <ele>169</ele>
        <time>2021-09-02T11:34:03Z</time>
      </trkpt>
      <trkpt lat="46.87163" lon="-0.78662">
        <ele>169</ele>
        <time>2021-09-02T11:34:04Z</time>
      </trkpt>
      <trkpt lat="46.87159" lon="-0.7865">
        <ele>169</ele>
        <time>2021-09-02T11:34:05Z</time>
      </trkpt>
      <trkpt lat="46.87161" lon="-0.78637">
        <ele>169</ele>
        <time>2021-09-02T11:34:07Z</time>
      </trkpt>
      <trkpt lat="46.87168" lon="-0.78628">
        <ele>169</ele>
        <time>2021-09-02T11:34:08Z</time>
      </trkpt>
      <trkpt lat="46.87172" lon="-0.78627">
        <ele>170</ele>
        <time>2021-09-02T11:34:09Z</time>
      </trkpt>
      <trkpt lat="46.8717" lon="-0.78563">
        <ele>170</ele>
        <time>2021-09-02T11:34:17Z</time>
      </trkpt>
      <trkpt lat="46.8719" lon="-0.78384">
        <ele>172</ele>
        <time>2021-09-02T11:34:39Z</time>
      </trkpt>
      <trkpt lat="46.87195" lon="-0.78318">
        <ele>173</ele>
        <time>2021-09-02T11:34:47Z</time>
      </trkpt>
      <trkpt lat="46.87201" lon="-0.78283">
        <ele>173</ele>
        <time>2021-09-02T11:34:51Z</time>
      </trkpt>
      <trkpt lat="46.87212" lon="-0.78231">
        <ele>174</ele>
        <time>2021-09-02T11:34:58Z</time>
      </trkpt>
      <trkpt lat="46.87253" lon="-0.7807">
        <ele>176</ele>
        <time>2021-09-02T11:35:19Z</time>
      </trkpt>
      <trkpt lat="46.87264" lon="-0.78019">
        <ele>176</ele>
        <time>2021-09-02T11:35:25Z</time>
      </trkpt>
      <trkpt lat="46.87272" lon="-0.77958">
        <ele>177</ele>
        <time>2021-09-02T11:35:33Z</time>
      </trkpt>
      <trkpt lat="46.87278" lon="-0.77878">
        <ele>177</ele>
        <time>2021-09-02T11:35:43Z</time>
      </trkpt>
      <trkpt lat="46.87288" lon="-0.77661">
        <ele>180</ele>
        <time>2021-09-02T11:36:09Z</time>
      </trkpt>
      <trkpt lat="46.87292" lon="-0.7762">
        <ele>181</ele>
        <time>2021-09-02T11:36:14Z</time>
      </trkpt>
      <trkpt lat="46.87299" lon="-0.77581">
        <ele>181</ele>
        <time>2021-09-02T11:36:19Z</time>
      </trkpt>
      <trkpt lat="46.8731" lon="-0.77537">
        <ele>181</ele>
        <time>2021-09-02T11:36:25Z</time>
      </trkpt>
      <trkpt lat="46.87338" lon="-0.77444">
        <ele>182</ele>
        <time>2021-09-02T11:36:37Z</time>
      </trkpt>
      <trkpt lat="46.8741" lon="-0.77212">
        <ele>185</ele>
        <time>2021-09-02T11:37:08Z</time>
      </trkpt>
      <trkpt lat="46.87427" lon="-0.77163">
        <ele>186</ele>
        <time>2021-09-02T11:37:15Z</time>
      </trkpt>
      <trkpt lat="46.87455" lon="-0.771">
        <ele>185</ele>
        <time>2021-09-02T11:37:24Z</time>
      </trkpt>
      <trkpt lat="46.87529" lon="-0.76924">
        <ele>191</ele>
        <time>2021-09-02T11:37:49Z</time>
      </trkpt>
      <trkpt lat="46.8756" lon="-0.76844">
        <ele>191</ele>
        <time>2021-09-02T11:38:00Z</time>
      </trkpt>
      <trkpt lat="46.87567" lon="-0.76829">
        <ele>191</ele>
        <time>2021-09-02T11:38:03Z</time>
      </trkpt>
      <trkpt lat="46.87575" lon="-0.76817">
        <ele>190</ele>
        <time>2021-09-02T11:38:05Z</time>
      </trkpt>
      <trkpt lat="46.87813" lon="-0.76581">
        <ele>196</ele>
        <time>2021-09-02T11:38:56Z</time>
      </trkpt>
      <trkpt lat="46.87829" lon="-0.7656">
        <ele>196</ele>
        <time>2021-09-02T11:39:00Z</time>
      </trkpt>
      <trkpt lat="46.87845" lon="-0.76532">
        <ele>197</ele>
        <time>2021-09-02T11:39:04Z</time>
      </trkpt>
      <trkpt lat="46.87852" lon="-0.76515">
        <ele>197</ele>
        <time>2021-09-02T11:39:06Z</time>
      </trkpt>
      <trkpt lat="46.87888" lon="-0.76377">
        <ele>196</ele>
        <time>2021-09-02T11:39:24Z</time>
      </trkpt>
      <trkpt lat="46.87933" lon="-0.76281">
        <ele>197</ele>
        <time>2021-09-02T11:39:39Z</time>
      </trkpt>
      <trkpt lat="46.87953" lon="-0.76192">
        <ele>197</ele>
        <time>2021-09-02T11:39:50Z</time>
      </trkpt>
      <trkpt lat="46.87989" lon="-0.76065">
        <ele>196</ele>
        <time>2021-09-02T11:40:07Z</time>
      </trkpt>
      <trkpt lat="46.88003" lon="-0.76031">
        <ele>197</ele>
        <time>2021-09-02T11:40:12Z</time>
      </trkpt>
      <trkpt lat="46.88059" lon="-0.75939">
        <ele>198</ele>
        <time>2021-09-02T11:40:27Z</time>
      </trkpt>
      <trkpt lat="46.88066" lon="-0.75923">
        <ele>198</ele>
        <time>2021-09-02T11:40:29Z</time>
      </trkpt>
      <trkpt lat="46.88069" lon="-0.75911">
        <ele>198</ele>
        <time>2021-09-02T11:40:30Z</time>
      </trkpt>
      <trkpt lat="46.8807" lon="-0.75893">
        <ele>197</ele>
        <time>2021-09-02T11:40:33Z</time>
      </trkpt>
      <trkpt lat="46.8807" lon="-0.75871">
        <ele>195</ele>
        <time>2021-09-02T11:40:35Z</time>
      </trkpt>
      <trkpt lat="46.88004" lon="-0.75197">
        <ele>199</ele>
        <time>2021-09-02T11:41:58Z</time>
      </trkpt>
      <trkpt lat="46.88" lon="-0.75171">
        <ele>200</ele>
        <time>2021-09-02T11:42:01Z</time>
      </trkpt>
      <trkpt lat="46.87992" lon="-0.75142">
        <ele>201</ele>
        <time>2021-09-02T11:42:05Z</time>
      </trkpt>
      <trkpt lat="46.87962" lon="-0.75047">
        <ele>200</ele>
        <time>2021-09-02T11:42:18Z</time>
      </trkpt>
      <trkpt lat="46.87954" lon="-0.75015">
        <ele>199</ele>
        <time>2021-09-02T11:42:22Z</time>
      </trkpt>
      <trkpt lat="46.87949" lon="-0.7498">
        <ele>198</ele>
        <time>2021-09-02T11:42:26Z</time>
      </trkpt>
      <trkpt lat="46.87946" lon="-0.7493">
        <ele>195</ele>
        <time>2021-09-02T11:42:32Z</time>
      </trkpt>
      <trkpt lat="46.87948" lon="-0.74887">
        <ele>195</ele>
        <time>2021-09-02T11:42:38Z</time>
      </trkpt>
      <trkpt lat="46.87957" lon="-0.74804">
        <ele>194</ele>
        <time>2021-09-02T11:42:48Z</time>
      </trkpt>
      <trkpt lat="46.87981" lon="-0.74632">
        <ele>193</ele>
        <time>2021-09-02T11:43:09Z</time>
      </trkpt>
      <trkpt lat="46.87984" lon="-0.74593">
        <ele>193</ele>
        <time>2021-09-02T11:43:14Z</time>
      </trkpt>
      <trkpt lat="46.87989" lon="-0.74452">
        <ele>189</ele>
        <time>2021-09-02T11:43:31Z</time>
      </trkpt>
      <trkpt lat="46.87994" lon="-0.74424">
        <ele>187</ele>
        <time>2021-09-02T11:43:35Z</time>
      </trkpt>
      <trkpt lat="46.88043" lon="-0.74283">
        <ele>182</ele>
        <time>2021-09-02T11:43:54Z</time>
      </trkpt>
      <trkpt lat="46.88049" lon="-0.74242">
        <ele>181</ele>
        <time>2021-09-02T11:43:59Z</time>
      </trkpt>
      <trkpt lat="46.88057" lon="-0.74211">
        <ele>181</ele>
        <time>2021-09-02T11:44:03Z</time>
      </trkpt>
      <trkpt lat="46.88062" lon="-0.74195">
        <ele>181</ele>
        <time>2021-09-02T11:44:05Z</time>
      </trkpt>
      <trkpt lat="46.88063" lon="-0.74165">
        <ele>181</ele>
        <time>2021-09-02T11:44:09Z</time>
      </trkpt>
      <trkpt lat="46.88067" lon="-0.74145">
        <ele>180</ele>
        <time>2021-09-02T11:44:11Z</time>
      </trkpt>
      <trkpt lat="46.8808" lon="-0.74156">
        <ele>181</ele>
        <time>2021-09-02T11:44:14Z</time>
      </trkpt>
      <trkpt lat="46.88081" lon="-0.7415">
        <ele>181</ele>
        <time>2021-09-02T11:44:15Z</time>
      </trkpt>
      <trkpt lat="46.88119" lon="-0.74055">
        <ele>179</ele>
        <time>2021-09-02T11:44:28Z</time>
      </trkpt>
      <trkpt lat="46.88122" lon="-0.74035">
        <ele>179</ele>
        <time>2021-09-02T11:44:31Z</time>
      </trkpt>
      <trkpt lat="46.88116" lon="-0.73928">
        <ele>178</ele>
        <time>2021-09-02T11:44:44Z</time>
      </trkpt>
      <trkpt lat="46.88105" lon="-0.73839">
        <ele>179</ele>
        <time>2021-09-02T11:44:55Z</time>
      </trkpt>
      <trkpt lat="46.88105" lon="-0.73826">
        <ele>179</ele>
        <time>2021-09-02T11:44:56Z</time>
      </trkpt>
      <trkpt lat="46.88106" lon="-0.73816">
        <ele>179</ele>
        <time>2021-09-02T11:44:58Z</time>
      </trkpt>
      <trkpt lat="46.8814" lon="-0.73664">
        <ele>178</ele>
        <time>2021-09-02T11:45:17Z</time>
      </trkpt>
      <trkpt lat="46.88154" lon="-0.73623">
        <ele>179</ele>
        <time>2021-09-02T11:45:23Z</time>
      </trkpt>
      <trkpt lat="46.88254" lon="-0.73404">
        <ele>178</ele>
        <time>2021-09-02T11:45:55Z</time>
      </trkpt>
      <trkpt lat="46.88277" lon="-0.73349">
        <ele>179</ele>
        <time>2021-09-02T11:46:02Z</time>
      </trkpt>
      <trkpt lat="46.883" lon="-0.73278">
        <ele>181</ele>
        <time>2021-09-02T11:46:12Z</time>
      </trkpt>
      <trkpt lat="46.88305" lon="-0.73136">
        <ele>181</ele>
        <time>2021-09-02T11:46:29Z</time>
      </trkpt>
      <trkpt lat="46.88324" lon="-0.72958">
        <ele>175</ele>
        <time>2021-09-02T11:46:51Z</time>
      </trkpt>
      <trkpt lat="46.88331" lon="-0.72922">
        <ele>173</ele>
        <time>2021-09-02T11:46:56Z</time>
      </trkpt>
      <trkpt lat="46.88339" lon="-0.72896">
        <ele>172</ele>
        <time>2021-09-02T11:46:59Z</time>
      </trkpt>
      <trkpt lat="46.8835" lon="-0.72869">
        <ele>171</ele>
        <time>2021-09-02T11:47:03Z</time>
      </trkpt>
      <trkpt lat="46.88393" lon="-0.72796">
        <ele>169</ele>
        <time>2021-09-02T11:47:15Z</time>
      </trkpt>
      <trkpt lat="46.88402" lon="-0.72771">
        <ele>168</ele>
        <time>2021-09-02T11:47:18Z</time>
      </trkpt>
      <trkpt lat="46.88405" lon="-0.72762">
        <ele>168</ele>
        <time>2021-09-02T11:47:19Z</time>
      </trkpt>
      <trkpt lat="46.88431" lon="-0.72665">
        <ele>171</ele>
        <time>2021-09-02T11:47:32Z</time>
      </trkpt>
      <trkpt lat="46.88434" lon="-0.72621">
        <ele>172</ele>
        <time>2021-09-02T11:47:38Z</time>
      </trkpt>
      <trkpt lat="46.88432" lon="-0.72599">
        <ele>173</ele>
        <time>2021-09-02T11:47:40Z</time>
      </trkpt>
      <trkpt lat="46.88426" lon="-0.72575">
        <ele>174</ele>
        <time>2021-09-02T11:47:43Z</time>
      </trkpt>
      <trkpt lat="46.88396" lon="-0.72516">
        <ele>176</ele>
        <time>2021-09-02T11:47:52Z</time>
      </trkpt>
      <trkpt lat="46.8838" lon="-0.72503">
        <ele>176</ele>
        <time>2021-09-02T11:47:56Z</time>
      </trkpt>
      <trkpt lat="46.88262" lon="-0.72442">
        <ele>173</ele>
        <time>2021-09-02T11:48:18Z</time>
      </trkpt>
      <trkpt lat="46.88242" lon="-0.72436">
        <ele>173</ele>
        <time>2021-09-02T11:48:21Z</time>
      </trkpt>
      <trkpt lat="46.88188" lon="-0.72436">
        <ele>176</ele>
        <time>2021-09-02T11:48:31Z</time>
      </trkpt>
      <trkpt lat="46.88167" lon="-0.72433">
        <ele>177</ele>
        <time>2021-09-02T11:48:35Z</time>
      </trkpt>
      <trkpt lat="46.8812" lon="-0.72411">
        <ele>179</ele>
        <time>2021-09-02T11:48:44Z</time>
      </trkpt>
      <trkpt lat="46.88046" lon="-0.72385">
        <ele>180</ele>
        <time>2021-09-02T11:48:57Z</time>
      </trkpt>
      <trkpt lat="46.88022" lon="-0.72373">
        <ele>180</ele>
        <time>2021-09-02T11:49:02Z</time>
      </trkpt>
      <trkpt lat="46.87937" lon="-0.72323">
        <ele>177</ele>
        <time>2021-09-02T11:49:18Z</time>
      </trkpt>
      <trkpt lat="46.87924" lon="-0.72314">
        <ele>177</ele>
        <time>2021-09-02T11:49:20Z</time>
      </trkpt>
      <trkpt lat="46.87902" lon="-0.72293">
        <ele>177</ele>
        <time>2021-09-02T11:49:25Z</time>
      </trkpt>
      <trkpt lat="46.87869" lon="-0.72253">
        <ele>180</ele>
        <time>2021-09-02T11:49:33Z</time>
      </trkpt>
      <trkpt lat="46.87855" lon="-0.7224">
        <ele>181</ele>
        <time>2021-09-02T11:49:36Z</time>
      </trkpt>
      <trkpt lat="46.87828" lon="-0.72234">
        <ele>182</ele>
        <time>2021-09-02T11:49:41Z</time>
      </trkpt>
      <trkpt lat="46.87772" lon="-0.72237">
        <ele>182</ele>
        <time>2021-09-02T11:49:51Z</time>
      </trkpt>
      <trkpt lat="46.87741" lon="-0.72227">
        <ele>183</ele>
        <time>2021-09-02T11:49:56Z</time>
      </trkpt>
      <trkpt lat="46.87714" lon="-0.72204">
        <ele>184</ele>
        <time>2021-09-02T11:50:02Z</time>
      </trkpt>
      <trkpt lat="46.87688" lon="-0.72172">
        <ele>185</ele>
        <time>2021-09-02T11:50:08Z</time>
      </trkpt>
      <trkpt lat="46.87669" lon="-0.72136">
        <ele>186</ele>
        <time>2021-09-02T11:50:13Z</time>
      </trkpt>
      <trkpt lat="46.87663" lon="-0.72118">
        <ele>187</ele>
        <time>2021-09-02T11:50:16Z</time>
      </trkpt>
      <trkpt lat="46.87662" lon="-0.72108">
        <ele>188</ele>
        <time>2021-09-02T11:50:17Z</time>
      </trkpt>
      <trkpt lat="46.87662" lon="-0.72097">
        <ele>188</ele>
        <time>2021-09-02T11:50:18Z</time>
      </trkpt>
      <trkpt lat="46.87668" lon="-0.72063">
        <ele>189</ele>
        <time>2021-09-02T11:50:23Z</time>
      </trkpt>
      <trkpt lat="46.87671" lon="-0.72027">
        <ele>188</ele>
        <time>2021-09-02T11:50:27Z</time>
      </trkpt>
      <trkpt lat="46.87676" lon="-0.71961">
        <ele>188</ele>
        <time>2021-09-02T11:50:35Z</time>
      </trkpt>
      <trkpt lat="46.87677" lon="-0.71923">
        <ele>188</ele>
        <time>2021-09-02T11:50:40Z</time>
      </trkpt>
      <trkpt lat="46.8768" lon="-0.71899">
        <ele>188</ele>
        <time>2021-09-02T11:50:43Z</time>
      </trkpt>
      <trkpt lat="46.87683" lon="-0.71886">
        <ele>188</ele>
        <time>2021-09-02T11:50:44Z</time>
      </trkpt>
      <trkpt lat="46.87687" lon="-0.71877">
        <ele>188</ele>
        <time>2021-09-02T11:50:46Z</time>
      </trkpt>
      <trkpt lat="46.87693" lon="-0.71869">
        <ele>188</ele>
        <time>2021-09-02T11:50:47Z</time>
      </trkpt>
      <trkpt lat="46.87711" lon="-0.71855">
        <ele>190</ele>
        <time>2021-09-02T11:50:51Z</time>
      </trkpt>
      <trkpt lat="46.87759" lon="-0.7183">
        <ele>192</ele>
        <time>2021-09-02T11:51:00Z</time>
      </trkpt>
      <trkpt lat="46.87783" lon="-0.71816">
        <ele>192</ele>
        <time>2021-09-02T11:51:04Z</time>
      </trkpt>
      <trkpt lat="46.87797" lon="-0.71804">
        <ele>193</ele>
        <time>2021-09-02T11:51:07Z</time>
      </trkpt>
      <trkpt lat="46.87809" lon="-0.71789">
        <ele>193</ele>
        <time>2021-09-02T11:51:10Z</time>
      </trkpt>
      <trkpt lat="46.87885" lon="-0.71678">
        <ele>195</ele>
        <time>2021-09-02T11:51:29Z</time>
      </trkpt>
      <trkpt lat="46.87899" lon="-0.71652">
        <ele>195</ele>
        <time>2021-09-02T11:51:33Z</time>
      </trkpt>
      <trkpt lat="46.87944" lon="-0.71548">
        <ele>194</ele>
        <time>2021-09-02T11:51:48Z</time>
      </trkpt>
      <trkpt lat="46.87966" lon="-0.71507">
        <ele>193</ele>
        <time>2021-09-02T11:51:55Z</time>
      </trkpt>
      <trkpt lat="46.87983" lon="-0.71483">
        <ele>193</ele>
        <time>2021-09-02T11:51:59Z</time>
      </trkpt>
      <trkpt lat="46.88015" lon="-0.7143">
        <ele>193</ele>
        <time>2021-09-02T11:52:07Z</time>
      </trkpt>
      <trkpt lat="46.88021" lon="-0.71416">
        <ele>193</ele>
        <time>2021-09-02T11:52:09Z</time>
      </trkpt>
      <trkpt lat="46.88027" lon="-0.71395">
        <ele>193</ele>
        <time>2021-09-02T11:52:12Z</time>
      </trkpt>
      <trkpt lat="46.88044" lon="-0.71309">
        <ele>194</ele>
        <time>2021-09-02T11:52:23Z</time>
      </trkpt>
      <trkpt lat="46.88059" lon="-0.71211">
        <ele>196</ele>
        <time>2021-09-02T11:52:35Z</time>
      </trkpt>
      <trkpt lat="46.88072" lon="-0.71113">
        <ele>198</ele>
        <time>2021-09-02T11:52:47Z</time>
      </trkpt>
      <trkpt lat="46.88073" lon="-0.71067">
        <ele>198</ele>
        <time>2021-09-02T11:52:53Z</time>
      </trkpt>
      <trkpt lat="46.88072" lon="-0.7102">
        <ele>197</ele>
        <time>2021-09-02T11:52:59Z</time>
      </trkpt>
      <trkpt lat="46.88064" lon="-0.70926">
        <ele>196</ele>
        <time>2021-09-02T11:53:10Z</time>
      </trkpt>
      <trkpt lat="46.88063" lon="-0.70902">
        <ele>196</ele>
        <time>2021-09-02T11:53:13Z</time>
      </trkpt>
      <trkpt lat="46.88064" lon="-0.70891">
        <ele>196</ele>
        <time>2021-09-02T11:53:14Z</time>
      </trkpt>
      <trkpt lat="46.88067" lon="-0.70882">
        <ele>197</ele>
        <time>2021-09-02T11:53:16Z</time>
      </trkpt>
      <trkpt lat="46.88091" lon="-0.70827">
        <ele>197</ele>
        <time>2021-09-02T11:53:24Z</time>
      </trkpt>
      <trkpt lat="46.88131" lon="-0.70719">
        <ele>197</ele>
        <time>2021-09-02T11:53:39Z</time>
      </trkpt>
      <trkpt lat="46.88146" lon="-0.7067">
        <ele>198</ele>
        <time>2021-09-02T11:53:45Z</time>
      </trkpt>
      <trkpt lat="46.88153" lon="-0.70639">
        <ele>200</ele>
        <time>2021-09-02T11:53:49Z</time>
      </trkpt>
      <trkpt lat="46.88158" lon="-0.70581">
        <ele>202</ele>
        <time>2021-09-02T11:53:56Z</time>
      </trkpt>
      <trkpt lat="46.88183" lon="-0.70486">
        <ele>202</ele>
        <time>2021-09-02T11:54:09Z</time>
      </trkpt>
      <trkpt lat="46.88186" lon="-0.7047">
        <ele>201</ele>
        <time>2021-09-02T11:54:11Z</time>
      </trkpt>
      <trkpt lat="46.88186" lon="-0.70457">
        <ele>201</ele>
        <time>2021-09-02T11:54:12Z</time>
      </trkpt>
      <trkpt lat="46.88183" lon="-0.70442">
        <ele>201</ele>
        <time>2021-09-02T11:54:14Z</time>
      </trkpt>
      <trkpt lat="46.88179" lon="-0.70431">
        <ele>201</ele>
        <time>2021-09-02T11:54:16Z</time>
      </trkpt>
      <trkpt lat="46.88172" lon="-0.7042">
        <ele>201</ele>
        <time>2021-09-02T11:54:17Z</time>
      </trkpt>
      <trkpt lat="46.88162" lon="-0.70408">
        <ele>201</ele>
        <time>2021-09-02T11:54:20Z</time>
      </trkpt>
      <trkpt lat="46.87831" lon="-0.70193">
        <ele>203</ele>
        <time>2021-09-02T11:55:24Z</time>
      </trkpt>
      <trkpt lat="46.87814" lon="-0.70177">
        <ele>204</ele>
        <time>2021-09-02T11:55:28Z</time>
      </trkpt>
      <trkpt lat="46.87796" lon="-0.70143">
        <ele>206</ele>
        <time>2021-09-02T11:55:33Z</time>
      </trkpt>
      <trkpt lat="46.87759" lon="-0.70041">
        <ele>211</ele>
        <time>2021-09-02T11:55:47Z</time>
      </trkpt>
      <trkpt lat="46.87754" lon="-0.70006">
        <ele>213</ele>
        <time>2021-09-02T11:55:51Z</time>
      </trkpt>
      <trkpt lat="46.87754" lon="-0.69983">
        <ele>214</ele>
        <time>2021-09-02T11:55:54Z</time>
      </trkpt>
      <trkpt lat="46.87777" lon="-0.69873">
        <ele>215</ele>
        <time>2021-09-02T11:56:08Z</time>
      </trkpt>
      <trkpt lat="46.87777" lon="-0.69839">
        <ele>214</ele>
        <time>2021-09-02T11:56:12Z</time>
      </trkpt>
      <trkpt lat="46.87766" lon="-0.69738">
        <ele>211</ele>
        <time>2021-09-02T11:56:25Z</time>
      </trkpt>
      <trkpt lat="46.87766" lon="-0.69708">
        <ele>209</ele>
        <time>2021-09-02T11:56:28Z</time>
      </trkpt>
      <trkpt lat="46.87724" lon="-0.69694">
        <ele>209</ele>
        <time>2021-09-02T11:56:36Z</time>
      </trkpt>
      <trkpt lat="46.87704" lon="-0.69678">
        <ele>209</ele>
        <time>2021-09-02T11:56:40Z</time>
      </trkpt>
      <trkpt lat="46.87614" lon="-0.69555">
        <ele>203</ele>
        <time>2021-09-02T11:57:02Z</time>
      </trkpt>
      <trkpt lat="46.87567" lon="-0.69494">
        <ele>203</ele>
        <time>2021-09-02T11:57:13Z</time>
      </trkpt>
      <trkpt lat="46.87514" lon="-0.69439">
        <ele>204</ele>
        <time>2021-09-02T11:57:25Z</time>
      </trkpt>
      <trkpt lat="46.87492" lon="-0.69419">
        <ele>205</ele>
        <time>2021-09-02T11:57:29Z</time>
      </trkpt>
      <trkpt lat="46.87202" lon="-0.69186">
        <ele>210</ele>
        <time>2021-09-02T11:58:28Z</time>
      </trkpt>
      <trkpt lat="46.8714" lon="-0.69139">
        <ele>211</ele>
        <time>2021-09-02T11:58:41Z</time>
      </trkpt>
      <trkpt lat="46.87059" lon="-0.69097">
        <ele>210</ele>
        <time>2021-09-02T11:58:56Z</time>
      </trkpt>
      <trkpt lat="46.87043" lon="-0.69082">
        <ele>210</ele>
        <time>2021-09-02T11:58:59Z</time>
      </trkpt>
      <trkpt lat="46.86982" lon="-0.69008">
        <ele>207</ele>
        <time>2021-09-02T11:59:13Z</time>
      </trkpt>
      <trkpt lat="46.86973" lon="-0.68995">
        <ele>207</ele>
        <time>2021-09-02T11:59:16Z</time>
      </trkpt>
      <trkpt lat="46.86967" lon="-0.68982">
        <ele>206</ele>
        <time>2021-09-02T11:59:18Z</time>
      </trkpt>
      <trkpt lat="46.86899" lon="-0.68792">
        <ele>202</ele>
        <time>2021-09-02T11:59:44Z</time>
      </trkpt>
      <trkpt lat="46.86887" lon="-0.68774">
        <ele>201</ele>
        <time>2021-09-02T11:59:47Z</time>
      </trkpt>
      <trkpt lat="46.86882" lon="-0.6877">
        <ele>201</ele>
        <time>2021-09-02T11:59:48Z</time>
      </trkpt>
      <trkpt lat="46.86869" lon="-0.68766">
        <ele>200</ele>
        <time>2021-09-02T11:59:50Z</time>
      </trkpt>
      <trkpt lat="46.86845" lon="-0.68763">
        <ele>199</ele>
        <time>2021-09-02T11:59:54Z</time>
      </trkpt>
      <trkpt lat="46.86782" lon="-0.6877">
        <ele>194</ele>
        <time>2021-09-02T12:00:06Z</time>
      </trkpt>
      <trkpt lat="46.86751" lon="-0.68778">
        <ele>192</ele>
        <time>2021-09-02T12:00:11Z</time>
      </trkpt>
      <trkpt lat="46.86715" lon="-0.68783">
        <ele>192</ele>
        <time>2021-09-02T12:00:18Z</time>
      </trkpt>
      <trkpt lat="46.86671" lon="-0.68785">
        <ele>191</ele>
        <time>2021-09-02T12:00:25Z</time>
      </trkpt>
      <trkpt lat="46.86663" lon="-0.68783">
        <ele>190</ele>
        <time>2021-09-02T12:00:27Z</time>
      </trkpt>
      <trkpt lat="46.86657" lon="-0.68778">
        <ele>190</ele>
        <time>2021-09-02T12:00:28Z</time>
      </trkpt>
      <trkpt lat="46.86653" lon="-0.68783">
        <ele>190</ele>
        <time>2021-09-02T12:00:29Z</time>
      </trkpt>
      <trkpt lat="46.86646" lon="-0.68786">
        <ele>191</ele>
        <time>2021-09-02T12:00:30Z</time>
      </trkpt>
      <trkpt lat="46.86541" lon="-0.68793">
        <ele>193</ele>
        <time>2021-09-02T12:00:49Z</time>
      </trkpt>
      <trkpt lat="46.86497" lon="-0.68803">
        <ele>194</ele>
        <time>2021-09-02T12:00:57Z</time>
      </trkpt>
      <trkpt lat="46.86446" lon="-0.68817">
        <ele>196</ele>
        <time>2021-09-02T12:01:06Z</time>
      </trkpt>
      <trkpt lat="46.86443" lon="-0.68801">
        <ele>196</ele>
        <time>2021-09-02T12:01:08Z</time>
      </trkpt>
      <trkpt lat="46.86395" lon="-0.6852">
        <ele>194</ele>
        <time>2021-09-02T12:01:44Z</time>
      </trkpt>
      <trkpt lat="46.86381" lon="-0.68372">
        <ele>191</ele>
        <time>2021-09-02T12:02:02Z</time>
      </trkpt>
      <trkpt lat="46.86378" lon="-0.68319">
        <ele>190</ele>
        <time>2021-09-02T12:02:08Z</time>
      </trkpt>
      <trkpt lat="46.86378" lon="-0.68266">
        <ele>188</ele>
        <time>2021-09-02T12:02:15Z</time>
      </trkpt>
      <trkpt lat="46.8638" lon="-0.68238">
        <ele>188</ele>
        <time>2021-09-02T12:02:18Z</time>
      </trkpt>
      <trkpt lat="46.86389" lon="-0.68139">
        <ele>186</ele>
        <time>2021-09-02T12:02:30Z</time>
      </trkpt>
      <trkpt lat="46.86406" lon="-0.68032">
        <ele>184</ele>
        <time>2021-09-02T12:02:44Z</time>
      </trkpt>
      <trkpt lat="46.86413" lon="-0.67969">
        <ele>182</ele>
        <time>2021-09-02T12:02:51Z</time>
      </trkpt>
      <trkpt lat="46.86413" lon="-0.67905">
        <ele>178</ele>
        <time>2021-09-02T12:02:59Z</time>
      </trkpt>
      <trkpt lat="46.86412" lon="-0.67877">
        <ele>177</ele>
        <time>2021-09-02T12:03:03Z</time>
      </trkpt>
      <trkpt lat="46.86409" lon="-0.67855">
        <ele>176</ele>
        <time>2021-09-02T12:03:05Z</time>
      </trkpt>
      <trkpt lat="46.86404" lon="-0.67834">
        <ele>176</ele>
        <time>2021-09-02T12:03:08Z</time>
      </trkpt>
      <trkpt lat="46.86391" lon="-0.67802">
        <ele>176</ele>
        <time>2021-09-02T12:03:12Z</time>
      </trkpt>
      <trkpt lat="46.86345" lon="-0.67714">
        <ele>178</ele>
        <time>2021-09-02T12:03:26Z</time>
      </trkpt>
      <trkpt lat="46.86337" lon="-0.67702">
        <ele>178</ele>
        <time>2021-09-02T12:03:28Z</time>
      </trkpt>
      <trkpt lat="46.86278" lon="-0.67643">
        <ele>182</ele>
        <time>2021-09-02T12:03:41Z</time>
      </trkpt>
      <trkpt lat="46.86263" lon="-0.6762">
        <ele>182</ele>
        <time>2021-09-02T12:03:45Z</time>
      </trkpt>
      <trkpt lat="46.86236" lon="-0.67561">
        <ele>183</ele>
        <time>2021-09-02T12:03:53Z</time>
      </trkpt>
      <trkpt lat="46.86216" lon="-0.67515">
        <ele>183</ele>
        <time>2021-09-02T12:04:00Z</time>
      </trkpt>
      <trkpt lat="46.86184" lon="-0.67428">
        <ele>183</ele>
        <time>2021-09-02T12:04:12Z</time>
      </trkpt>
      <trkpt lat="46.86146" lon="-0.67316">
        <ele>184</ele>
        <time>2021-09-02T12:04:27Z</time>
      </trkpt>
      <trkpt lat="46.86137" lon="-0.67282">
        <ele>185</ele>
        <time>2021-09-02T12:04:32Z</time>
      </trkpt>
      <trkpt lat="46.86131" lon="-0.67246">
        <ele>185</ele>
        <time>2021-09-02T12:04:36Z</time>
      </trkpt>
      <trkpt lat="46.86127" lon="-0.67198">
        <ele>186</ele>
        <time>2021-09-02T12:04:42Z</time>
      </trkpt>
      <trkpt lat="46.86127" lon="-0.67173">
        <ele>186</ele>
        <time>2021-09-02T12:04:45Z</time>
      </trkpt>
      <trkpt lat="46.86165" lon="-0.66852">
        <ele>193</ele>
        <time>2021-09-02T12:05:25Z</time>
      </trkpt>
      <trkpt lat="46.86165" lon="-0.66832">
        <ele>194</ele>
        <time>2021-09-02T12:05:27Z</time>
      </trkpt>
      <trkpt lat="46.86162" lon="-0.6681">
        <ele>194</ele>
        <time>2021-09-02T12:05:30Z</time>
      </trkpt>
      <trkpt lat="46.86157" lon="-0.66786">
        <ele>193</ele>
        <time>2021-09-02T12:05:33Z</time>
      </trkpt>
      <trkpt lat="46.86148" lon="-0.66753">
        <ele>193</ele>
        <time>2021-09-02T12:05:37Z</time>
      </trkpt>
      <trkpt lat="46.86074" lon="-0.66556">
        <ele>183</ele>
        <time>2021-09-02T12:06:04Z</time>
      </trkpt>
      <trkpt lat="46.86067" lon="-0.66544">
        <ele>183</ele>
        <time>2021-09-02T12:06:06Z</time>
      </trkpt>
      <trkpt lat="46.86044" lon="-0.6652">
        <ele>182</ele>
        <time>2021-09-02T12:06:11Z</time>
      </trkpt>
      <trkpt lat="46.86036" lon="-0.66509">
        <ele>182</ele>
        <time>2021-09-02T12:06:13Z</time>
      </trkpt>
      <trkpt lat="46.86028" lon="-0.66495">
        <ele>182</ele>
        <time>2021-09-02T12:06:16Z</time>
      </trkpt>
      <trkpt lat="46.86023" lon="-0.66477">
        <ele>182</ele>
        <time>2021-09-02T12:06:18Z</time>
      </trkpt>
      <trkpt lat="46.86022" lon="-0.66462">
        <ele>182</ele>
        <time>2021-09-02T12:06:20Z</time>
      </trkpt>
      <trkpt lat="46.86023" lon="-0.66442">
        <ele>182</ele>
        <time>2021-09-02T12:06:22Z</time>
      </trkpt>
      <trkpt lat="46.86026" lon="-0.66424">
        <ele>181</ele>
        <time>2021-09-02T12:06:24Z</time>
      </trkpt>
      <trkpt lat="46.86031" lon="-0.6641">
        <ele>179</ele>
        <time>2021-09-02T12:06:26Z</time>
      </trkpt>
      <trkpt lat="46.86038" lon="-0.66397">
        <ele>178</ele>
        <time>2021-09-02T12:06:28Z</time>
      </trkpt>
      <trkpt lat="46.86048" lon="-0.66389">
        <ele>176</ele>
        <time>2021-09-02T12:06:30Z</time>
      </trkpt>
      <trkpt lat="46.86057" lon="-0.66385">
        <ele>174</ele>
        <time>2021-09-02T12:06:32Z</time>
      </trkpt>
      <trkpt lat="46.86066" lon="-0.66385">
        <ele>172</ele>
        <time>2021-09-02T12:06:34Z</time>
      </trkpt>
      <trkpt lat="46.86083" lon="-0.66393">
        <ele>170</ele>
        <time>2021-09-02T12:06:37Z</time>
      </trkpt>
      <trkpt lat="46.8609" lon="-0.664">
        <ele>169</ele>
        <time>2021-09-02T12:06:38Z</time>
      </trkpt>
      <trkpt lat="46.86111" lon="-0.66436">
        <ele>170</ele>
        <time>2021-09-02T12:06:44Z</time>
      </trkpt>
      <trkpt lat="46.86123" lon="-0.66448">
        <ele>169</ele>
        <time>2021-09-02T12:06:47Z</time>
      </trkpt>
      <trkpt lat="46.86138" lon="-0.66452">
        <ele>168</ele>
        <time>2021-09-02T12:06:49Z</time>
      </trkpt>
      <trkpt lat="46.86146" lon="-0.66449">
        <ele>167</ele>
        <time>2021-09-02T12:06:51Z</time>
      </trkpt>
      <trkpt lat="46.86166" lon="-0.6643">
        <ele>162</ele>
        <time>2021-09-02T12:06:55Z</time>
      </trkpt>
      <trkpt lat="46.86187" lon="-0.66407">
        <ele>162</ele>
        <time>2021-09-02T12:07:00Z</time>
      </trkpt>
      <trkpt lat="46.862" lon="-0.66385">
        <ele>163</ele>
        <time>2021-09-02T12:07:03Z</time>
      </trkpt>
      <trkpt lat="46.86211" lon="-0.66361">
        <ele>163</ele>
        <time>2021-09-02T12:07:07Z</time>
      </trkpt>
      <trkpt lat="46.86228" lon="-0.66312">
        <ele>164</ele>
        <time>2021-09-02T12:07:14Z</time>
      </trkpt>
      <trkpt lat="46.86242" lon="-0.6626">
        <ele>167</ele>
        <time>2021-09-02T12:07:20Z</time>
      </trkpt>
      <trkpt lat="46.86247" lon="-0.66214">
        <ele>169</ele>
        <time>2021-09-02T12:07:26Z</time>
      </trkpt>
      <trkpt lat="46.86243" lon="-0.66169">
        <ele>172</ele>
        <time>2021-09-02T12:07:32Z</time>
      </trkpt>
      <trkpt lat="46.86232" lon="-0.66114">
        <ele>174</ele>
        <time>2021-09-02T12:07:39Z</time>
      </trkpt>
      <trkpt lat="46.86223" lon="-0.66083">
        <ele>174</ele>
        <time>2021-09-02T12:07:43Z</time>
      </trkpt>
      <trkpt lat="46.86171" lon="-0.6594">
        <ele>178</ele>
        <time>2021-09-02T12:08:02Z</time>
      </trkpt>
      <trkpt lat="46.86133" lon="-0.65807">
        <ele>181</ele>
        <time>2021-09-02T12:08:20Z</time>
      </trkpt>
      <trkpt lat="46.8608" lon="-0.6569">
        <ele>181</ele>
        <time>2021-09-02T12:08:37Z</time>
      </trkpt>
      <trkpt lat="46.8607" lon="-0.65656">
        <ele>180</ele>
        <time>2021-09-02T12:08:41Z</time>
      </trkpt>
      <trkpt lat="46.86067" lon="-0.65626">
        <ele>180</ele>
        <time>2021-09-02T12:08:45Z</time>
      </trkpt>
      <trkpt lat="46.86069" lon="-0.6562">
        <ele>180</ele>
        <time>2021-09-02T12:08:46Z</time>
      </trkpt>
      <trkpt lat="46.86104" lon="-0.65588">
        <ele>181</ele>
        <time>2021-09-02T12:08:53Z</time>
      </trkpt>
      <trkpt lat="46.8611" lon="-0.65573">
        <ele>182</ele>
        <time>2021-09-02T12:08:55Z</time>
      </trkpt>
      <trkpt lat="46.8611" lon="-0.65565">
        <ele>182</ele>
        <time>2021-09-02T12:08:56Z</time>
      </trkpt>
      <trkpt lat="46.86107" lon="-0.6555">
        <ele>183</ele>
        <time>2021-09-02T12:08:58Z</time>
      </trkpt>
      <trkpt lat="46.86119" lon="-0.6555">
        <ele>183</ele>
        <time>2021-09-02T12:09:00Z</time>
      </trkpt>
      <trkpt lat="46.86129" lon="-0.65544">
        <ele>183</ele>
        <time>2021-09-02T12:09:02Z</time>
      </trkpt>
      <trkpt lat="46.86182" lon="-0.65498">
        <ele>184</ele>
        <time>2021-09-02T12:09:13Z</time>
      </trkpt>
      <trkpt lat="46.86178" lon="-0.65481">
        <ele>185</ele>
        <time>2021-09-02T12:09:15Z</time>
      </trkpt>
      <trkpt lat="46.86139" lon="-0.65436">
        <ele>185</ele>
        <time>2021-09-02T12:09:24Z</time>
      </trkpt>
      <trkpt lat="46.86134" lon="-0.65422">
        <ele>185</ele>
        <time>2021-09-02T12:09:26Z</time>
      </trkpt>
      <trkpt lat="46.86131" lon="-0.65368">
        <ele>184</ele>
        <time>2021-09-02T12:09:33Z</time>
      </trkpt>
      <trkpt lat="46.86131" lon="-0.65329">
        <ele>184</ele>
        <time>2021-09-02T12:09:38Z</time>
      </trkpt>
      <trkpt lat="46.86134" lon="-0.65278">
        <ele>184</ele>
        <time>2021-09-02T12:09:44Z</time>
      </trkpt>
      <trkpt lat="46.8616" lon="-0.65112">
        <ele>193</ele>
        <time>2021-09-02T12:10:05Z</time>
      </trkpt>
      <trkpt lat="46.86165" lon="-0.65089">
        <ele>194</ele>
        <time>2021-09-02T12:10:07Z</time>
      </trkpt>
      <trkpt lat="46.86174" lon="-0.65062">
        <ele>196</ele>
        <time>2021-09-02T12:10:11Z</time>
      </trkpt>
      <trkpt lat="46.86223" lon="-0.64942">
        <ele>197</ele>
        <time>2021-09-02T12:10:28Z</time>
      </trkpt>
      <trkpt lat="46.86289" lon="-0.64869">
        <ele>199</ele>
        <time>2021-09-02T12:10:43Z</time>
      </trkpt>
      <trkpt lat="46.86312" lon="-0.64838">
        <ele>200</ele>
        <time>2021-09-02T12:10:48Z</time>
      </trkpt>
      <trkpt lat="46.86327" lon="-0.64809">
        <ele>201</ele>
        <time>2021-09-02T12:10:53Z</time>
      </trkpt>
      <trkpt lat="46.86335" lon="-0.64785">
        <ele>202</ele>
        <time>2021-09-02T12:10:56Z</time>
      </trkpt>
      <trkpt lat="46.8634" lon="-0.64758">
        <ele>202</ele>
        <time>2021-09-02T12:10:59Z</time>
      </trkpt>
      <trkpt lat="46.86345" lon="-0.64715">
        <ele>203</ele>
        <time>2021-09-02T12:11:05Z</time>
      </trkpt>
      <trkpt lat="46.86345" lon="-0.64691">
        <ele>203</ele>
        <time>2021-09-02T12:11:08Z</time>
      </trkpt>
      <trkpt lat="46.86337" lon="-0.64631">
        <ele>203</ele>
        <time>2021-09-02T12:11:15Z</time>
      </trkpt>
      <trkpt lat="46.86335" lon="-0.64599">
        <ele>204</ele>
        <time>2021-09-02T12:11:19Z</time>
      </trkpt>
      <trkpt lat="46.86342" lon="-0.64522">
        <ele>205</ele>
        <time>2021-09-02T12:11:29Z</time>
      </trkpt>
      <trkpt lat="46.86345" lon="-0.6443">
        <ele>206</ele>
        <time>2021-09-02T12:11:40Z</time>
      </trkpt>
      <trkpt lat="46.86353" lon="-0.64319">
        <ele>208</ele>
        <time>2021-09-02T12:11:53Z</time>
      </trkpt>
      <trkpt lat="46.86352" lon="-0.64287">
        <ele>208</ele>
        <time>2021-09-02T12:11:57Z</time>
      </trkpt>
      <trkpt lat="46.86348" lon="-0.64255">
        <ele>208</ele>
        <time>2021-09-02T12:12:01Z</time>
      </trkpt>
      <trkpt lat="46.86334" lon="-0.64184">
        <ele>207</ele>
        <time>2021-09-02T12:12:10Z</time>
      </trkpt>
      <trkpt lat="46.8633" lon="-0.64151">
        <ele>207</ele>
        <time>2021-09-02T12:12:14Z</time>
      </trkpt>
      <trkpt lat="46.86318" lon="-0.63971">
        <ele>207</ele>
        <time>2021-09-02T12:12:36Z</time>
      </trkpt>
      <trkpt lat="46.86316" lon="-0.63914">
        <ele>208</ele>
        <time>2021-09-02T12:12:43Z</time>
      </trkpt>
      <trkpt lat="46.86319" lon="-0.63838">
        <ele>209</ele>
        <time>2021-09-02T12:12:52Z</time>
      </trkpt>
      <trkpt lat="46.86317" lon="-0.63814">
        <ele>210</ele>
        <time>2021-09-02T12:12:55Z</time>
      </trkpt>
      <trkpt lat="46.86308" lon="-0.6374">
        <ele>211</ele>
        <time>2021-09-02T12:13:05Z</time>
      </trkpt>
      <trkpt lat="46.86307" lon="-0.63718">
        <ele>211</ele>
        <time>2021-09-02T12:13:07Z</time>
      </trkpt>
      <trkpt lat="46.86307" lon="-0.6367">
        <ele>211</ele>
        <time>2021-09-02T12:13:13Z</time>
      </trkpt>
      <trkpt lat="46.8631" lon="-0.63646">
        <ele>211</ele>
        <time>2021-09-02T12:13:16Z</time>
      </trkpt>
      <trkpt lat="46.86315" lon="-0.63623">
        <ele>212</ele>
        <time>2021-09-02T12:13:19Z</time>
      </trkpt>
      <trkpt lat="46.86336" lon="-0.63558">
        <ele>213</ele>
        <time>2021-09-02T12:13:28Z</time>
      </trkpt>
      <trkpt lat="46.86383" lon="-0.63424">
        <ele>218</ele>
        <time>2021-09-02T12:13:46Z</time>
      </trkpt>
      <trkpt lat="46.86388" lon="-0.63401">
        <ele>218</ele>
        <time>2021-09-02T12:13:49Z</time>
      </trkpt>
      <trkpt lat="46.86392" lon="-0.63373">
        <ele>219</ele>
        <time>2021-09-02T12:13:52Z</time>
      </trkpt>
      <trkpt lat="46.86394" lon="-0.63277">
        <ele>219</ele>
        <time>2021-09-02T12:14:04Z</time>
      </trkpt>
      <trkpt lat="46.86428" lon="-0.63058">
        <ele>214</ele>
        <time>2021-09-02T12:14:31Z</time>
      </trkpt>
      <trkpt lat="46.86449" lon="-0.62867">
        <ele>211</ele>
        <time>2021-09-02T12:14:55Z</time>
      </trkpt>
      <trkpt lat="46.86473" lon="-0.62599">
        <ele>208</ele>
        <time>2021-09-02T12:15:28Z</time>
      </trkpt>
      <trkpt lat="46.86479" lon="-0.62561">
        <ele>209</ele>
        <time>2021-09-02T12:15:33Z</time>
      </trkpt>
      <trkpt lat="46.86487" lon="-0.62529">
        <ele>210</ele>
        <time>2021-09-02T12:15:37Z</time>
      </trkpt>
      <trkpt lat="46.86515" lon="-0.62445">
        <ele>214</ele>
        <time>2021-09-02T12:15:48Z</time>
      </trkpt>
      <trkpt lat="46.86569" lon="-0.62295">
        <ele>221</ele>
        <time>2021-09-02T12:16:09Z</time>
      </trkpt>
      <trkpt lat="46.86613" lon="-0.622">
        <ele>219</ele>
        <time>2021-09-02T12:16:23Z</time>
      </trkpt>
      <trkpt lat="46.86625" lon="-0.62165">
        <ele>218</ele>
        <time>2021-09-02T12:16:27Z</time>
      </trkpt>
      <trkpt lat="46.8663" lon="-0.62134">
        <ele>218</ele>
        <time>2021-09-02T12:16:31Z</time>
      </trkpt>
      <trkpt lat="46.86632" lon="-0.621">
        <ele>218</ele>
        <time>2021-09-02T12:16:35Z</time>
      </trkpt>
      <trkpt lat="46.86633" lon="-0.62027">
        <ele>217</ele>
        <time>2021-09-02T12:16:44Z</time>
      </trkpt>
      <trkpt lat="46.86636" lon="-0.61989">
        <ele>217</ele>
        <time>2021-09-02T12:16:49Z</time>
      </trkpt>
      <trkpt lat="46.86651" lon="-0.61896">
        <ele>217</ele>
        <time>2021-09-02T12:17:01Z</time>
      </trkpt>
      <trkpt lat="46.86658" lon="-0.61834">
        <ele>217</ele>
        <time>2021-09-02T12:17:08Z</time>
      </trkpt>
      <trkpt lat="46.8666" lon="-0.61795">
        <ele>218</ele>
        <time>2021-09-02T12:17:13Z</time>
      </trkpt>
      <trkpt lat="46.86657" lon="-0.61674">
        <ele>218</ele>
        <time>2021-09-02T12:17:28Z</time>
      </trkpt>
      <trkpt lat="46.86659" lon="-0.61547">
        <ele>220</ele>
        <time>2021-09-02T12:17:43Z</time>
      </trkpt>
      <trkpt lat="46.86656" lon="-0.61431">
        <ele>222</ele>
        <time>2021-09-02T12:17:57Z</time>
      </trkpt>
      <trkpt lat="46.86653" lon="-0.61351">
        <ele>223</ele>
        <time>2021-09-02T12:18:07Z</time>
      </trkpt>
      <trkpt lat="46.86648" lon="-0.61288">
        <ele>223</ele>
        <time>2021-09-02T12:18:15Z</time>
      </trkpt>
      <trkpt lat="46.86645" lon="-0.61144">
        <ele>227</ele>
        <time>2021-09-02T12:18:32Z</time>
      </trkpt>
      <trkpt lat="46.86642" lon="-0.61095">
        <ele>228</ele>
        <time>2021-09-02T12:18:38Z</time>
      </trkpt>
      <trkpt lat="46.86637" lon="-0.61071">
        <ele>229</ele>
        <time>2021-09-02T12:18:41Z</time>
      </trkpt>
      <trkpt lat="46.86629" lon="-0.6105">
        <ele>229</ele>
        <time>2021-09-02T12:18:44Z</time>
      </trkpt>
      <trkpt lat="46.86609" lon="-0.61016">
        <ele>229</ele>
        <time>2021-09-02T12:18:50Z</time>
      </trkpt>
      <trkpt lat="46.8657" lon="-0.6097">
        <ele>228</ele>
        <time>2021-09-02T12:18:59Z</time>
      </trkpt>
      <trkpt lat="46.86504" lon="-0.60915">
        <ele>224</ele>
        <time>2021-09-02T12:19:12Z</time>
      </trkpt>
      <trkpt lat="46.86417" lon="-0.60849">
        <ele>221</ele>
        <time>2021-09-02T12:19:30Z</time>
      </trkpt>
      <trkpt lat="46.86367" lon="-0.60797">
        <ele>222</ele>
        <time>2021-09-02T12:19:41Z</time>
      </trkpt>
      <trkpt lat="46.86338" lon="-0.6078">
        <ele>222</ele>
        <time>2021-09-02T12:19:46Z</time>
      </trkpt>
      <trkpt lat="46.86312" lon="-0.60773">
        <ele>221</ele>
        <time>2021-09-02T12:19:51Z</time>
      </trkpt>
      <trkpt lat="46.86272" lon="-0.6078">
        <ele>220</ele>
        <time>2021-09-02T12:19:58Z</time>
      </trkpt>
      <trkpt lat="46.86262" lon="-0.60777">
        <ele>220</ele>
        <time>2021-09-02T12:20:00Z</time>
      </trkpt>
      <trkpt lat="46.86231" lon="-0.60755">
        <ele>219</ele>
        <time>2021-09-02T12:20:06Z</time>
      </trkpt>
      <trkpt lat="46.86227" lon="-0.60765">
        <ele>219</ele>
        <time>2021-09-02T12:20:07Z</time>
      </trkpt>
      <trkpt lat="46.86218" lon="-0.60775">
        <ele>218</ele>
        <time>2021-09-02T12:20:09Z</time>
      </trkpt>
      <trkpt lat="46.862" lon="-0.60793">
        <ele>217</ele>
        <time>2021-09-02T12:20:13Z</time>
      </trkpt>
      <trkpt lat="46.86185" lon="-0.60802">
        <ele>216</ele>
        <time>2021-09-02T12:20:16Z</time>
      </trkpt>
      <trkpt lat="46.86108" lon="-0.60813">
        <ele>212</ele>
        <time>2021-09-02T12:20:30Z</time>
      </trkpt>
      <trkpt lat="46.8609" lon="-0.60813">
        <ele>211</ele>
        <time>2021-09-02T12:20:33Z</time>
      </trkpt>
      <trkpt lat="46.8607" lon="-0.60809">
        <ele>211</ele>
        <time>2021-09-02T12:20:37Z</time>
      </trkpt>
      <trkpt lat="46.86054" lon="-0.60803">
        <ele>211</ele>
        <time>2021-09-02T12:20:40Z</time>
      </trkpt>
      <trkpt lat="46.85916" lon="-0.60728">
        <ele>217</ele>
        <time>2021-09-02T12:21:06Z</time>
      </trkpt>
      <trkpt lat="46.85909" lon="-0.60726">
        <ele>216</ele>
        <time>2021-09-02T12:21:07Z</time>
      </trkpt>
      <trkpt lat="46.85892" lon="-0.60732">
        <ele>216</ele>
        <time>2021-09-02T12:21:10Z</time>
      </trkpt>
      <trkpt lat="46.85878" lon="-0.60743">
        <ele>215</ele>
        <time>2021-09-02T12:21:13Z</time>
      </trkpt>
      <trkpt lat="46.8586" lon="-0.6076">
        <ele>214</ele>
        <time>2021-09-02T12:21:17Z</time>
      </trkpt>
      <trkpt lat="46.85815" lon="-0.60817">
        <ele>212</ele>
        <time>2021-09-02T12:21:27Z</time>
      </trkpt>
      <trkpt lat="46.85786" lon="-0.60844">
        <ele>213</ele>
        <time>2021-09-02T12:21:34Z</time>
      </trkpt>
      <trkpt lat="46.85558" lon="-0.60974">
        <ele>217</ele>
        <time>2021-09-02T12:22:17Z</time>
      </trkpt>
      <trkpt lat="46.8554" lon="-0.60987">
        <ele>217</ele>
        <time>2021-09-02T12:22:21Z</time>
      </trkpt>
      <trkpt lat="46.85469" lon="-0.61052">
        <ele>215</ele>
        <time>2021-09-02T12:22:36Z</time>
      </trkpt>
      <trkpt lat="46.85453" lon="-0.61062">
        <ele>214</ele>
        <time>2021-09-02T12:22:39Z</time>
      </trkpt>
      <trkpt lat="46.85425" lon="-0.61071">
        <ele>214</ele>
        <time>2021-09-02T12:22:44Z</time>
      </trkpt>
      <trkpt lat="46.8541" lon="-0.6107">
        <ele>215</ele>
        <time>2021-09-02T12:22:46Z</time>
      </trkpt>
      <trkpt lat="46.8539" lon="-0.61064">
        <ele>216</ele>
        <time>2021-09-02T12:22:50Z</time>
      </trkpt>
      <trkpt lat="46.85327" lon="-0.61031">
        <ele>219</ele>
        <time>2021-09-02T12:23:02Z</time>
      </trkpt>
      <trkpt lat="46.85313" lon="-0.61027">
        <ele>219</ele>
        <time>2021-09-02T12:23:04Z</time>
      </trkpt>
      <trkpt lat="46.85297" lon="-0.61026">
        <ele>219</ele>
        <time>2021-09-02T12:23:07Z</time>
      </trkpt>
      <trkpt lat="46.85272" lon="-0.61031">
        <ele>219</ele>
        <time>2021-09-02T12:23:12Z</time>
      </trkpt>
      <trkpt lat="46.85255" lon="-0.61038">
        <ele>219</ele>
        <time>2021-09-02T12:23:15Z</time>
      </trkpt>
      <trkpt lat="46.85242" lon="-0.61051">
        <ele>218</ele>
        <time>2021-09-02T12:23:18Z</time>
      </trkpt>
      <trkpt lat="46.8523" lon="-0.61066">
        <ele>218</ele>
        <time>2021-09-02T12:23:21Z</time>
      </trkpt>
      <trkpt lat="46.85202" lon="-0.61115">
        <ele>217</ele>
        <time>2021-09-02T12:23:28Z</time>
      </trkpt>
      <trkpt lat="46.85188" lon="-0.61149">
        <ele>217</ele>
        <time>2021-09-02T12:23:33Z</time>
      </trkpt>
      <trkpt lat="46.85128" lon="-0.61315">
        <ele>216</ele>
        <time>2021-09-02T12:23:56Z</time>
      </trkpt>
      <trkpt lat="46.85115" lon="-0.61342">
        <ele>216</ele>
        <time>2021-09-02T12:24:00Z</time>
      </trkpt>
      <trkpt lat="46.85071" lon="-0.61409">
        <ele>215</ele>
        <time>2021-09-02T12:24:11Z</time>
      </trkpt>
      <trkpt lat="46.85057" lon="-0.61427">
        <ele>215</ele>
        <time>2021-09-02T12:24:15Z</time>
      </trkpt>
      <trkpt lat="46.85039" lon="-0.61441">
        <ele>214</ele>
        <time>2021-09-02T12:24:18Z</time>
      </trkpt>
      <trkpt lat="46.85018" lon="-0.61454">
        <ele>213</ele>
        <time>2021-09-02T12:24:22Z</time>
      </trkpt>
      <trkpt lat="46.84993" lon="-0.61466">
        <ele>212</ele>
        <time>2021-09-02T12:24:27Z</time>
      </trkpt>
      <trkpt lat="46.84849" lon="-0.61502">
        <ele>208</ele>
        <time>2021-09-02T12:24:53Z</time>
      </trkpt>
      <trkpt lat="46.8467" lon="-0.61506">
        <ele>203</ele>
        <time>2021-09-02T12:25:25Z</time>
      </trkpt>
      <trkpt lat="46.84617" lon="-0.61505">
        <ele>202</ele>
        <time>2021-09-02T12:25:34Z</time>
      </trkpt>
      <trkpt lat="46.84564" lon="-0.61496">
        <ele>201</ele>
        <time>2021-09-02T12:25:44Z</time>
      </trkpt>
      <trkpt lat="46.84546" lon="-0.61495">
        <ele>201</ele>
        <time>2021-09-02T12:25:47Z</time>
      </trkpt>
      <trkpt lat="46.84531" lon="-0.61499">
        <ele>200</ele>
        <time>2021-09-02T12:25:50Z</time>
      </trkpt>
      <trkpt lat="46.84517" lon="-0.61506">
        <ele>200</ele>
        <time>2021-09-02T12:25:52Z</time>
      </trkpt>
      <trkpt lat="46.84506" lon="-0.61515">
        <ele>199</ele>
        <time>2021-09-02T12:25:55Z</time>
      </trkpt>
      <trkpt lat="46.84488" lon="-0.61533">
        <ele>199</ele>
        <time>2021-09-02T12:25:58Z</time>
      </trkpt>
      <trkpt lat="46.84433" lon="-0.61592">
        <ele>198</ele>
        <time>2021-09-02T12:26:11Z</time>
      </trkpt>
      <trkpt lat="46.84397" lon="-0.61639">
        <ele>197</ele>
        <time>2021-09-02T12:26:19Z</time>
      </trkpt>
      <trkpt lat="46.84264" lon="-0.61766">
        <ele>194</ele>
        <time>2021-09-02T12:26:47Z</time>
      </trkpt>
      <trkpt lat="46.84239" lon="-0.61793">
        <ele>192</ele>
        <time>2021-09-02T12:26:53Z</time>
      </trkpt>
      <trkpt lat="46.84217" lon="-0.61822">
        <ele>190</ele>
        <time>2021-09-02T12:26:58Z</time>
      </trkpt>
      <trkpt lat="46.84177" lon="-0.61888">
        <ele>187</ele>
        <time>2021-09-02T12:27:09Z</time>
      </trkpt>
      <trkpt lat="46.84147" lon="-0.61941">
        <ele>183</ele>
        <time>2021-09-02T12:27:17Z</time>
      </trkpt>
      <trkpt lat="46.84115" lon="-0.6201">
        <ele>181</ele>
        <time>2021-09-02T12:27:28Z</time>
      </trkpt>
      <trkpt lat="46.84098" lon="-0.62022">
        <ele>180</ele>
        <time>2021-09-02T12:27:31Z</time>
      </trkpt>
      <trkpt lat="46.84082" lon="-0.6203">
        <ele>180</ele>
        <time>2021-09-02T12:27:34Z</time>
      </trkpt>
      <trkpt lat="46.8406" lon="-0.62029">
        <ele>181</ele>
        <time>2021-09-02T12:27:38Z</time>
      </trkpt>
      <trkpt lat="46.84029" lon="-0.6202">
        <ele>183</ele>
        <time>2021-09-02T12:27:43Z</time>
      </trkpt>
      <trkpt lat="46.84008" lon="-0.62024">
        <ele>184</ele>
        <time>2021-09-02T12:27:47Z</time>
      </trkpt>
      <trkpt lat="46.8396" lon="-0.62064">
        <ele>187</ele>
        <time>2021-09-02T12:27:57Z</time>
      </trkpt>
      <trkpt lat="46.83958" lon="-0.62059">
        <ele>187</ele>
        <time>2021-09-02T12:27:58Z</time>
      </trkpt>
      <trkpt lat="46.83958" lon="-0.62059">
        <ele>187</ele>
        <time>2021-09-02T12:27:58Z</time>
      </trkpt>
      <trkpt lat="46.8396" lon="-0.62064">
        <ele>187</ele>
        <time>2021-09-02T12:27:58Z</time>
      </trkpt>
      <trkpt lat="46.83945" lon="-0.62073">
        <ele>188</ele>
        <time>2021-09-02T12:28:01Z</time>
      </trkpt>
      <trkpt lat="46.83905" lon="-0.62085">
        <ele>190</ele>
        <time>2021-09-02T12:28:09Z</time>
      </trkpt>
      <trkpt lat="46.83865" lon="-0.62095">
        <ele>192</ele>
        <time>2021-09-02T12:28:16Z</time>
      </trkpt>
      <trkpt lat="46.83835" lon="-0.62106">
        <ele>193</ele>
        <time>2021-09-02T12:28:21Z</time>
      </trkpt>
      <trkpt lat="46.83808" lon="-0.62111">
        <ele>194</ele>
        <time>2021-09-02T12:28:26Z</time>
      </trkpt>
      <trkpt lat="46.83782" lon="-0.62108">
        <ele>195</ele>
        <time>2021-09-02T12:28:31Z</time>
      </trkpt>
      <trkpt lat="46.83776" lon="-0.621">
        <ele>195</ele>
        <time>2021-09-02T12:28:32Z</time>
      </trkpt>
      <trkpt lat="46.83757" lon="-0.62053">
        <ele>195</ele>
        <time>2021-09-02T12:28:39Z</time>
      </trkpt>
      <trkpt lat="46.83753" lon="-0.62036">
        <ele>195</ele>
        <time>2021-09-02T12:28:41Z</time>
      </trkpt>
      <trkpt lat="46.8375" lon="-0.61969">
        <ele>194</ele>
        <time>2021-09-02T12:28:49Z</time>
      </trkpt>
      <trkpt lat="46.83749" lon="-0.61959">
        <ele>194</ele>
        <time>2021-09-02T12:28:50Z</time>
      </trkpt>
      <trkpt lat="46.83738" lon="-0.61945">
        <ele>193</ele>
        <time>2021-09-02T12:28:53Z</time>
      </trkpt>
      <trkpt lat="46.83735" lon="-0.61948">
        <ele>193</ele>
        <time>2021-09-02T12:28:54Z</time>
      </trkpt>
      <trkpt lat="46.83729" lon="-0.61951">
        <ele>194</ele>
        <time>2021-09-02T12:28:55Z</time>
      </trkpt>
      <trkpt lat="46.83722" lon="-0.61948">
        <ele>194</ele>
        <time>2021-09-02T12:28:56Z</time>
      </trkpt>
      <trkpt lat="46.83715" lon="-0.61966">
        <ele>194</ele>
        <time>2021-09-02T12:28:59Z</time>
      </trkpt>
      <trkpt lat="46.83639" lon="-0.62328">
        <ele>199</ele>
        <time>2021-09-02T12:29:45Z</time>
      </trkpt>
      <trkpt lat="46.83624" lon="-0.62383">
        <ele>199</ele>
        <time>2021-09-02T12:29:52Z</time>
      </trkpt>
      <trkpt lat="46.83101" lon="-0.64124">
        <ele>216</ele>
        <time>2021-09-02T12:33:43Z</time>
      </trkpt>
      <trkpt lat="46.82935" lon="-0.64683">
        <ele>211</ele>
        <time>2021-09-02T12:34:58Z</time>
      </trkpt>
      <trkpt lat="46.8293" lon="-0.64683">
        <ele>211</ele>
        <time>2021-09-02T12:34:58Z</time>
      </trkpt>
      <trkpt lat="46.82885" lon="-0.64827">
        <ele>207</ele>
        <time>2021-09-02T12:35:18Z</time>
      </trkpt>
      <trkpt lat="46.82797" lon="-0.65124">
        <ele>201</ele>
        <time>2021-09-02T12:35:57Z</time>
      </trkpt>
      <trkpt lat="46.82801" lon="-0.6513">
        <ele>201</ele>
        <time>2021-09-02T12:35:58Z</time>
      </trkpt>
      <trkpt lat="46.82772" lon="-0.65222">
        <ele>199</ele>
        <time>2021-09-02T12:36:10Z</time>
      </trkpt>
      <trkpt lat="46.82718" lon="-0.65359">
        <ele>193</ele>
        <time>2021-09-02T12:36:30Z</time>
      </trkpt>
      <trkpt lat="46.82711" lon="-0.6538">
        <ele>193</ele>
        <time>2021-09-02T12:36:33Z</time>
      </trkpt>
      <trkpt lat="46.82705" lon="-0.65406">
        <ele>192</ele>
        <time>2021-09-02T12:36:36Z</time>
      </trkpt>
      <trkpt lat="46.82705" lon="-0.65436">
        <ele>192</ele>
        <time>2021-09-02T12:36:40Z</time>
      </trkpt>
      <trkpt lat="46.82708" lon="-0.65445">
        <ele>192</ele>
        <time>2021-09-02T12:36:41Z</time>
      </trkpt>
      <trkpt lat="46.82708" lon="-0.65454">
        <ele>192</ele>
        <time>2021-09-02T12:36:42Z</time>
      </trkpt>
      <trkpt lat="46.82706" lon="-0.65458">
        <ele>192</ele>
        <time>2021-09-02T12:36:42Z</time>
      </trkpt>
      <trkpt lat="46.82711" lon="-0.65475">
        <ele>192</ele>
        <time>2021-09-02T12:36:45Z</time>
      </trkpt>
      <trkpt lat="46.82714" lon="-0.65498">
        <ele>192</ele>
        <time>2021-09-02T12:36:48Z</time>
      </trkpt>
      <trkpt lat="46.82715" lon="-0.65642">
        <ele>190</ele>
        <time>2021-09-02T12:37:05Z</time>
      </trkpt>
      <trkpt lat="46.82712" lon="-0.65674">
        <ele>189</ele>
        <time>2021-09-02T12:37:09Z</time>
      </trkpt>
      <trkpt lat="46.82707" lon="-0.65707">
        <ele>189</ele>
        <time>2021-09-02T12:37:13Z</time>
      </trkpt>
      <trkpt lat="46.82695" lon="-0.65761">
        <ele>189</ele>
        <time>2021-09-02T12:37:20Z</time>
      </trkpt>
      <trkpt lat="46.8268" lon="-0.65806">
        <ele>191</ele>
        <time>2021-09-02T12:37:26Z</time>
      </trkpt>
      <trkpt lat="46.82639" lon="-0.65902">
        <ele>194</ele>
        <time>2021-09-02T12:37:40Z</time>
      </trkpt>
      <trkpt lat="46.82546" lon="-0.66141">
        <ele>195</ele>
        <time>2021-09-02T12:38:13Z</time>
      </trkpt>
      <trkpt lat="46.82549" lon="-0.66162">
        <ele>195</ele>
        <time>2021-09-02T12:38:16Z</time>
      </trkpt>
      <trkpt lat="46.82553" lon="-0.66176">
        <ele>195</ele>
        <time>2021-09-02T12:38:18Z</time>
      </trkpt>
      <trkpt lat="46.82557" lon="-0.66178">
        <ele>195</ele>
        <time>2021-09-02T12:38:19Z</time>
      </trkpt>
      <trkpt lat="46.82562" lon="-0.66188">
        <ele>195</ele>
        <time>2021-09-02T12:38:20Z</time>
      </trkpt>
      <trkpt lat="46.82564" lon="-0.66198">
        <ele>195</ele>
        <time>2021-09-02T12:38:21Z</time>
      </trkpt>
      <trkpt lat="46.82572" lon="-0.66209">
        <ele>195</ele>
        <time>2021-09-02T12:38:23Z</time>
      </trkpt>
      <trkpt lat="46.82643" lon="-0.66281">
        <ele>194</ele>
        <time>2021-09-02T12:38:39Z</time>
      </trkpt>
      <trkpt lat="46.8266" lon="-0.663">
        <ele>193</ele>
        <time>2021-09-02T12:38:43Z</time>
      </trkpt>
      <trkpt lat="46.82728" lon="-0.66365">
        <ele>190</ele>
        <time>2021-09-02T12:38:57Z</time>
      </trkpt>
      <trkpt lat="46.82738" lon="-0.66369">
        <ele>189</ele>
        <time>2021-09-02T12:38:59Z</time>
      </trkpt>
      <trkpt lat="46.82752" lon="-0.66369">
        <ele>189</ele>
        <time>2021-09-02T12:39:01Z</time>
      </trkpt>
      <trkpt lat="46.82757" lon="-0.66366">
        <ele>189</ele>
        <time>2021-09-02T12:39:02Z</time>
      </trkpt>
      <trkpt lat="46.8277" lon="-0.66365">
        <ele>190</ele>
        <time>2021-09-02T12:39:05Z</time>
      </trkpt>
      <trkpt lat="46.82778" lon="-0.66369">
        <ele>190</ele>
        <time>2021-09-02T12:39:06Z</time>
      </trkpt>
      <trkpt lat="46.82784" lon="-0.66377">
        <ele>190</ele>
        <time>2021-09-02T12:39:08Z</time>
      </trkpt>
      <trkpt lat="46.8279" lon="-0.66393">
        <ele>191</ele>
        <time>2021-09-02T12:39:10Z</time>
      </trkpt>
      <trkpt lat="46.82791" lon="-0.66406">
        <ele>191</ele>
        <time>2021-09-02T12:39:11Z</time>
      </trkpt>
      <trkpt lat="46.82789" lon="-0.66417">
        <ele>191</ele>
        <time>2021-09-02T12:39:13Z</time>
      </trkpt>
      <trkpt lat="46.82794" lon="-0.66447">
        <ele>190</ele>
        <time>2021-09-02T12:39:17Z</time>
      </trkpt>
      <trkpt lat="46.82912" lon="-0.66645">
        <ele>189</ele>
        <time>2021-09-02T12:39:48Z</time>
      </trkpt>
      <trkpt lat="46.82933" lon="-0.66687">
        <ele>188</ele>
        <time>2021-09-02T12:39:55Z</time>
      </trkpt>
      <trkpt lat="46.8295" lon="-0.66737">
        <ele>188</ele>
        <time>2021-09-02T12:40:02Z</time>
      </trkpt>
      <trkpt lat="46.83013" lon="-0.6698">
        <ele>191</ele>
        <time>2021-09-02T12:40:33Z</time>
      </trkpt>
      <trkpt lat="46.83022" lon="-0.67025">
        <ele>193</ele>
        <time>2021-09-02T12:40:39Z</time>
      </trkpt>
      <trkpt lat="46.83025" lon="-0.6707">
        <ele>194</ele>
        <time>2021-09-02T12:40:44Z</time>
      </trkpt>
      <trkpt lat="46.83023" lon="-0.6712">
        <ele>194</ele>
        <time>2021-09-02T12:40:51Z</time>
      </trkpt>
      <trkpt lat="46.83019" lon="-0.67159">
        <ele>194</ele>
        <time>2021-09-02T12:40:55Z</time>
      </trkpt>
      <trkpt lat="46.83011" lon="-0.67196">
        <ele>194</ele>
        <time>2021-09-02T12:41:00Z</time>
      </trkpt>
      <trkpt lat="46.82992" lon="-0.67251">
        <ele>192</ele>
        <time>2021-09-02T12:41:08Z</time>
      </trkpt>
      <trkpt lat="46.82942" lon="-0.67362">
        <ele>190</ele>
        <time>2021-09-02T12:41:24Z</time>
      </trkpt>
      <trkpt lat="46.82911" lon="-0.67427">
        <ele>189</ele>
        <time>2021-09-02T12:41:33Z</time>
      </trkpt>
      <trkpt lat="46.82902" lon="-0.67455">
        <ele>188</ele>
        <time>2021-09-02T12:41:37Z</time>
      </trkpt>
      <trkpt lat="46.82898" lon="-0.67486">
        <ele>188</ele>
        <time>2021-09-02T12:41:41Z</time>
      </trkpt>
      <trkpt lat="46.829" lon="-0.67498">
        <ele>188</ele>
        <time>2021-09-02T12:41:43Z</time>
      </trkpt>
      <trkpt lat="46.82899" lon="-0.67509">
        <ele>188</ele>
        <time>2021-09-02T12:41:44Z</time>
      </trkpt>
      <trkpt lat="46.82896" lon="-0.67518">
        <ele>188</ele>
        <time>2021-09-02T12:41:45Z</time>
      </trkpt>
      <trkpt lat="46.82891" lon="-0.67526">
        <ele>187</ele>
        <time>2021-09-02T12:41:46Z</time>
      </trkpt>
      <trkpt lat="46.82885" lon="-0.6753">
        <ele>187</ele>
        <time>2021-09-02T12:41:48Z</time>
      </trkpt>
      <trkpt lat="46.82879" lon="-0.67532">
        <ele>187</ele>
        <time>2021-09-02T12:41:49Z</time>
      </trkpt>
      <trkpt lat="46.82869" lon="-0.67528">
        <ele>186</ele>
        <time>2021-09-02T12:41:51Z</time>
      </trkpt>
      <trkpt lat="46.82857" lon="-0.67534">
        <ele>185</ele>
        <time>2021-09-02T12:41:53Z</time>
      </trkpt>
      <trkpt lat="46.82847" lon="-0.67544">
        <ele>184</ele>
        <time>2021-09-02T12:41:55Z</time>
      </trkpt>
      <trkpt lat="46.82837" lon="-0.67559">
        <ele>184</ele>
        <time>2021-09-02T12:41:57Z</time>
      </trkpt>
      <trkpt lat="46.82831" lon="-0.67575">
        <ele>183</ele>
        <time>2021-09-02T12:42:00Z</time>
      </trkpt>
      <trkpt lat="46.82815" lon="-0.67661">
        <ele>181</ele>
        <time>2021-09-02T12:42:11Z</time>
      </trkpt>
      <trkpt lat="46.82806" lon="-0.67697">
        <ele>181</ele>
        <time>2021-09-02T12:42:15Z</time>
      </trkpt>
      <trkpt lat="46.82751" lon="-0.67872">
        <ele>180</ele>
        <time>2021-09-02T12:42:39Z</time>
      </trkpt>
      <trkpt lat="46.82699" lon="-0.68064">
        <ele>175</ele>
        <time>2021-09-02T12:43:04Z</time>
      </trkpt>
      <trkpt lat="46.8261" lon="-0.68448">
        <ele>169</ele>
        <time>2021-09-02T12:43:53Z</time>
      </trkpt>
      <trkpt lat="46.82584" lon="-0.68544">
        <ele>171</ele>
        <time>2021-09-02T12:44:06Z</time>
      </trkpt>
      <trkpt lat="46.82553" lon="-0.68624">
        <ele>172</ele>
        <time>2021-09-02T12:44:17Z</time>
      </trkpt>
      <trkpt lat="46.82511" lon="-0.68708">
        <ele>172</ele>
        <time>2021-09-02T12:44:30Z</time>
      </trkpt>
      <trkpt lat="46.82468" lon="-0.68769">
        <ele>172</ele>
        <time>2021-09-02T12:44:40Z</time>
      </trkpt>
      <trkpt lat="46.82415" lon="-0.68828">
        <ele>168</ele>
        <time>2021-09-02T12:44:52Z</time>
      </trkpt>
      <trkpt lat="46.82364" lon="-0.68867">
        <ele>165</ele>
        <time>2021-09-02T12:45:02Z</time>
      </trkpt>
      <trkpt lat="46.8232" lon="-0.68894">
        <ele>162</ele>
        <time>2021-09-02T12:45:11Z</time>
      </trkpt>
      <trkpt lat="46.82321" lon="-0.68906">
        <ele>162</ele>
        <time>2021-09-02T12:45:12Z</time>
      </trkpt>
      <trkpt lat="46.82321" lon="-0.68934">
        <ele>161</ele>
        <time>2021-09-02T12:45:16Z</time>
      </trkpt>
      <trkpt lat="46.82401" lon="-0.69136">
        <ele>164</ele>
        <time>2021-09-02T12:45:44Z</time>
      </trkpt>
      <trkpt lat="46.82408" lon="-0.69161">
        <ele>164</ele>
        <time>2021-09-02T12:45:47Z</time>
      </trkpt>
      <trkpt lat="46.8241" lon="-0.69184">
        <ele>163</ele>
        <time>2021-09-02T12:45:50Z</time>
      </trkpt>
      <trkpt lat="46.82408" lon="-0.69204">
        <ele>163</ele>
        <time>2021-09-02T12:45:53Z</time>
      </trkpt>
      <trkpt lat="46.824" lon="-0.69234">
        <ele>162</ele>
        <time>2021-09-02T12:45:57Z</time>
      </trkpt>
      <trkpt lat="46.8238" lon="-0.69297">
        <ele>161</ele>
        <time>2021-09-02T12:46:05Z</time>
      </trkpt>
      <trkpt lat="46.82375" lon="-0.69325">
        <ele>160</ele>
        <time>2021-09-02T12:46:09Z</time>
      </trkpt>
      <trkpt lat="46.82375" lon="-0.69348">
        <ele>160</ele>
        <time>2021-09-02T12:46:11Z</time>
      </trkpt>
      <trkpt lat="46.82378" lon="-0.69371">
        <ele>160</ele>
        <time>2021-09-02T12:46:14Z</time>
      </trkpt>
      <trkpt lat="46.82408" lon="-0.69479">
        <ele>164</ele>
        <time>2021-09-02T12:46:28Z</time>
      </trkpt>
      <trkpt lat="46.82418" lon="-0.6951">
        <ele>167</ele>
        <time>2021-09-02T12:46:33Z</time>
      </trkpt>
      <trkpt lat="46.82465" lon="-0.6963">
        <ele>173</ele>
        <time>2021-09-02T12:46:49Z</time>
      </trkpt>
      <trkpt lat="46.82475" lon="-0.69665">
        <ele>174</ele>
        <time>2021-09-02T12:46:54Z</time>
      </trkpt>
      <trkpt lat="46.82481" lon="-0.69701">
        <ele>174</ele>
        <time>2021-09-02T12:46:59Z</time>
      </trkpt>
      <trkpt lat="46.82494" lon="-0.69811">
        <ele>172</ele>
        <time>2021-09-02T12:47:12Z</time>
      </trkpt>
      <trkpt lat="46.82495" lon="-0.69835">
        <ele>172</ele>
        <time>2021-09-02T12:47:15Z</time>
      </trkpt>
      <trkpt lat="46.82493" lon="-0.69856">
        <ele>171</ele>
        <time>2021-09-02T12:47:18Z</time>
      </trkpt>
      <trkpt lat="46.82488" lon="-0.69876">
        <ele>170</ele>
        <time>2021-09-02T12:47:20Z</time>
      </trkpt>
      <trkpt lat="46.82469" lon="-0.6994">
        <ele>168</ele>
        <time>2021-09-02T12:47:29Z</time>
      </trkpt>
      <trkpt lat="46.82467" lon="-0.69955">
        <ele>168</ele>
        <time>2021-09-02T12:47:31Z</time>
      </trkpt>
      <trkpt lat="46.82467" lon="-0.69974">
        <ele>167</ele>
        <time>2021-09-02T12:47:33Z</time>
      </trkpt>
      <trkpt lat="46.82469" lon="-0.69992">
        <ele>166</ele>
        <time>2021-09-02T12:47:35Z</time>
      </trkpt>
      <trkpt lat="46.82473" lon="-0.70009">
        <ele>166</ele>
        <time>2021-09-02T12:47:37Z</time>
      </trkpt>
      <trkpt lat="46.8248" lon="-0.70026">
        <ele>165</ele>
        <time>2021-09-02T12:47:40Z</time>
      </trkpt>
      <trkpt lat="46.82488" lon="-0.70039">
        <ele>165</ele>
        <time>2021-09-02T12:47:42Z</time>
      </trkpt>
      <trkpt lat="46.82552" lon="-0.70107">
        <ele>161</ele>
        <time>2021-09-02T12:47:56Z</time>
      </trkpt>
      <trkpt lat="46.82581" lon="-0.70145">
        <ele>159</ele>
        <time>2021-09-02T12:48:03Z</time>
      </trkpt>
      <trkpt lat="46.82612" lon="-0.70233">
        <ele>156</ele>
        <time>2021-09-02T12:48:15Z</time>
      </trkpt>
      <trkpt lat="46.82621" lon="-0.70253">
        <ele>156</ele>
        <time>2021-09-02T12:48:18Z</time>
      </trkpt>
      <trkpt lat="46.82652" lon="-0.70308">
        <ele>155</ele>
        <time>2021-09-02T12:48:27Z</time>
      </trkpt>
      <trkpt lat="46.82663" lon="-0.70335">
        <ele>154</ele>
        <time>2021-09-02T12:48:30Z</time>
      </trkpt>
      <trkpt lat="46.82672" lon="-0.70362">
        <ele>153</ele>
        <time>2021-09-02T12:48:34Z</time>
      </trkpt>
      <trkpt lat="46.82678" lon="-0.70391">
        <ele>153</ele>
        <time>2021-09-02T12:48:38Z</time>
      </trkpt>
      <trkpt lat="46.827" lon="-0.70572">
        <ele>155</ele>
        <time>2021-09-02T12:49:00Z</time>
      </trkpt>
      <trkpt lat="46.82701" lon="-0.70599">
        <ele>155</ele>
        <time>2021-09-02T12:49:03Z</time>
      </trkpt>
      <trkpt lat="46.827" lon="-0.70622">
        <ele>155</ele>
        <time>2021-09-02T12:49:06Z</time>
      </trkpt>
      <trkpt lat="46.82697" lon="-0.70647">
        <ele>155</ele>
        <time>2021-09-02T12:49:09Z</time>
      </trkpt>
      <trkpt lat="46.82688" lon="-0.70679">
        <ele>155</ele>
        <time>2021-09-02T12:49:13Z</time>
      </trkpt>
      <trkpt lat="46.8266" lon="-0.70749">
        <ele>155</ele>
        <time>2021-09-02T12:49:23Z</time>
      </trkpt>
      <trkpt lat="46.82655" lon="-0.70768">
        <ele>155</ele>
        <time>2021-09-02T12:49:26Z</time>
      </trkpt>
      <trkpt lat="46.82651" lon="-0.70788">
        <ele>155</ele>
        <time>2021-09-02T12:49:28Z</time>
      </trkpt>
      <trkpt lat="46.82648" lon="-0.7083">
        <ele>155</ele>
        <time>2021-09-02T12:49:34Z</time>
      </trkpt>
      <trkpt lat="46.82653" lon="-0.70869">
        <ele>155</ele>
        <time>2021-09-02T12:49:38Z</time>
      </trkpt>
      <trkpt lat="46.82662" lon="-0.70906">
        <ele>156</ele>
        <time>2021-09-02T12:49:43Z</time>
      </trkpt>
      <trkpt lat="46.8269" lon="-0.7099">
        <ele>157</ele>
        <time>2021-09-02T12:49:55Z</time>
      </trkpt>
      <trkpt lat="46.82713" lon="-0.71048">
        <ele>158</ele>
        <time>2021-09-02T12:50:03Z</time>
      </trkpt>
      <trkpt lat="46.82743" lon="-0.71116">
        <ele>160</ele>
        <time>2021-09-02T12:50:13Z</time>
      </trkpt>
      <trkpt lat="46.82749" lon="-0.71149">
        <ele>161</ele>
        <time>2021-09-02T12:50:17Z</time>
      </trkpt>
      <trkpt lat="46.82784" lon="-0.71379">
        <ele>160</ele>
        <time>2021-09-02T12:50:45Z</time>
      </trkpt>
      <trkpt lat="46.82814" lon="-0.71606">
        <ele>158</ele>
        <time>2021-09-02T12:51:14Z</time>
      </trkpt>
      <trkpt lat="46.82834" lon="-0.71801">
        <ele>166</ele>
        <time>2021-09-02T12:51:38Z</time>
      </trkpt>
      <trkpt lat="46.82883" lon="-0.71868">
        <ele>168</ele>
        <time>2021-09-02T12:51:49Z</time>
      </trkpt>
      <trkpt lat="46.82913" lon="-0.71913">
        <ele>169</ele>
        <time>2021-09-02T12:51:57Z</time>
      </trkpt>
      <trkpt lat="46.83003" lon="-0.72037">
        <ele>164</ele>
        <time>2021-09-02T12:52:19Z</time>
      </trkpt>
      <trkpt lat="46.83012" lon="-0.72057">
        <ele>164</ele>
        <time>2021-09-02T12:52:22Z</time>
      </trkpt>
      <trkpt lat="46.83019" lon="-0.7208">
        <ele>163</ele>
        <time>2021-09-02T12:52:25Z</time>
      </trkpt>
      <trkpt lat="46.83045" lon="-0.72301">
        <ele>165</ele>
        <time>2021-09-02T12:52:52Z</time>
      </trkpt>
      <trkpt lat="46.83062" lon="-0.72402">
        <ele>166</ele>
        <time>2021-09-02T12:53:05Z</time>
      </trkpt>
      <trkpt lat="46.83085" lon="-0.72499">
        <ele>164</ele>
        <time>2021-09-02T12:53:18Z</time>
      </trkpt>
      <trkpt lat="46.8309" lon="-0.72527">
        <ele>164</ele>
        <time>2021-09-02T12:53:21Z</time>
      </trkpt>
      <trkpt lat="46.83091" lon="-0.72552">
        <ele>164</ele>
        <time>2021-09-02T12:53:24Z</time>
      </trkpt>
      <trkpt lat="46.83089" lon="-0.72612">
        <ele>165</ele>
        <time>2021-09-02T12:53:31Z</time>
      </trkpt>
      <trkpt lat="46.83086" lon="-0.72642">
        <ele>165</ele>
        <time>2021-09-02T12:53:35Z</time>
      </trkpt>
      <trkpt lat="46.8307" lon="-0.72754">
        <ele>168</ele>
        <time>2021-09-02T12:53:49Z</time>
      </trkpt>
      <trkpt lat="46.83062" lon="-0.72846">
        <ele>169</ele>
        <time>2021-09-02T12:54:00Z</time>
      </trkpt>
      <trkpt lat="46.83063" lon="-0.72899">
        <ele>170</ele>
        <time>2021-09-02T12:54:07Z</time>
      </trkpt>
      <trkpt lat="46.83066" lon="-0.72931">
        <ele>170</ele>
        <time>2021-09-02T12:54:11Z</time>
      </trkpt>
      <trkpt lat="46.83076" lon="-0.72988">
        <ele>168</ele>
        <time>2021-09-02T12:54:18Z</time>
      </trkpt>
      <trkpt lat="46.83082" lon="-0.73013">
        <ele>166</ele>
        <time>2021-09-02T12:54:21Z</time>
      </trkpt>
      <trkpt lat="46.83104" lon="-0.73067">
        <ele>164</ele>
        <time>2021-09-02T12:54:29Z</time>
      </trkpt>
      <trkpt lat="46.8317" lon="-0.73194">
        <ele>157</ele>
        <time>2021-09-02T12:54:48Z</time>
      </trkpt>
      <trkpt lat="46.83238" lon="-0.73347">
        <ele>149</ele>
        <time>2021-09-02T12:55:10Z</time>
      </trkpt>
      <trkpt lat="46.83257" lon="-0.73379">
        <ele>149</ele>
        <time>2021-09-02T12:55:16Z</time>
      </trkpt>
      <trkpt lat="46.83329" lon="-0.73445">
        <ele>150</ele>
        <time>2021-09-02T12:55:31Z</time>
      </trkpt>
      <trkpt lat="46.83461" lon="-0.7356">
        <ele>158</ele>
        <time>2021-09-02T12:55:58Z</time>
      </trkpt>
      <trkpt lat="46.83473" lon="-0.73577">
        <ele>159</ele>
        <time>2021-09-02T12:56:01Z</time>
      </trkpt>
      <trkpt lat="46.83479" lon="-0.7359">
        <ele>160</ele>
        <time>2021-09-02T12:56:03Z</time>
      </trkpt>
      <trkpt lat="46.83488" lon="-0.73623">
        <ele>161</ele>
        <time>2021-09-02T12:56:07Z</time>
      </trkpt>
      <trkpt lat="46.83521" lon="-0.73774">
        <ele>164</ele>
        <time>2021-09-02T12:56:27Z</time>
      </trkpt>
      <trkpt lat="46.8355" lon="-0.73865">
        <ele>166</ele>
        <time>2021-09-02T12:56:39Z</time>
      </trkpt>
      <trkpt lat="46.83586" lon="-0.74005">
        <ele>168</ele>
        <time>2021-09-02T12:56:57Z</time>
      </trkpt>
      <trkpt lat="46.83638" lon="-0.74142">
        <ele>171</ele>
        <time>2021-09-02T12:57:16Z</time>
      </trkpt>
      <trkpt lat="46.83655" lon="-0.74197">
        <ele>172</ele>
        <time>2021-09-02T12:57:23Z</time>
      </trkpt>
      <trkpt lat="46.83665" lon="-0.74241">
        <ele>174</ele>
        <time>2021-09-02T12:57:29Z</time>
      </trkpt>
      <trkpt lat="46.83687" lon="-0.7436">
        <ele>178</ele>
        <time>2021-09-02T12:57:44Z</time>
      </trkpt>
      <trkpt lat="46.83694" lon="-0.74421">
        <ele>178</ele>
        <time>2021-09-02T12:57:52Z</time>
      </trkpt>
      <trkpt lat="46.83694" lon="-0.74521">
        <ele>173</ele>
        <time>2021-09-02T12:58:04Z</time>
      </trkpt>
      <trkpt lat="46.83692" lon="-0.74593">
        <ele>169</ele>
        <time>2021-09-02T12:58:12Z</time>
      </trkpt>
      <trkpt lat="46.83674" lon="-0.74691">
        <ele>167</ele>
        <time>2021-09-02T12:58:25Z</time>
      </trkpt>
      <trkpt lat="46.8367" lon="-0.74816">
        <ele>165</ele>
        <time>2021-09-02T12:58:40Z</time>
      </trkpt>
      <trkpt lat="46.83673" lon="-0.74853">
        <ele>165</ele>
        <time>2021-09-02T12:58:45Z</time>
      </trkpt>
      <trkpt lat="46.83681" lon="-0.749">
        <ele>166</ele>
        <time>2021-09-02T12:58:50Z</time>
      </trkpt>
      <trkpt lat="46.83701" lon="-0.75009">
        <ele>166</ele>
        <time>2021-09-02T12:59:04Z</time>
      </trkpt>
      <trkpt lat="46.83732" lon="-0.75077">
        <ele>167</ele>
        <time>2021-09-02T12:59:14Z</time>
      </trkpt>
      <trkpt lat="46.83737" lon="-0.75098">
        <ele>168</ele>
        <time>2021-09-02T12:59:17Z</time>
      </trkpt>
      <trkpt lat="46.83737" lon="-0.75121">
        <ele>169</ele>
        <time>2021-09-02T12:59:20Z</time>
      </trkpt>
      <trkpt lat="46.83728" lon="-0.7516">
        <ele>170</ele>
        <time>2021-09-02T12:59:25Z</time>
      </trkpt>
      <trkpt lat="46.83684" lon="-0.75261">
        <ele>173</ele>
        <time>2021-09-02T12:59:39Z</time>
      </trkpt>
      <trkpt lat="46.8368" lon="-0.75288">
        <ele>174</ele>
        <time>2021-09-02T12:59:43Z</time>
      </trkpt>
      <trkpt lat="46.83679" lon="-0.75313">
        <ele>174</ele>
        <time>2021-09-02T12:59:46Z</time>
      </trkpt>
      <trkpt lat="46.83684" lon="-0.75342">
        <ele>175</ele>
        <time>2021-09-02T12:59:49Z</time>
      </trkpt>
      <trkpt lat="46.83706" lon="-0.75405">
        <ele>177</ele>
        <time>2021-09-02T12:59:58Z</time>
      </trkpt>
      <trkpt lat="46.83754" lon="-0.75512">
        <ele>180</ele>
        <time>2021-09-02T13:00:13Z</time>
      </trkpt>
      <trkpt lat="46.83768" lon="-0.75537">
        <ele>181</ele>
        <time>2021-09-02T13:00:17Z</time>
      </trkpt>
      <trkpt lat="46.83773" lon="-0.75559">
        <ele>182</ele>
        <time>2021-09-02T13:00:20Z</time>
      </trkpt>
      <trkpt lat="46.83776" lon="-0.75583">
        <ele>182</ele>
        <time>2021-09-02T13:00:23Z</time>
      </trkpt>
      <trkpt lat="46.83775" lon="-0.7566">
        <ele>181</ele>
        <time>2021-09-02T13:00:33Z</time>
      </trkpt>
      <trkpt lat="46.83782" lon="-0.75732">
        <ele>181</ele>
        <time>2021-09-02T13:00:41Z</time>
      </trkpt>
      <trkpt lat="46.83791" lon="-0.75762">
        <ele>180</ele>
        <time>2021-09-02T13:00:45Z</time>
      </trkpt>
      <trkpt lat="46.83804" lon="-0.75789">
        <ele>180</ele>
        <time>2021-09-02T13:00:49Z</time>
      </trkpt>
      <trkpt lat="46.83898" lon="-0.75952">
        <ele>180</ele>
        <time>2021-09-02T13:01:15Z</time>
      </trkpt>
      <trkpt lat="46.83917" lon="-0.75992">
        <ele>179</ele>
        <time>2021-09-02T13:01:21Z</time>
      </trkpt>
      <trkpt lat="46.8394" lon="-0.7605">
        <ele>178</ele>
        <time>2021-09-02T13:01:29Z</time>
      </trkpt>
      <trkpt lat="46.83959" lon="-0.76135">
        <ele>179</ele>
        <time>2021-09-02T13:01:40Z</time>
      </trkpt>
      <trkpt lat="46.83997" lon="-0.76321">
        <ele>177</ele>
        <time>2021-09-02T13:02:04Z</time>
      </trkpt>
      <trkpt lat="46.84002" lon="-0.76417">
        <ele>175</ele>
        <time>2021-09-02T13:02:16Z</time>
      </trkpt>
      <trkpt lat="46.84001" lon="-0.76531">
        <ele>171</ele>
        <time>2021-09-02T13:02:30Z</time>
      </trkpt>
      <trkpt lat="46.83999" lon="-0.76572">
        <ele>169</ele>
        <time>2021-09-02T13:02:35Z</time>
      </trkpt>
      <trkpt lat="46.83996" lon="-0.76595">
        <ele>168</ele>
        <time>2021-09-02T13:02:37Z</time>
      </trkpt>
      <trkpt lat="46.83994" lon="-0.76642">
        <ele>166</ele>
        <time>2021-09-02T13:02:43Z</time>
      </trkpt>
      <trkpt lat="46.83998" lon="-0.76694">
        <ele>164</ele>
        <time>2021-09-02T13:02:50Z</time>
      </trkpt>
      <trkpt lat="46.84043" lon="-0.76979">
        <ele>151</ele>
        <time>2021-09-02T13:03:25Z</time>
      </trkpt>
      <trkpt lat="46.84066" lon="-0.77148">
        <ele>147</ele>
        <time>2021-09-02T13:03:46Z</time>
      </trkpt>
      <trkpt lat="46.84077" lon="-0.77219">
        <ele>146</ele>
        <time>2021-09-02T13:03:55Z</time>
      </trkpt>
      <trkpt lat="46.84089" lon="-0.77252">
        <ele>146</ele>
        <time>2021-09-02T13:04:00Z</time>
      </trkpt>
      <trkpt lat="46.84097" lon="-0.77296">
        <ele>146</ele>
        <time>2021-09-02T13:04:05Z</time>
      </trkpt>
      <trkpt lat="46.84096" lon="-0.77312">
        <ele>146</ele>
        <time>2021-09-02T13:04:07Z</time>
      </trkpt>
      <trkpt lat="46.84091" lon="-0.77323">
        <ele>145</ele>
        <time>2021-09-02T13:04:09Z</time>
      </trkpt>
      <trkpt lat="46.84067" lon="-0.77322">
        <ele>145</ele>
        <time>2021-09-02T13:04:13Z</time>
      </trkpt>
      <trkpt lat="46.84028" lon="-0.77322">
        <ele>143</ele>
        <time>2021-09-02T13:04:20Z</time>
      </trkpt>
      <trkpt lat="46.84001" lon="-0.77322">
        <ele>142</ele>
        <time>2021-09-02T13:04:25Z</time>
      </trkpt>
      <trkpt lat="46.83992" lon="-0.77324">
        <ele>142</ele>
        <time>2021-09-02T13:04:26Z</time>
      </trkpt>
      <trkpt lat="46.83981" lon="-0.77333">
        <ele>142</ele>
        <time>2021-09-02T13:04:28Z</time>
      </trkpt>
      <trkpt lat="46.8397" lon="-0.77346">
        <ele>142</ele>
        <time>2021-09-02T13:04:31Z</time>
      </trkpt>
      <trkpt lat="46.83956" lon="-0.7738">
        <ele>143</ele>
        <time>2021-09-02T13:04:36Z</time>
      </trkpt>
      <trkpt lat="46.83946" lon="-0.774">
        <ele>143</ele>
        <time>2021-09-02T13:04:39Z</time>
      </trkpt>
      <trkpt lat="46.83934" lon="-0.77419">
        <ele>144</ele>
        <time>2021-09-02T13:04:42Z</time>
      </trkpt>
      <trkpt lat="46.83917" lon="-0.77436">
        <ele>144</ele>
        <time>2021-09-02T13:04:46Z</time>
      </trkpt>
      <trkpt lat="46.83906" lon="-0.77443">
        <ele>144</ele>
        <time>2021-09-02T13:04:48Z</time>
      </trkpt>
      <trkpt lat="46.83805" lon="-0.77469">
        <ele>144</ele>
        <time>2021-09-02T13:05:06Z</time>
      </trkpt>
      <trkpt lat="46.83791" lon="-0.77475">
        <ele>145</ele>
        <time>2021-09-02T13:05:09Z</time>
      </trkpt>
      <trkpt lat="46.83739" lon="-0.77513">
        <ele>147</ele>
        <time>2021-09-02T13:05:19Z</time>
      </trkpt>
      <trkpt lat="46.83742" lon="-0.77519">
        <ele>147</ele>
        <time>2021-09-02T13:05:20Z</time>
      </trkpt>
      <trkpt lat="46.8376" lon="-0.77657">
        <ele>149</ele>
        <time>2021-09-02T13:05:37Z</time>
      </trkpt>
      <trkpt lat="46.83769" lon="-0.77672">
        <ele>149</ele>
        <time>2021-09-02T13:05:39Z</time>
      </trkpt>
      <trkpt lat="46.83782" lon="-0.77687">
        <ele>149</ele>
        <time>2021-09-02T13:05:42Z</time>
      </trkpt>
      <trkpt lat="46.83806" lon="-0.77704">
        <ele>148</ele>
        <time>2021-09-02T13:05:47Z</time>
      </trkpt>
      <trkpt lat="46.83842" lon="-0.77711">
        <ele>147</ele>
        <time>2021-09-02T13:05:54Z</time>
      </trkpt>
      <trkpt lat="46.83858" lon="-0.77719">
        <ele>146</ele>
        <time>2021-09-02T13:05:57Z</time>
      </trkpt>
      <trkpt lat="46.83907" lon="-0.77781">
        <ele>143</ele>
        <time>2021-09-02T13:06:08Z</time>
      </trkpt>
      <trkpt lat="46.83935" lon="-0.7782">
        <ele>142</ele>
        <time>2021-09-02T13:06:15Z</time>
      </trkpt>
      <trkpt lat="46.83953" lon="-0.77851">
        <ele>142</ele>
        <time>2021-09-02T13:06:20Z</time>
      </trkpt>
      <trkpt lat="46.83959" lon="-0.77865">
        <ele>141</ele>
        <time>2021-09-02T13:06:22Z</time>
      </trkpt>
      <trkpt lat="46.83969" lon="-0.77893">
        <ele>141</ele>
        <time>2021-09-02T13:06:26Z</time>
      </trkpt>
      <trkpt lat="46.8407" lon="-0.78278">
        <ele>143</ele>
        <time>2021-09-02T13:07:16Z</time>
      </trkpt>
      <trkpt lat="46.84078" lon="-0.78323">
        <ele>143</ele>
        <time>2021-09-02T13:07:22Z</time>
      </trkpt>
      <trkpt lat="46.84084" lon="-0.78404">
        <ele>145</ele>
        <time>2021-09-02T13:07:32Z</time>
      </trkpt>
      <trkpt lat="46.8409" lon="-0.78549">
        <ele>145</ele>
        <time>2021-09-02T13:07:49Z</time>
      </trkpt>
      <trkpt lat="46.84094" lon="-0.7859">
        <ele>145</ele>
        <time>2021-09-02T13:07:54Z</time>
      </trkpt>
      <trkpt lat="46.84099" lon="-0.78622">
        <ele>147</ele>
        <time>2021-09-02T13:07:58Z</time>
      </trkpt>
      <trkpt lat="46.84106" lon="-0.78649">
        <ele>147</ele>
        <time>2021-09-02T13:08:02Z</time>
      </trkpt>
      <trkpt lat="46.84134" lon="-0.78738">
        <ele>150</ele>
        <time>2021-09-02T13:08:14Z</time>
      </trkpt>
      <trkpt lat="46.84154" lon="-0.78811">
        <ele>151</ele>
        <time>2021-09-02T13:08:23Z</time>
      </trkpt>
      <trkpt lat="46.84163" lon="-0.78864">
        <ele>152</ele>
        <time>2021-09-02T13:08:30Z</time>
      </trkpt>
      <trkpt lat="46.84165" lon="-0.78889">
        <ele>152</ele>
        <time>2021-09-02T13:08:33Z</time>
      </trkpt>
      <trkpt lat="46.84166" lon="-0.78915">
        <ele>153</ele>
        <time>2021-09-02T13:08:36Z</time>
      </trkpt>
      <trkpt lat="46.84165" lon="-0.78956">
        <ele>154</ele>
        <time>2021-09-02T13:08:41Z</time>
      </trkpt>
      <trkpt lat="46.84158" lon="-0.79028">
        <ele>156</ele>
        <time>2021-09-02T13:08:50Z</time>
      </trkpt>
      <trkpt lat="46.84154" lon="-0.79059">
        <ele>157</ele>
        <time>2021-09-02T13:08:54Z</time>
      </trkpt>
      <trkpt lat="46.84134" lon="-0.79165">
        <ele>162</ele>
        <time>2021-09-02T13:09:07Z</time>
      </trkpt>
      <trkpt lat="46.84134" lon="-0.79211">
        <ele>163</ele>
        <time>2021-09-02T13:09:13Z</time>
      </trkpt>
      <trkpt lat="46.84137" lon="-0.79252">
        <ele>164</ele>
        <time>2021-09-02T13:09:18Z</time>
      </trkpt>
      <trkpt lat="46.84144" lon="-0.79299">
        <ele>164</ele>
        <time>2021-09-02T13:09:24Z</time>
      </trkpt>
      <trkpt lat="46.84153" lon="-0.79345">
        <ele>164</ele>
        <time>2021-09-02T13:09:30Z</time>
      </trkpt>
      <trkpt lat="46.84213" lon="-0.796">
        <ele>160</ele>
        <time>2021-09-02T13:10:02Z</time>
      </trkpt>
      <trkpt lat="46.84295" lon="-0.79969">
        <ele>161</ele>
        <time>2021-09-02T13:10:50Z</time>
      </trkpt>
      <trkpt lat="46.84299" lon="-0.79992">
        <ele>160</ele>
        <time>2021-09-02T13:10:52Z</time>
      </trkpt>
      <trkpt lat="46.84301" lon="-0.80027">
        <ele>160</ele>
        <time>2021-09-02T13:10:57Z</time>
      </trkpt>
      <trkpt lat="46.84301" lon="-0.80065">
        <ele>158</ele>
        <time>2021-09-02T13:11:01Z</time>
      </trkpt>
      <trkpt lat="46.84297" lon="-0.80191">
        <ele>156</ele>
        <time>2021-09-02T13:11:17Z</time>
      </trkpt>
      <trkpt lat="46.84298" lon="-0.80221">
        <ele>157</ele>
        <time>2021-09-02T13:11:20Z</time>
      </trkpt>
      <trkpt lat="46.84301" lon="-0.80247">
        <ele>157</ele>
        <time>2021-09-02T13:11:24Z</time>
      </trkpt>
      <trkpt lat="46.84306" lon="-0.80271">
        <ele>157</ele>
        <time>2021-09-02T13:11:27Z</time>
      </trkpt>
      <trkpt lat="46.84323" lon="-0.8033">
        <ele>156</ele>
        <time>2021-09-02T13:11:34Z</time>
      </trkpt>
      <trkpt lat="46.84329" lon="-0.80357">
        <ele>156</ele>
        <time>2021-09-02T13:11:38Z</time>
      </trkpt>
      <trkpt lat="46.8433" lon="-0.80394">
        <ele>156</ele>
        <time>2021-09-02T13:11:42Z</time>
      </trkpt>
      <trkpt lat="46.84327" lon="-0.80501">
        <ele>155</ele>
        <time>2021-09-02T13:11:55Z</time>
      </trkpt>
      <trkpt lat="46.8433" lon="-0.80563">
        <ele>154</ele>
        <time>2021-09-02T13:12:03Z</time>
      </trkpt>
      <trkpt lat="46.84334" lon="-0.80593">
        <ele>154</ele>
        <time>2021-09-02T13:12:07Z</time>
      </trkpt>
      <trkpt lat="46.84344" lon="-0.8064">
        <ele>152</ele>
        <time>2021-09-02T13:12:13Z</time>
      </trkpt>
      <trkpt lat="46.84351" lon="-0.80656">
        <ele>151</ele>
        <time>2021-09-02T13:12:15Z</time>
      </trkpt>
      <trkpt lat="46.84359" lon="-0.80669">
        <ele>151</ele>
        <time>2021-09-02T13:12:17Z</time>
      </trkpt>
      <trkpt lat="46.84376" lon="-0.80687">
        <ele>149</ele>
        <time>2021-09-02T13:12:21Z</time>
      </trkpt>
      <trkpt lat="46.84392" lon="-0.80697">
        <ele>148</ele>
        <time>2021-09-02T13:12:24Z</time>
      </trkpt>
      <trkpt lat="46.8441" lon="-0.80703">
        <ele>147</ele>
        <time>2021-09-02T13:12:27Z</time>
      </trkpt>
      <trkpt lat="46.84386" lon="-0.81001">
        <ele>151</ele>
        <time>2021-09-02T13:13:04Z</time>
      </trkpt>
      <trkpt lat="46.84385" lon="-0.8104">
        <ele>151</ele>
        <time>2021-09-02T13:13:08Z</time>
      </trkpt>
      <trkpt lat="46.84388" lon="-0.8109">
        <ele>152</ele>
        <time>2021-09-02T13:13:15Z</time>
      </trkpt>
      <trkpt lat="46.84408" lon="-0.81184">
        <ele>153</ele>
        <time>2021-09-02T13:13:27Z</time>
      </trkpt>
      <trkpt lat="46.84412" lon="-0.81213">
        <ele>153</ele>
        <time>2021-09-02T13:13:30Z</time>
      </trkpt>
      <trkpt lat="46.8441" lon="-0.81252">
        <ele>153</ele>
        <time>2021-09-02T13:13:35Z</time>
      </trkpt>
      <trkpt lat="46.84405" lon="-0.81273">
        <ele>154</ele>
        <time>2021-09-02T13:13:38Z</time>
      </trkpt>
      <trkpt lat="46.84329" lon="-0.81519">
        <ele>156</ele>
        <time>2021-09-02T13:14:11Z</time>
      </trkpt>
      <trkpt lat="46.84317" lon="-0.8157">
        <ele>157</ele>
        <time>2021-09-02T13:14:17Z</time>
      </trkpt>
      <trkpt lat="46.84311" lon="-0.81619">
        <ele>157</ele>
        <time>2021-09-02T13:14:23Z</time>
      </trkpt>
      <trkpt lat="46.84295" lon="-0.81777">
        <ele>159</ele>
        <time>2021-09-02T13:14:43Z</time>
      </trkpt>
      <trkpt lat="46.84289" lon="-0.81846">
        <ele>160</ele>
        <time>2021-09-02T13:14:51Z</time>
      </trkpt>
      <trkpt lat="46.84291" lon="-0.81898">
        <ele>160</ele>
        <time>2021-09-02T13:14:57Z</time>
      </trkpt>
      <trkpt lat="46.84321" lon="-0.82035">
        <ele>162</ele>
        <time>2021-09-02T13:15:15Z</time>
      </trkpt>
      <trkpt lat="46.84325" lon="-0.82071">
        <ele>162</ele>
        <time>2021-09-02T13:15:19Z</time>
      </trkpt>
      <trkpt lat="46.84326" lon="-0.82109">
        <ele>161</ele>
        <time>2021-09-02T13:15:24Z</time>
      </trkpt>
      <trkpt lat="46.84319" lon="-0.82217">
        <ele>159</ele>
        <time>2021-09-02T13:15:37Z</time>
      </trkpt>
      <trkpt lat="46.8428" lon="-0.82685">
        <ele>156</ele>
        <time>2021-09-02T13:16:35Z</time>
      </trkpt>
      <trkpt lat="46.84282" lon="-0.82766">
        <ele>158</ele>
        <time>2021-09-02T13:16:44Z</time>
      </trkpt>
      <trkpt lat="46.84279" lon="-0.82811">
        <ele>159</ele>
        <time>2021-09-02T13:16:50Z</time>
      </trkpt>
      <trkpt lat="46.84268" lon="-0.82861">
        <ele>161</ele>
        <time>2021-09-02T13:16:56Z</time>
      </trkpt>
      <trkpt lat="46.84232" lon="-0.82989">
        <ele>167</ele>
        <time>2021-09-02T13:17:13Z</time>
      </trkpt>
      <trkpt lat="46.84207" lon="-0.83112">
        <ele>174</ele>
        <time>2021-09-02T13:17:29Z</time>
      </trkpt>
      <trkpt lat="46.84203" lon="-0.83126">
        <ele>174</ele>
        <time>2021-09-02T13:17:31Z</time>
      </trkpt>
      <trkpt lat="46.84196" lon="-0.83141">
        <ele>175</ele>
        <time>2021-09-02T13:17:33Z</time>
      </trkpt>
      <trkpt lat="46.84181" lon="-0.83164">
        <ele>176</ele>
        <time>2021-09-02T13:17:37Z</time>
      </trkpt>
      <trkpt lat="46.84157" lon="-0.8319">
        <ele>176</ele>
        <time>2021-09-02T13:17:42Z</time>
      </trkpt>
      <trkpt lat="46.84136" lon="-0.83222">
        <ele>175</ele>
        <time>2021-09-02T13:17:47Z</time>
      </trkpt>
      <trkpt lat="46.84126" lon="-0.8324">
        <ele>175</ele>
        <time>2021-09-02T13:17:50Z</time>
      </trkpt>
      <trkpt lat="46.84035" lon="-0.83482">
        <ele>169</ele>
        <time>2021-09-02T13:18:24Z</time>
      </trkpt>
      <trkpt lat="46.84024" lon="-0.83518">
        <ele>169</ele>
        <time>2021-09-02T13:18:29Z</time>
      </trkpt>
      <trkpt lat="46.83982" lon="-0.83718">
        <ele>171</ele>
        <time>2021-09-02T13:18:54Z</time>
      </trkpt>
      <trkpt lat="46.83977" lon="-0.83751">
        <ele>171</ele>
        <time>2021-09-02T13:18:58Z</time>
      </trkpt>
      <trkpt lat="46.83975" lon="-0.8383">
        <ele>171</ele>
        <time>2021-09-02T13:19:08Z</time>
      </trkpt>
      <trkpt lat="46.83973" lon="-0.84131">
        <ele>178</ele>
        <time>2021-09-02T13:19:44Z</time>
      </trkpt>
      <trkpt lat="46.83971" lon="-0.84159">
        <ele>178</ele>
        <time>2021-09-02T13:19:48Z</time>
      </trkpt>
      <trkpt lat="46.83968" lon="-0.84189">
        <ele>179</ele>
        <time>2021-09-02T13:19:52Z</time>
      </trkpt>
      <trkpt lat="46.83957" lon="-0.84243">
        <ele>179</ele>
        <time>2021-09-02T13:19:58Z</time>
      </trkpt>
      <trkpt lat="46.83943" lon="-0.84298">
        <ele>181</ele>
        <time>2021-09-02T13:20:06Z</time>
      </trkpt>
      <trkpt lat="46.83923" lon="-0.84418">
        <ele>185</ele>
        <time>2021-09-02T13:20:21Z</time>
      </trkpt>
      <trkpt lat="46.83909" lon="-0.84473">
        <ele>185</ele>
        <time>2021-09-02T13:20:28Z</time>
      </trkpt>
      <trkpt lat="46.83905" lon="-0.84519">
        <ele>185</ele>
        <time>2021-09-02T13:20:33Z</time>
      </trkpt>
      <trkpt lat="46.83907" lon="-0.84707">
        <ele>193</ele>
        <time>2021-09-02T13:20:56Z</time>
      </trkpt>
      <trkpt lat="46.83904" lon="-0.84732">
        <ele>195</ele>
        <time>2021-09-02T13:20:59Z</time>
      </trkpt>
      <trkpt lat="46.83894" lon="-0.84795">
        <ele>198</ele>
        <time>2021-09-02T13:21:07Z</time>
      </trkpt>
      <trkpt lat="46.83869" lon="-0.84936">
        <ele>201</ele>
        <time>2021-09-02T13:21:25Z</time>
      </trkpt>
      <trkpt lat="46.83868" lon="-0.84951">
        <ele>202</ele>
        <time>2021-09-02T13:21:27Z</time>
      </trkpt>
      <trkpt lat="46.83872" lon="-0.84964">
        <ele>202</ele>
        <time>2021-09-02T13:21:29Z</time>
      </trkpt>
      <trkpt lat="46.83861" lon="-0.8499">
        <ele>202</ele>
        <time>2021-09-02T13:21:32Z</time>
      </trkpt>
      <trkpt lat="46.83825" lon="-0.85111">
        <ele>203</ele>
        <time>2021-09-02T13:21:48Z</time>
      </trkpt>
      <trkpt lat="46.83808" lon="-0.85143">
        <ele>202</ele>
        <time>2021-09-02T13:21:53Z</time>
      </trkpt>
      <trkpt lat="46.83792" lon="-0.85163">
        <ele>202</ele>
        <time>2021-09-02T13:21:57Z</time>
      </trkpt>
      <trkpt lat="46.83778" lon="-0.85174">
        <ele>201</ele>
        <time>2021-09-02T13:22:00Z</time>
      </trkpt>
      <trkpt lat="46.83737" lon="-0.85201">
        <ele>199</ele>
        <time>2021-09-02T13:22:08Z</time>
      </trkpt>
      <trkpt lat="46.83712" lon="-0.85221">
        <ele>198</ele>
        <time>2021-09-02T13:22:13Z</time>
      </trkpt>
      <trkpt lat="46.83689" lon="-0.85249">
        <ele>196</ele>
        <time>2021-09-02T13:22:18Z</time>
      </trkpt>
      <trkpt lat="46.83658" lon="-0.85298">
        <ele>192</ele>
        <time>2021-09-02T13:22:26Z</time>
      </trkpt>
      <trkpt lat="46.83632" lon="-0.85355">
        <ele>191</ele>
        <time>2021-09-02T13:22:35Z</time>
      </trkpt>
      <trkpt lat="46.83622" lon="-0.85384">
        <ele>191</ele>
        <time>2021-09-02T13:22:39Z</time>
      </trkpt>
      <trkpt lat="46.83566" lon="-0.85568">
        <ele>199</ele>
        <time>2021-09-02T13:23:03Z</time>
      </trkpt>
      <trkpt lat="46.8356" lon="-0.85594">
        <ele>200</ele>
        <time>2021-09-02T13:23:06Z</time>
      </trkpt>
      <trkpt lat="46.83555" lon="-0.85624">
        <ele>200</ele>
        <time>2021-09-02T13:23:10Z</time>
      </trkpt>
      <trkpt lat="46.83538" lon="-0.85779">
        <ele>197</ele>
        <time>2021-09-02T13:23:29Z</time>
      </trkpt>
      <trkpt lat="46.83533" lon="-0.85796">
        <ele>197</ele>
        <time>2021-09-02T13:23:32Z</time>
      </trkpt>
      <trkpt lat="46.8352" lon="-0.85822">
        <ele>198</ele>
        <time>2021-09-02T13:23:36Z</time>
      </trkpt>
      <trkpt lat="46.83505" lon="-0.85842">
        <ele>200</ele>
        <time>2021-09-02T13:23:39Z</time>
      </trkpt>
      <trkpt lat="46.83482" lon="-0.85859">
        <ele>202</ele>
        <time>2021-09-02T13:23:44Z</time>
      </trkpt>
      <trkpt lat="46.83422" lon="-0.85875">
        <ele>207</ele>
        <time>2021-09-02T13:23:55Z</time>
      </trkpt>
      <trkpt lat="46.83407" lon="-0.85877">
        <ele>207</ele>
        <time>2021-09-02T13:23:57Z</time>
      </trkpt>
      <trkpt lat="46.83395" lon="-0.85877">
        <ele>201</ele>
      </trkpt>
      <trkpt lat="46.83387" lon="-0.85876">
        <ele>201.1</ele>
      </trkpt>
      <trkpt lat="46.83369" lon="-0.85862">
        <ele>201.7</ele>
      </trkpt>
      <trkpt lat="46.83354" lon="-0.85851">
        <ele>202.3</ele>
      </trkpt>
      <trkpt lat="46.83339" lon="-0.85847">
        <ele>202.8</ele>
      </trkpt>
      <trkpt lat="46.83322" lon="-0.85846">
        <ele>203.2</ele>
      </trkpt>
      <trkpt lat="46.83298" lon="-0.8586">
        <ele>204.2</ele>
      </trkpt>
      <trkpt lat="46.83281" lon="-0.85873">
        <ele>204.9</ele>
      </trkpt>
      <trkpt lat="46.8327" lon="-0.8588">
        <ele>205.3</ele>
      </trkpt>
      <trkpt lat="46.83257" lon="-0.8588">
        <ele>205.7</ele>
      </trkpt>
      <trkpt lat="46.83246" lon="-0.85873">
        <ele>206.1</ele>
      </trkpt>
      <trkpt lat="46.83227" lon="-0.8586">
        <ele>206.9</ele>
      </trkpt>
      <trkpt lat="46.83207" lon="-0.85841">
        <ele>208.3</ele>
      </trkpt>
      <trkpt lat="46.83176" lon="-0.85812">
        <ele>210.6</ele>
      </trkpt>
      <trkpt lat="46.8316" lon="-0.858">
        <ele>211.7</ele>
      </trkpt>
      <trkpt lat="46.83154" lon="-0.85808">
        <ele>211.9</ele>
      </trkpt>
      <trkpt lat="46.8315" lon="-0.85816">
        <ele>212</ele>
      </trkpt>
      <trkpt lat="46.83143" lon="-0.8582">
        <ele>212.3</ele>
      </trkpt>
      <trkpt lat="46.83135" lon="-0.85831">
        <ele>212.2</ele>
      </trkpt>
      <trkpt lat="46.83127" lon="-0.85834">
        <ele>212.4</ele>
      </trkpt>
      <trkpt lat="46.83128" lon="-0.85844">
        <ele>212.2</ele>
      </trkpt>
      <trkpt lat="46.83125" lon="-0.85861">
        <ele>212</ele>
      </trkpt>
      <trkpt lat="46.83114" lon="-0.85913">
        <ele>211.8</ele>
      </trkpt>
      <trkpt lat="46.8311" lon="-0.85939">
        <ele>211.3</ele>
      </trkpt>
      <trkpt lat="46.83107" lon="-0.85967">
        <ele>211.2</ele>
      </trkpt>
      <trkpt lat="46.83107" lon="-0.85999">
        <ele>211.1</ele>
      </trkpt>
      <trkpt lat="46.8311" lon="-0.8603">
        <ele>211</ele>
      </trkpt>
      <trkpt lat="46.83117" lon="-0.86057">
        <ele>210.8</ele>
      </trkpt>
      <trkpt lat="46.83121" lon="-0.86072">
        <ele>210.3</ele>
      </trkpt>
      <trkpt lat="46.83126" lon="-0.86085">
        <ele>210</ele>
      </trkpt>
      <trkpt lat="46.83135" lon="-0.86096">
        <ele>210.1</ele>
      </trkpt>
      <trkpt lat="46.83129" lon="-0.86115">
        <ele>210.4</ele>
      </trkpt>
      <trkpt lat="46.8312" lon="-0.86135">
        <ele>211</ele>
      </trkpt>
      <trkpt lat="46.83111" lon="-0.86156">
        <ele>211</ele>
      </trkpt>
      <trkpt lat="46.83097" lon="-0.86186">
        <ele>210.5</ele>
      </trkpt>
      <trkpt lat="46.83082" lon="-0.86223">
        <ele>210</ele>
      </trkpt>
      <trkpt lat="46.83066" lon="-0.86258">
        <ele>210.5</ele>
      </trkpt>
      <trkpt lat="46.83055" lon="-0.86283">
        <ele>211.2</ele>
      </trkpt>
      <trkpt lat="46.83047" lon="-0.86303">
        <ele>211.6</ele>
      </trkpt>
      <trkpt lat="46.83041" lon="-0.86316">
        <ele>211.7</ele>
      </trkpt>
      <trkpt lat="46.83035" lon="-0.86329">
        <ele>211.9</ele>
      </trkpt>
      <trkpt lat="46.83031" lon="-0.86338">
        <ele>212.2</ele>
      </trkpt>
      <trkpt lat="46.83032" lon="-0.86345">
        <ele>212.4</ele>
      </trkpt>
      <trkpt lat="46.83033" lon="-0.86352">
        <ele>212.7</ele>
      </trkpt>
      <trkpt lat="46.83059" lon="-0.86355">
        <ele>212.8</ele>
      </trkpt>
      <trkpt lat="46.8308" lon="-0.86358">
        <ele>213</ele>
      </trkpt>
      <trkpt lat="46.8311" lon="-0.86359">
        <ele>213.9</ele>
      </trkpt>
      <trkpt lat="46.83127" lon="-0.86359">
        <ele>213.9</ele>
      </trkpt>
      <trkpt lat="46.83151" lon="-0.86361">
        <ele>214.4</ele>
      </trkpt>
      <trkpt lat="46.83172" lon="-0.86362">
        <ele>215</ele>
      </trkpt>
      <trkpt lat="46.8319" lon="-0.86369">
        <ele>215.3</ele>
      </trkpt>
      <trkpt lat="46.83189" lon="-0.86378">
        <ele>217</ele>
        <time>2021-09-02T13:25:20Z</time>
      </trkpt>
      <trkpt lat="46.83189" lon="-0.86394">
        <ele>218</ele>
        <time>2021-09-02T13:25:22Z</time>
      </trkpt>
      <trkpt lat="46.8319" lon="-0.86408">
        <ele>218</ele>
        <time>2021-09-02T13:25:24Z</time>
      </trkpt>
      <trkpt lat="46.83199" lon="-0.86445">
        <ele>219</ele>
        <time>2021-09-02T13:25:29Z</time>
      </trkpt>
      <trkpt lat="46.83211" lon="-0.8648">
        <ele>220</ele>
        <time>2021-09-02T13:25:34Z</time>
      </trkpt>
      <trkpt lat="46.83211" lon="-0.86489">
        <ele>220</ele>
        <time>2021-09-02T13:25:35Z</time>
      </trkpt>
      <trkpt lat="46.83209" lon="-0.86496">
        <ele>220</ele>
        <time>2021-09-02T13:25:36Z</time>
      </trkpt>
      <trkpt lat="46.83204" lon="-0.86502">
        <ele>220</ele>
        <time>2021-09-02T13:25:37Z</time>
      </trkpt>
      <trkpt lat="46.83138" lon="-0.86562">
        <ele>220</ele>
        <time>2021-09-02T13:25:51Z</time>
      </trkpt>
      <trkpt lat="46.83123" lon="-0.86589">
        <ele>221</ele>
        <time>2021-09-02T13:25:55Z</time>
      </trkpt>
      <trkpt lat="46.83113" lon="-0.86616">
        <ele>221</ele>
        <time>2021-09-02T13:25:59Z</time>
      </trkpt>
      <trkpt lat="46.83111" lon="-0.8663">
        <ele>222</ele>
        <time>2021-09-02T13:26:00Z</time>
      </trkpt>
      <trkpt lat="46.83111" lon="-0.86639">
        <ele>222</ele>
        <time>2021-09-02T13:26:01Z</time>
      </trkpt>
      <trkpt lat="46.83105" lon="-0.86664">
        <ele>223</ele>
        <time>2021-09-02T13:26:05Z</time>
      </trkpt>
      <trkpt lat="46.83092" lon="-0.86694">
        <ele>225</ele>
        <time>2021-09-02T13:26:09Z</time>
      </trkpt>
      <trkpt lat="46.8307" lon="-0.86738">
        <ele>227</ele>
        <time>2021-09-02T13:26:16Z</time>
      </trkpt>
      <trkpt lat="46.83066" lon="-0.86754">
        <ele>228</ele>
        <time>2021-09-02T13:26:18Z</time>
      </trkpt>
      <trkpt lat="46.83064" lon="-0.86773">
        <ele>228</ele>
        <time>2021-09-02T13:26:20Z</time>
      </trkpt>
      <trkpt lat="46.83062" lon="-0.86842">
        <ele>231</ele>
        <time>2021-09-02T13:26:28Z</time>
      </trkpt>
      <trkpt lat="46.83058" lon="-0.86874">
        <ele>232</ele>
        <time>2021-09-02T13:26:32Z</time>
      </trkpt>
      <trkpt lat="46.83014" lon="-0.87041">
        <ele>238</ele>
        <time>2021-09-02T13:26:54Z</time>
      </trkpt>
      <trkpt lat="46.83002" lon="-0.87094">
        <ele>239</ele>
        <time>2021-09-02T13:27:01Z</time>
      </trkpt>
      <trkpt lat="46.83003" lon="-0.87163">
        <ele>238</ele>
        <time>2021-09-02T13:27:09Z</time>
      </trkpt>
      <trkpt lat="46.83009" lon="-0.87249">
        <ele>238</ele>
        <time>2021-09-02T13:27:20Z</time>
      </trkpt>
      <trkpt lat="46.83009" lon="-0.87274">
        <ele>238</ele>
        <time>2021-09-02T13:27:23Z</time>
      </trkpt>
      <trkpt lat="46.83001" lon="-0.87338">
        <ele>239</ele>
        <time>2021-09-02T13:27:31Z</time>
      </trkpt>
      <trkpt lat="46.82988" lon="-0.87397">
        <ele>239</ele>
        <time>2021-09-02T13:27:38Z</time>
      </trkpt>
      <trkpt lat="46.82945" lon="-0.87538">
        <ele>238</ele>
        <time>2021-09-02T13:27:57Z</time>
      </trkpt>
      <trkpt lat="46.82942" lon="-0.8756">
        <ele>238</ele>
        <time>2021-09-02T13:28:00Z</time>
      </trkpt>
      <trkpt lat="46.82941" lon="-0.87578">
        <ele>239</ele>
        <time>2021-09-02T13:28:02Z</time>
      </trkpt>
      <trkpt lat="46.82943" lon="-0.87598">
        <ele>239</ele>
        <time>2021-09-02T13:28:05Z</time>
      </trkpt>
      <trkpt lat="46.82949" lon="-0.87623">
        <ele>240</ele>
        <time>2021-09-02T13:28:08Z</time>
      </trkpt>
      <trkpt lat="46.8296" lon="-0.87666">
        <ele>240</ele>
        <time>2021-09-02T13:28:13Z</time>
      </trkpt>
      <trkpt lat="46.82967" lon="-0.87685">
        <ele>241</ele>
        <time>2021-09-02T13:28:16Z</time>
      </trkpt>
      <trkpt lat="46.82981" lon="-0.87715">
        <ele>242</ele>
        <time>2021-09-02T13:28:20Z</time>
      </trkpt>
      <trkpt lat="46.83" lon="-0.87745">
        <ele>244</ele>
        <time>2021-09-02T13:28:25Z</time>
      </trkpt>
      <trkpt lat="46.83011" lon="-0.87772">
        <ele>246</ele>
        <time>2021-09-02T13:28:29Z</time>
      </trkpt>
      <trkpt lat="46.8302" lon="-0.87802">
        <ele>248</ele>
        <time>2021-09-02T13:28:33Z</time>
      </trkpt>
      <trkpt lat="46.83037" lon="-0.87874">
        <ele>250</ele>
        <time>2021-09-02T13:28:43Z</time>
      </trkpt>
      <trkpt lat="46.83045" lon="-0.87916">
        <ele>251</ele>
        <time>2021-09-02T13:28:48Z</time>
      </trkpt>
      <trkpt lat="46.83044" lon="-0.87946">
        <ele>253</ele>
        <time>2021-09-02T13:28:51Z</time>
      </trkpt>
      <trkpt lat="46.8303" lon="-0.88001">
        <ele>256</ele>
        <time>2021-09-02T13:28:59Z</time>
      </trkpt>
      <trkpt lat="46.83022" lon="-0.8804">
        <ele>257</ele>
        <time>2021-09-02T13:29:04Z</time>
      </trkpt>
      <trkpt lat="46.83022" lon="-0.88078">
        <ele>257</ele>
        <time>2021-09-02T13:29:08Z</time>
      </trkpt>
      <trkpt lat="46.83031" lon="-0.88155">
        <ele>260</ele>
        <time>2021-09-02T13:29:18Z</time>
      </trkpt>
      <trkpt lat="46.83031" lon="-0.88178">
        <ele>261</ele>
        <time>2021-09-02T13:29:20Z</time>
      </trkpt>
      <trkpt lat="46.83029" lon="-0.88197">
        <ele>262</ele>
        <time>2021-09-02T13:29:23Z</time>
      </trkpt>
      <trkpt lat="46.83023" lon="-0.88227">
        <ele>262</ele>
        <time>2021-09-02T13:29:27Z</time>
      </trkpt>
      <trkpt lat="46.83012" lon="-0.88252">
        <ele>262</ele>
        <time>2021-09-02T13:29:30Z</time>
      </trkpt>
      <trkpt lat="46.82934" lon="-0.88343">
        <ele>263</ele>
        <time>2021-09-02T13:29:48Z</time>
      </trkpt>
      <trkpt lat="46.82946" lon="-0.88364">
        <ele>263</ele>
        <time>2021-09-02T13:29:51Z</time>
      </trkpt>
      <trkpt lat="46.82967" lon="-0.88389">
        <ele>264</ele>
        <time>2021-09-02T13:29:56Z</time>
      </trkpt>
      <trkpt lat="46.8298" lon="-0.88403">
        <ele>265</ele>
        <time>2021-09-02T13:29:59Z</time>
      </trkpt>
      <trkpt lat="46.82993" lon="-0.88411">
        <ele>265</ele>
        <time>2021-09-02T13:30:02Z</time>
      </trkpt>
      <trkpt lat="46.83113" lon="-0.88464">
        <ele>264</ele>
        <time>2021-09-02T13:30:24Z</time>
      </trkpt>
      <trkpt lat="46.83139" lon="-0.8848">
        <ele>262</ele>
        <time>2021-09-02T13:30:29Z</time>
      </trkpt>
      <trkpt lat="46.83131" lon="-0.885">
        <ele>260</ele>
        <time>2021-09-02T13:30:32Z</time>
      </trkpt>
      <trkpt lat="46.83139" lon="-0.8848">
        <ele>262</ele>
        <time>2021-09-02T13:30:35Z</time>
      </trkpt>
      <trkpt lat="46.83163" lon="-0.88497">
        <ele>260</ele>
        <time>2021-09-02T13:30:39Z</time>
      </trkpt>
      <trkpt lat="46.83184" lon="-0.88516">
        <ele>260</ele>
        <time>2021-09-02T13:30:44Z</time>
      </trkpt>
      <trkpt lat="46.83211" lon="-0.88546">
        <ele>259</ele>
        <time>2021-09-02T13:30:50Z</time>
      </trkpt>
      <trkpt lat="46.83225" lon="-0.88567">
        <ele>258</ele>
        <time>2021-09-02T13:30:53Z</time>
      </trkpt>
      <trkpt lat="46.83238" lon="-0.88592">
        <ele>256</ele>
        <time>2021-09-02T13:30:57Z</time>
      </trkpt>
      <trkpt lat="46.83251" lon="-0.88623">
        <ele>255</ele>
        <time>2021-09-02T13:31:02Z</time>
      </trkpt>
      <trkpt lat="46.83303" lon="-0.88813">
        <ele>250</ele>
        <time>2021-09-02T13:31:26Z</time>
      </trkpt>
      <trkpt lat="46.83326" lon="-0.88911">
        <ele>248</ele>
        <time>2021-09-02T13:31:39Z</time>
      </trkpt>
      <trkpt lat="46.83394" lon="-0.8917">
        <ele>245</ele>
        <time>2021-09-02T13:32:13Z</time>
      </trkpt>
      <trkpt lat="46.83402" lon="-0.89169">
        <ele>245</ele>
        <time>2021-09-02T13:32:14Z</time>
      </trkpt>
      <trkpt lat="46.83406" lon="-0.8917">
        <ele>246</ele>
        <time>2021-09-02T13:32:15Z</time>
      </trkpt>
      <trkpt lat="46.83409" lon="-0.89174">
        <ele>245</ele>
        <time>2021-09-02T13:32:16Z</time>
      </trkpt>
      <trkpt lat="46.83414" lon="-0.89184">
        <ele>245</ele>
        <time>2021-09-02T13:32:17Z</time>
      </trkpt>
      <trkpt lat="46.83414" lon="-0.8919">
        <ele>244</ele>
        <time>2021-09-02T13:32:18Z</time>
      </trkpt>
      <trkpt lat="46.83411" lon="-0.89202">
        <ele>243</ele>
        <time>2021-09-02T13:32:19Z</time>
      </trkpt>
      <trkpt lat="46.83404" lon="-0.8921">
        <ele>243</ele>
        <time>2021-09-02T13:32:21Z</time>
      </trkpt>
      <trkpt lat="46.83434" lon="-0.89376">
        <ele>237</ele>
        <time>2021-09-02T13:32:42Z</time>
      </trkpt>
      <trkpt lat="46.8348" lon="-0.89728">
        <ele>244</ele>
        <time>2021-09-02T13:33:26Z</time>
      </trkpt>
      <trkpt lat="46.83535" lon="-0.90209">
        <ele>241</ele>
        <time>2021-09-02T13:34:25Z</time>
      </trkpt>
      <trkpt lat="46.8356" lon="-0.90457">
        <ele>239</ele>
        <time>2021-09-02T13:34:55Z</time>
      </trkpt>
      <trkpt lat="46.83566" lon="-0.90492">
        <ele>238</ele>
        <time>2021-09-02T13:35:00Z</time>
      </trkpt>
      <trkpt lat="46.83572" lon="-0.90505">
        <ele>237</ele>
        <time>2021-09-02T13:35:02Z</time>
      </trkpt>
      <trkpt lat="46.83578" lon="-0.90504">
        <ele>238</ele>
        <time>2021-09-02T13:35:03Z</time>
      </trkpt>
      <trkpt lat="46.83581" lon="-0.90505">
        <ele>238</ele>
        <time>2021-09-02T13:35:03Z</time>
      </trkpt>
      <trkpt lat="46.83586" lon="-0.90511">
        <ele>238</ele>
        <time>2021-09-02T13:35:05Z</time>
      </trkpt>
      <trkpt lat="46.83587" lon="-0.90516">
        <ele>238</ele>
        <time>2021-09-02T13:35:05Z</time>
      </trkpt>
      <trkpt lat="46.83586" lon="-0.90525">
        <ele>237</ele>
        <time>2021-09-02T13:35:06Z</time>
      </trkpt>
      <trkpt lat="46.83637" lon="-0.90581">
        <ele>239</ele>
        <time>2021-09-02T13:35:18Z</time>
      </trkpt>
      <trkpt lat="46.83749" lon="-0.90689">
        <ele>243</ele>
        <time>2021-09-02T13:35:41Z</time>
      </trkpt>
      <trkpt lat="46.83803" lon="-0.90745">
        <ele>245</ele>
        <time>2021-09-02T13:35:53Z</time>
      </trkpt>
      <trkpt lat="46.8382" lon="-0.90771">
        <ele>245</ele>
        <time>2021-09-02T13:35:58Z</time>
      </trkpt>
      <trkpt lat="46.83848" lon="-0.90821">
        <ele>244</ele>
        <time>2021-09-02T13:36:06Z</time>
      </trkpt>
      <trkpt lat="46.83872" lon="-0.90879">
        <ele>243</ele>
        <time>2021-09-02T13:36:14Z</time>
      </trkpt>
      <trkpt lat="46.83894" lon="-0.90923">
        <ele>242</ele>
        <time>2021-09-02T13:36:20Z</time>
      </trkpt>
      <trkpt lat="46.83927" lon="-0.90972">
        <ele>241</ele>
        <time>2021-09-02T13:36:29Z</time>
      </trkpt>
      <trkpt lat="46.83957" lon="-0.91009">
        <ele>242</ele>
        <time>2021-09-02T13:36:36Z</time>
      </trkpt>
      <trkpt lat="46.83969" lon="-0.9103">
        <ele>241</ele>
        <time>2021-09-02T13:36:39Z</time>
      </trkpt>
      <trkpt lat="46.83982" lon="-0.91053">
        <ele>241</ele>
        <time>2021-09-02T13:36:43Z</time>
      </trkpt>
      <trkpt lat="46.83998" lon="-0.91097">
        <ele>241</ele>
        <time>2021-09-02T13:36:49Z</time>
      </trkpt>
      <trkpt lat="46.84007" lon="-0.9114">
        <ele>243</ele>
        <time>2021-09-02T13:36:54Z</time>
      </trkpt>
      <trkpt lat="46.84012" lon="-0.91192">
        <ele>245</ele>
        <time>2021-09-02T13:37:01Z</time>
      </trkpt>
      <trkpt lat="46.84013" lon="-0.91244">
        <ele>248</ele>
        <time>2021-09-02T13:37:07Z</time>
      </trkpt>
      <trkpt lat="46.84019" lon="-0.91321">
        <ele>250</ele>
        <time>2021-09-02T13:37:16Z</time>
      </trkpt>
      <trkpt lat="46.84024" lon="-0.91349">
        <ele>252</ele>
        <time>2021-09-02T13:37:20Z</time>
      </trkpt>
      <trkpt lat="46.84034" lon="-0.91388">
        <ele>254</ele>
        <time>2021-09-02T13:37:25Z</time>
      </trkpt>
      <trkpt lat="46.84058" lon="-0.91448">
        <ele>256</ele>
        <time>2021-09-02T13:37:33Z</time>
      </trkpt>
      <trkpt lat="46.84077" lon="-0.91477">
        <ele>256</ele>
        <time>2021-09-02T13:37:38Z</time>
      </trkpt>
      <trkpt lat="46.84097" lon="-0.91503">
        <ele>256</ele>
        <time>2021-09-02T13:37:43Z</time>
      </trkpt>
      <trkpt lat="46.84128" lon="-0.91537">
        <ele>255</ele>
        <time>2021-09-02T13:37:50Z</time>
      </trkpt>
      <trkpt lat="46.8415" lon="-0.91569">
        <ele>253</ele>
        <time>2021-09-02T13:37:56Z</time>
      </trkpt>
      <trkpt lat="46.84183" lon="-0.91631">
        <ele>250</ele>
        <time>2021-09-02T13:38:05Z</time>
      </trkpt>
      <trkpt lat="46.84242" lon="-0.91752">
        <ele>239</ele>
        <time>2021-09-02T13:38:23Z</time>
      </trkpt>
      <trkpt lat="46.84261" lon="-0.91786">
        <ele>237</ele>
        <time>2021-09-02T13:38:29Z</time>
      </trkpt>
      <trkpt lat="46.84305" lon="-0.91855">
        <ele>234</ele>
        <time>2021-09-02T13:38:40Z</time>
      </trkpt>
      <trkpt lat="46.84348" lon="-0.91915">
        <ele>231</ele>
        <time>2021-09-02T13:38:51Z</time>
      </trkpt>
      <trkpt lat="46.84389" lon="-0.91982">
        <ele>229</ele>
        <time>2021-09-02T13:39:01Z</time>
      </trkpt>
      <trkpt lat="46.84425" lon="-0.92048">
        <ele>227</ele>
        <time>2021-09-02T13:39:12Z</time>
      </trkpt>
      <trkpt lat="46.84449" lon="-0.92098">
        <ele>227</ele>
        <time>2021-09-02T13:39:19Z</time>
      </trkpt>
      <trkpt lat="46.84461" lon="-0.92125">
        <ele>227</ele>
        <time>2021-09-02T13:39:23Z</time>
      </trkpt>
      <trkpt lat="46.84478" lon="-0.92174">
        <ele>226</ele>
        <time>2021-09-02T13:39:30Z</time>
      </trkpt>
      <trkpt lat="46.84525" lon="-0.9233">
        <ele>220</ele>
        <time>2021-09-02T13:39:51Z</time>
      </trkpt>
      <trkpt lat="46.84536" lon="-0.92361">
        <ele>218</ele>
        <time>2021-09-02T13:39:55Z</time>
      </trkpt>
      <trkpt lat="46.84559" lon="-0.92408">
        <ele>216</ele>
        <time>2021-09-02T13:40:02Z</time>
      </trkpt>
      <trkpt lat="46.84576" lon="-0.92434">
        <ele>215</ele>
        <time>2021-09-02T13:40:06Z</time>
      </trkpt>
      <trkpt lat="46.84596" lon="-0.9246">
        <ele>214</ele>
        <time>2021-09-02T13:40:11Z</time>
      </trkpt>
      <trkpt lat="46.84616" lon="-0.92481">
        <ele>213</ele>
        <time>2021-09-02T13:40:15Z</time>
      </trkpt>
      <trkpt lat="46.84634" lon="-0.92497">
        <ele>212</ele>
        <time>2021-09-02T13:40:19Z</time>
      </trkpt>
      <trkpt lat="46.84656" lon="-0.92512">
        <ele>211</ele>
        <time>2021-09-02T13:40:23Z</time>
      </trkpt>
      <trkpt lat="46.84712" lon="-0.92542">
        <ele>208</ele>
        <time>2021-09-02T13:40:34Z</time>
      </trkpt>
      <trkpt lat="46.84726" lon="-0.92551">
        <ele>207</ele>
        <time>2021-09-02T13:40:37Z</time>
      </trkpt>
      <trkpt lat="46.84753" lon="-0.92574">
        <ele>205</ele>
        <time>2021-09-02T13:40:42Z</time>
      </trkpt>
      <trkpt lat="46.84772" lon="-0.92604">
        <ele>203</ele>
        <time>2021-09-02T13:40:47Z</time>
      </trkpt>
      <trkpt lat="46.84782" lon="-0.92626">
        <ele>202</ele>
        <time>2021-09-02T13:40:51Z</time>
      </trkpt>
      <trkpt lat="46.84816" lon="-0.92719">
        <ele>196</ele>
        <time>2021-09-02T13:41:03Z</time>
      </trkpt>
      <trkpt lat="46.8483" lon="-0.9275">
        <ele>194</ele>
        <time>2021-09-02T13:41:08Z</time>
      </trkpt>
      <trkpt lat="46.84846" lon="-0.9278">
        <ele>192</ele>
        <time>2021-09-02T13:41:12Z</time>
      </trkpt>
      <trkpt lat="46.84914" lon="-0.92889">
        <ele>183</ele>
        <time>2021-09-02T13:41:30Z</time>
      </trkpt>
      <trkpt lat="46.84963" lon="-0.92982">
        <ele>180</ele>
        <time>2021-09-02T13:41:45Z</time>
      </trkpt>
      <trkpt lat="46.84998" lon="-0.93061">
        <ele>176</ele>
        <time>2021-09-02T13:41:56Z</time>
      </trkpt>
      <trkpt lat="46.85019" lon="-0.93121">
        <ele>172</ele>
        <time>2021-09-02T13:42:04Z</time>
      </trkpt>
      <trkpt lat="46.85032" lon="-0.93162">
        <ele>169</ele>
        <time>2021-09-02T13:42:10Z</time>
      </trkpt>
      <trkpt lat="46.85085" lon="-0.93368">
        <ele>162</ele>
        <time>2021-09-02T13:42:37Z</time>
      </trkpt>
      <trkpt lat="46.85115" lon="-0.93521">
        <ele>160</ele>
        <time>2021-09-02T13:42:56Z</time>
      </trkpt>
      <trkpt lat="46.8516" lon="-0.93782">
        <ele>154</ele>
        <time>2021-09-02T13:43:29Z</time>
      </trkpt>
      <trkpt lat="46.85174" lon="-0.93895">
        <ele>148</ele>
        <time>2021-09-02T13:43:43Z</time>
      </trkpt>
      <trkpt lat="46.8518" lon="-0.93973">
        <ele>146</ele>
        <time>2021-09-02T13:43:52Z</time>
      </trkpt>
      <trkpt lat="46.85181" lon="-0.94024">
        <ele>146</ele>
        <time>2021-09-02T13:43:59Z</time>
      </trkpt>
      <trkpt lat="46.8518" lon="-0.94152">
        <ele>145</ele>
        <time>2021-09-02T13:44:14Z</time>
      </trkpt>
      <trkpt lat="46.85174" lon="-0.9428">
        <ele>142</ele>
        <time>2021-09-02T13:44:30Z</time>
      </trkpt>
      <trkpt lat="46.85165" lon="-0.94357">
        <ele>139</ele>
        <time>2021-09-02T13:44:39Z</time>
      </trkpt>
      <trkpt lat="46.85153" lon="-0.94435">
        <ele>137</ele>
        <time>2021-09-02T13:44:49Z</time>
      </trkpt>
      <trkpt lat="46.85125" lon="-0.94585">
        <ele>132</ele>
        <time>2021-09-02T13:45:08Z</time>
      </trkpt>
      <trkpt lat="46.85112" lon="-0.94638">
        <ele>131</ele>
        <time>2021-09-02T13:45:15Z</time>
      </trkpt>
      <trkpt lat="46.85079" lon="-0.94748">
        <ele>129</ele>
        <time>2021-09-02T13:45:29Z</time>
      </trkpt>
      <trkpt lat="46.8507" lon="-0.94787">
        <ele>129</ele>
        <time>2021-09-02T13:45:34Z</time>
      </trkpt>
      <trkpt lat="46.85057" lon="-0.94862">
        <ele>128</ele>
        <time>2021-09-02T13:45:44Z</time>
      </trkpt>
      <trkpt lat="46.85047" lon="-0.94956">
        <ele>125</ele>
        <time>2021-09-02T13:45:55Z</time>
      </trkpt>
      <trkpt lat="46.85044" lon="-0.95044">
        <ele>122</ele>
        <time>2021-09-02T13:46:06Z</time>
      </trkpt>
      <trkpt lat="46.85046" lon="-0.95081">
        <ele>121</ele>
        <time>2021-09-02T13:46:11Z</time>
      </trkpt>
      <trkpt lat="46.85049" lon="-0.95118">
        <ele>121</ele>
        <time>2021-09-02T13:46:15Z</time>
      </trkpt>
      <trkpt lat="46.85054" lon="-0.95155">
        <ele>121</ele>
        <time>2021-09-02T13:46:20Z</time>
      </trkpt>
      <trkpt lat="46.8507" lon="-0.95223">
        <ele>121</ele>
        <time>2021-09-02T13:46:28Z</time>
      </trkpt>
      <trkpt lat="46.85103" lon="-0.95322">
        <ele>120</ele>
        <time>2021-09-02T13:46:42Z</time>
      </trkpt>
      <trkpt lat="46.85131" lon="-0.95388">
        <ele>120</ele>
        <time>2021-09-02T13:46:51Z</time>
      </trkpt>
      <trkpt lat="46.85165" lon="-0.95452">
        <ele>117</ele>
        <time>2021-09-02T13:47:01Z</time>
      </trkpt>
      <trkpt lat="46.85238" lon="-0.95565">
        <ele>110</ele>
        <time>2021-09-02T13:47:20Z</time>
      </trkpt>
      <trkpt lat="46.85255" lon="-0.95588">
        <ele>108</ele>
        <time>2021-09-02T13:47:24Z</time>
      </trkpt>
      <trkpt lat="46.85289" lon="-0.95626">
        <ele>105</ele>
        <time>2021-09-02T13:47:32Z</time>
      </trkpt>
      <trkpt lat="46.85397" lon="-0.95734">
        <ele>104</ele>
        <time>2021-09-02T13:47:55Z</time>
      </trkpt>
      <trkpt lat="46.85428" lon="-0.95768">
        <ele>106</ele>
        <time>2021-09-02T13:48:02Z</time>
      </trkpt>
      <trkpt lat="46.85455" lon="-0.95802">
        <ele>107</ele>
        <time>2021-09-02T13:48:08Z</time>
      </trkpt>
      <trkpt lat="46.85483" lon="-0.95841">
        <ele>108</ele>
        <time>2021-09-02T13:48:15Z</time>
      </trkpt>
      <trkpt lat="46.85521" lon="-0.95899">
        <ele>108</ele>
        <time>2021-09-02T13:48:25Z</time>
      </trkpt>
      <trkpt lat="46.85593" lon="-0.96019">
        <ele>109</ele>
        <time>2021-09-02T13:48:44Z</time>
      </trkpt>
      <trkpt lat="46.86183" lon="-0.9706">
        <ele>137</ele>
        <time>2021-09-02T13:51:29Z</time>
      </trkpt>
      <trkpt lat="46.86221" lon="-0.97131">
        <ele>137</ele>
        <time>2021-09-02T13:51:40Z</time>
      </trkpt>
      <trkpt lat="46.86237" lon="-0.97154">
        <ele>137</ele>
        <time>2021-09-02T13:51:44Z</time>
      </trkpt>
      <trkpt lat="46.86247" lon="-0.97162">
        <ele>137</ele>
        <time>2021-09-02T13:51:46Z</time>
      </trkpt>
      <trkpt lat="46.86261" lon="-0.97164">
        <ele>137</ele>
        <time>2021-09-02T13:51:48Z</time>
      </trkpt>
      <trkpt lat="46.8627" lon="-0.97172">
        <ele>138</ele>
        <time>2021-09-02T13:51:50Z</time>
      </trkpt>
      <trkpt lat="46.86275" lon="-0.9718">
        <ele>138</ele>
        <time>2021-09-02T13:51:52Z</time>
      </trkpt>
      <trkpt lat="46.86278" lon="-0.97193">
        <ele>138</ele>
        <time>2021-09-02T13:51:53Z</time>
      </trkpt>
      <trkpt lat="46.86278" lon="-0.97207">
        <ele>137</ele>
        <time>2021-09-02T13:51:55Z</time>
      </trkpt>
      <trkpt lat="46.86277" lon="-0.97214">
        <ele>137</ele>
        <time>2021-09-02T13:51:56Z</time>
      </trkpt>
      <trkpt lat="46.86273" lon="-0.97224">
        <ele>137</ele>
        <time>2021-09-02T13:51:57Z</time>
      </trkpt>
      <trkpt lat="46.86268" lon="-0.97231">
        <ele>137</ele>
        <time>2021-09-02T13:51:58Z</time>
      </trkpt>
      <trkpt lat="46.86262" lon="-0.97236">
        <ele>136</ele>
        <time>2021-09-02T13:52:00Z</time>
      </trkpt>
      <trkpt lat="46.86249" lon="-0.97239">
        <ele>136</ele>
        <time>2021-09-02T13:52:02Z</time>
      </trkpt>
      <trkpt lat="46.86236" lon="-0.97232">
        <ele>136</ele>
        <time>2021-09-02T13:52:05Z</time>
      </trkpt>
      <trkpt lat="46.8621" lon="-0.97249">
        <ele>135</ele>
        <time>2021-09-02T13:52:10Z</time>
      </trkpt>
      <trkpt lat="46.86077" lon="-0.97404">
        <ele>132</ele>
        <time>2021-09-02T13:52:40Z</time>
      </trkpt>
      <trkpt lat="46.85954" lon="-0.97539">
        <ele>131</ele>
        <time>2021-09-02T13:53:07Z</time>
      </trkpt>
      <trkpt lat="46.85888" lon="-0.97599">
        <ele>129</ele>
        <time>2021-09-02T13:53:21Z</time>
      </trkpt>
      <trkpt lat="46.85736" lon="-0.97731">
        <ele>126</ele>
        <time>2021-09-02T13:53:52Z</time>
      </trkpt>
      <trkpt lat="46.857" lon="-0.97767">
        <ele>127</ele>
        <time>2021-09-02T13:54:00Z</time>
      </trkpt>
      <trkpt lat="46.85666" lon="-0.97803">
        <ele>127</ele>
        <time>2021-09-02T13:54:08Z</time>
      </trkpt>
      <trkpt lat="46.85578" lon="-0.97918">
        <ele>125</ele>
        <time>2021-09-02T13:54:29Z</time>
      </trkpt>
      <trkpt lat="46.85521" lon="-0.97984">
        <ele>125</ele>
        <time>2021-09-02T13:54:42Z</time>
      </trkpt>
      <trkpt lat="46.85464" lon="-0.98043">
        <ele>126</ele>
        <time>2021-09-02T13:54:54Z</time>
      </trkpt>
      <trkpt lat="46.85364" lon="-0.9814">
        <ele>126</ele>
        <time>2021-09-02T13:55:15Z</time>
      </trkpt>
      <trkpt lat="46.85282" lon="-0.98235">
        <ele>124</ele>
        <time>2021-09-02T13:55:34Z</time>
      </trkpt>
      <trkpt lat="46.85249" lon="-0.98278">
        <ele>124</ele>
        <time>2021-09-02T13:55:42Z</time>
      </trkpt>
      <trkpt lat="46.85214" lon="-0.98327">
        <ele>123</ele>
        <time>2021-09-02T13:55:51Z</time>
      </trkpt>
      <trkpt lat="46.85181" lon="-0.98384">
        <ele>122</ele>
        <time>2021-09-02T13:56:00Z</time>
      </trkpt>
      <trkpt lat="46.85084" lon="-0.98574">
        <ele>120</ele>
        <time>2021-09-02T13:56:28Z</time>
      </trkpt>
      <trkpt lat="46.8505" lon="-0.98626">
        <ele>119</ele>
        <time>2021-09-02T13:56:37Z</time>
      </trkpt>
      <trkpt lat="46.85014" lon="-0.98666">
        <ele>119</ele>
        <time>2021-09-02T13:56:45Z</time>
      </trkpt>
      <trkpt lat="46.84994" lon="-0.98682">
        <ele>118</ele>
        <time>2021-09-02T13:56:49Z</time>
      </trkpt>
      <trkpt lat="46.84969" lon="-0.98699">
        <ele>118</ele>
        <time>2021-09-02T13:56:54Z</time>
      </trkpt>
      <trkpt lat="46.84949" lon="-0.98709">
        <ele>118</ele>
        <time>2021-09-02T13:56:58Z</time>
      </trkpt>
      <trkpt lat="46.84876" lon="-0.98737">
        <ele>119</ele>
        <time>2021-09-02T13:57:11Z</time>
      </trkpt>
      <trkpt lat="46.84876" lon="-0.98747">
        <ele>119</ele>
        <time>2021-09-02T13:57:13Z</time>
      </trkpt>
      <trkpt lat="46.84875" lon="-0.98758">
        <ele>119</ele>
        <time>2021-09-02T13:57:14Z</time>
      </trkpt>
      <trkpt lat="46.84871" lon="-0.98766">
        <ele>120</ele>
        <time>2021-09-02T13:57:15Z</time>
      </trkpt>
      <trkpt lat="46.84861" lon="-0.98777">
        <ele>120</ele>
        <time>2021-09-02T13:57:17Z</time>
      </trkpt>
      <trkpt lat="46.84849" lon="-0.98778">
        <ele>120</ele>
        <time>2021-09-02T13:57:20Z</time>
      </trkpt>
      <trkpt lat="46.84839" lon="-0.98772">
        <ele>121</ele>
        <time>2021-09-02T13:57:21Z</time>
      </trkpt>
      <trkpt lat="46.8483" lon="-0.98792">
        <ele>121</ele>
        <time>2021-09-02T13:57:24Z</time>
      </trkpt>
      <trkpt lat="46.84778" lon="-0.98828">
        <ele>121</ele>
        <time>2021-09-02T13:57:35Z</time>
      </trkpt>
      <trkpt lat="46.84688" lon="-0.98916">
        <ele>121</ele>
        <time>2021-09-02T13:57:54Z</time>
      </trkpt>
      <trkpt lat="46.84659" lon="-0.98953">
        <ele>121</ele>
        <time>2021-09-02T13:58:01Z</time>
      </trkpt>
      <trkpt lat="46.84629" lon="-0.98997">
        <ele>121</ele>
        <time>2021-09-02T13:58:08Z</time>
      </trkpt>
      <trkpt lat="46.84608" lon="-0.9903">
        <ele>120</ele>
        <time>2021-09-02T13:58:14Z</time>
      </trkpt>
      <trkpt lat="46.84588" lon="-0.99067">
        <ele>119</ele>
        <time>2021-09-02T13:58:20Z</time>
      </trkpt>
      <trkpt lat="46.84596" lon="-0.99077">
        <ele>119</ele>
        <time>2021-09-02T13:58:21Z</time>
      </trkpt>
      <trkpt lat="46.84599" lon="-0.99078">
        <ele>119</ele>
        <time>2021-09-02T13:58:22Z</time>
      </trkpt>
      <trkpt lat="46.84599" lon="-0.99089">
        <ele>119</ele>
        <time>2021-09-02T13:58:23Z</time>
      </trkpt>
      <trkpt lat="46.84602" lon="-0.99095">
        <ele>119</ele>
        <time>2021-09-02T13:58:24Z</time>
      </trkpt>
      <trkpt lat="46.84631" lon="-0.99149">
        <ele>118</ele>
        <time>2021-09-02T13:58:33Z</time>
      </trkpt>
      <trkpt lat="46.84647" lon="-0.99183">
        <ele>118</ele>
        <time>2021-09-02T13:58:38Z</time>
      </trkpt>
      <trkpt lat="46.84656" lon="-0.99211">
        <ele>118</ele>
        <time>2021-09-02T13:58:41Z</time>
      </trkpt>
      <trkpt lat="46.84669" lon="-0.99265">
        <ele>118</ele>
        <time>2021-09-02T13:58:48Z</time>
      </trkpt>
      <trkpt lat="46.84702" lon="-0.99372">
        <ele>118</ele>
        <time>2021-09-02T13:59:03Z</time>
      </trkpt>
      <trkpt lat="46.84713" lon="-0.9939">
        <ele>118</ele>
        <time>2021-09-02T13:59:06Z</time>
      </trkpt>
      <trkpt lat="46.84727" lon="-0.99409">
        <ele>118</ele>
        <time>2021-09-02T13:59:09Z</time>
      </trkpt>
      <trkpt lat="46.84777" lon="-0.99461">
        <ele>118</ele>
        <time>2021-09-02T13:59:20Z</time>
      </trkpt>
      <trkpt lat="46.84793" lon="-0.99482">
        <ele>118</ele>
        <time>2021-09-02T13:59:24Z</time>
      </trkpt>
      <trkpt lat="46.84839" lon="-0.99564">
        <ele>117</ele>
        <time>2021-09-02T13:59:37Z</time>
      </trkpt>
      <trkpt lat="46.84917" lon="-0.99712">
        <ele>116</ele>
        <time>2021-09-02T13:59:59Z</time>
      </trkpt>
      <trkpt lat="46.84934" lon="-0.99752">
        <ele>116</ele>
        <time>2021-09-02T14:00:05Z</time>
      </trkpt>
      <trkpt lat="46.84961" lon="-0.99833">
        <ele>116</ele>
        <time>2021-09-02T14:00:16Z</time>
      </trkpt>
      <trkpt lat="46.84967" lon="-0.9986">
        <ele>116</ele>
        <time>2021-09-02T14:00:19Z</time>
      </trkpt>
      <trkpt lat="46.84967" lon="-0.99881">
        <ele>116</ele>
        <time>2021-09-02T14:00:22Z</time>
      </trkpt>
      <trkpt lat="46.84961" lon="-0.99972">
        <ele>114</ele>
        <time>2021-09-02T14:00:33Z</time>
      </trkpt>
      <trkpt lat="46.8496" lon="-1.00028">
        <ele>114</ele>
        <time>2021-09-02T14:00:40Z</time>
      </trkpt>
      <trkpt lat="46.84964" lon="-1.00089">
        <ele>113</ele>
        <time>2021-09-02T14:00:47Z</time>
      </trkpt>
      <trkpt lat="46.84978" lon="-1.00147">
        <ele>114</ele>
        <time>2021-09-02T14:00:55Z</time>
      </trkpt>
      <trkpt lat="46.85009" lon="-1.00252">
        <ele>113</ele>
        <time>2021-09-02T14:01:09Z</time>
      </trkpt>
      <trkpt lat="46.85019" lon="-1.0028">
        <ele>113</ele>
        <time>2021-09-02T14:01:13Z</time>
      </trkpt>
      <trkpt lat="46.85078" lon="-1.00408">
        <ele>111</ele>
        <time>2021-09-02T14:01:31Z</time>
      </trkpt>
      <trkpt lat="46.85078" lon="-1.00416">
        <ele>111</ele>
        <time>2021-09-02T14:01:32Z</time>
      </trkpt>
      <trkpt lat="46.85076" lon="-1.00424">
        <ele>111</ele>
        <time>2021-09-02T14:01:33Z</time>
      </trkpt>
      <trkpt lat="46.85102" lon="-1.0044">
        <ele>110</ele>
        <time>2021-09-02T14:01:38Z</time>
      </trkpt>
      <trkpt lat="46.85261" lon="-1.00556">
        <ele>110</ele>
        <time>2021-09-02T14:02:10Z</time>
      </trkpt>
      <trkpt lat="46.85285" lon="-1.00572">
        <ele>110</ele>
        <time>2021-09-02T14:02:15Z</time>
      </trkpt>
      <trkpt lat="46.8534" lon="-1.00587">
        <ele>109</ele>
        <time>2021-09-02T14:02:25Z</time>
      </trkpt>
      <trkpt lat="46.85442" lon="-1.00633">
        <ele>108</ele>
        <time>2021-09-02T14:02:44Z</time>
      </trkpt>
      <trkpt lat="46.85483" lon="-1.00655">
        <ele>108</ele>
        <time>2021-09-02T14:02:51Z</time>
      </trkpt>
      <trkpt lat="46.85539" lon="-1.00693">
        <ele>108</ele>
        <time>2021-09-02T14:03:02Z</time>
      </trkpt>
      <trkpt lat="46.85562" lon="-1.00711">
        <ele>108</ele>
        <time>2021-09-02T14:03:07Z</time>
      </trkpt>
      <trkpt lat="46.85689" lon="-1.0083">
        <ele>112</ele>
        <time>2021-09-02T14:03:34Z</time>
      </trkpt>
      <trkpt lat="46.85838" lon="-1.00917">
        <ele>113</ele>
        <time>2021-09-02T14:04:03Z</time>
      </trkpt>
      <trkpt lat="46.8584" lon="-1.00911">
        <ele>113</ele>
        <time>2021-09-02T14:04:03Z</time>
      </trkpt>
      <trkpt lat="46.85848" lon="-1.00905">
        <ele>113</ele>
        <time>2021-09-02T14:04:05Z</time>
      </trkpt>
      <trkpt lat="46.85852" lon="-1.00904">
        <ele>113</ele>
        <time>2021-09-02T14:04:06Z</time>
      </trkpt>
      <trkpt lat="46.85873" lon="-1.00879">
        <ele>113</ele>
        <time>2021-09-02T14:04:10Z</time>
      </trkpt>
      <trkpt lat="46.85992" lon="-1.00579">
        <ele>113</ele>
        <time>2021-09-02T14:04:53Z</time>
      </trkpt>
      <trkpt lat="46.86004" lon="-1.00541">
        <ele>114</ele>
        <time>2021-09-02T14:04:58Z</time>
      </trkpt>
      <trkpt lat="46.86041" lon="-1.00409">
        <ele>115</ele>
        <time>2021-09-02T14:05:15Z</time>
      </trkpt>
      <trkpt lat="46.8614" lon="-1.00467">
        <ele>116</ele>
        <time>2021-09-02T14:05:34Z</time>
      </trkpt>
      <trkpt lat="46.8617" lon="-1.00489">
        <ele>115</ele>
        <time>2021-09-02T14:05:40Z</time>
      </trkpt>
      <trkpt lat="46.86189" lon="-1.00512">
        <ele>115</ele>
        <time>2021-09-02T14:05:44Z</time>
      </trkpt>
      <trkpt lat="46.86228" lon="-1.00664">
        <ele>117</ele>
        <time>2021-09-02T14:06:04Z</time>
      </trkpt>
      <trkpt lat="46.86234" lon="-1.00681">
        <ele>117</ele>
        <time>2021-09-02T14:06:07Z</time>
      </trkpt>
      <trkpt lat="46.8627" lon="-1.00662">
        <ele>118</ele>
        <time>2021-09-02T14:06:13Z</time>
      </trkpt>
      <trkpt lat="46.86315" lon="-1.00632">
        <ele>119</ele>
        <time>2021-09-02T14:06:22Z</time>
      </trkpt>
      <trkpt lat="46.86335" lon="-1.00614">
        <ele>119</ele>
        <time>2021-09-02T14:06:26Z</time>
      </trkpt>
      <trkpt lat="46.86381" lon="-1.00562">
        <ele>120</ele>
        <time>2021-09-02T14:06:37Z</time>
      </trkpt>
      <trkpt lat="46.86388" lon="-1.00558">
        <ele>120</ele>
        <time>2021-09-02T14:06:38Z</time>
      </trkpt>
    </trkseg>
  </trk>
</gpx>